<?xml version="1.0" encoding="UTF-8" standalone="no" ?>
<gpx xmlns="http://www.topografix.com/GPX/1/1" creator="CompeGPS" version="1.1" xmlns:xsi="http://www.w3.org/2001/XMLSchema-instance" xsi:schemaLocation="http://www.topografix.com/GPX/1/1 http://www.topografix.com/GPX/1/1/gpx.xsd http://www.garmin.com/xmlschemas/GpxExtensions/v3 http://www.garmin.com/xmlschemas/GpxExtensionsv3.xsd http://www.garmin.com/xmlschemas/TrackPointExtension/v1 http://www.garmin.com/xmlschemas/TrackPointExtensionv1.xsd" xmlns:gpxtpx="http://www.garmin.com/xmlschemas/TrackPointExtension/v1">
  <metadata>
    <link href="http://www.compegps.com">
      <text>CompeGPS TEAM, SL</text>
    </link>
    <time>2013-10-14T08:57:01Z</time>
    <bounds maxlat="42.786741" maxlon="0.154130" minlat="42.747111" minlon="0.124462"/>
  </metadata>
  <trk>
    <name>Pic de la Gela</name>
    <trkseg>
      <trkpt lat="42.786738" lon="0.154130">
        <ele>1795.7</ele>
        <time>2013-10-13T07:14:37Z</time>
      </trkpt>
      <trkpt lat="42.786672" lon="0.153640">
        <ele>1797.4</ele>
        <time>2013-10-13T07:14:46Z</time>
      </trkpt>
      <trkpt lat="42.786588" lon="0.153330">
        <ele>1800.1</ele>
        <time>2013-10-13T07:14:57Z</time>
      </trkpt>
      <trkpt lat="42.786516" lon="0.153001">
        <ele>1804.5</ele>
        <time>2013-10-13T07:15:07Z</time>
      </trkpt>
      <trkpt lat="42.786414" lon="0.152571">
        <ele>1825.3</ele>
        <time>2013-10-13T07:15:15Z</time>
      </trkpt>
      <trkpt lat="42.786417" lon="0.152440">
        <ele>1824.6</ele>
        <time>2013-10-13T07:15:23Z</time>
      </trkpt>
      <trkpt lat="42.786409" lon="0.152311">
        <ele>1823.9</ele>
        <time>2013-10-13T07:15:32Z</time>
      </trkpt>
      <trkpt lat="42.786425" lon="0.152183">
        <ele>1823.3</ele>
        <time>2013-10-13T07:15:40Z</time>
      </trkpt>
      <trkpt lat="42.786433" lon="0.152058">
        <ele>1822.3</ele>
        <time>2013-10-13T07:15:48Z</time>
      </trkpt>
      <trkpt lat="42.786464" lon="0.151923">
        <ele>1821.7</ele>
        <time>2013-10-13T07:15:55Z</time>
      </trkpt>
      <trkpt lat="42.786470" lon="0.151780">
        <ele>1821.2</ele>
        <time>2013-10-13T07:16:03Z</time>
      </trkpt>
      <trkpt lat="42.786477" lon="0.151651">
        <ele>1820.5</ele>
        <time>2013-10-13T07:16:10Z</time>
      </trkpt>
      <trkpt lat="42.786462" lon="0.151508">
        <ele>1819.2</ele>
        <time>2013-10-13T07:16:18Z</time>
      </trkpt>
      <trkpt lat="42.786459" lon="0.151371">
        <ele>1818.4</ele>
        <time>2013-10-13T07:16:26Z</time>
      </trkpt>
      <trkpt lat="42.786460" lon="0.151238">
        <ele>1817.9</ele>
        <time>2013-10-13T07:16:33Z</time>
      </trkpt>
      <trkpt lat="42.786422" lon="0.151122">
        <ele>1817.7</ele>
        <time>2013-10-13T07:16:40Z</time>
      </trkpt>
      <trkpt lat="42.786366" lon="0.150997">
        <ele>1817.7</ele>
        <time>2013-10-13T07:16:47Z</time>
      </trkpt>
      <trkpt lat="42.786339" lon="0.150888">
        <ele>1817.7</ele>
        <time>2013-10-13T07:16:54Z</time>
      </trkpt>
      <trkpt lat="42.786317" lon="0.150768">
        <ele>1817.9</ele>
        <time>2013-10-13T07:17:01Z</time>
      </trkpt>
      <trkpt lat="42.786289" lon="0.150646">
        <ele>1817.8</ele>
        <time>2013-10-13T07:17:08Z</time>
      </trkpt>
      <trkpt lat="42.786262" lon="0.150536">
        <ele>1817.8</ele>
        <time>2013-10-13T07:17:16Z</time>
      </trkpt>
      <trkpt lat="42.786206" lon="0.150426">
        <ele>1818.4</ele>
        <time>2013-10-13T07:17:24Z</time>
      </trkpt>
      <trkpt lat="42.786162" lon="0.150303">
        <ele>1818.6</ele>
        <time>2013-10-13T07:17:32Z</time>
      </trkpt>
      <trkpt lat="42.786114" lon="0.150192">
        <ele>1818.5</ele>
        <time>2013-10-13T07:17:39Z</time>
      </trkpt>
      <trkpt lat="42.786078" lon="0.150064">
        <ele>1818.7</ele>
        <time>2013-10-13T07:17:47Z</time>
      </trkpt>
      <trkpt lat="42.786064" lon="0.149931">
        <ele>1819.2</ele>
        <time>2013-10-13T07:17:55Z</time>
      </trkpt>
      <trkpt lat="42.786022" lon="0.149824">
        <ele>1819.6</ele>
        <time>2013-10-13T07:18:03Z</time>
      </trkpt>
      <trkpt lat="42.785984" lon="0.149711">
        <ele>1820.1</ele>
        <time>2013-10-13T07:18:11Z</time>
      </trkpt>
      <trkpt lat="42.785979" lon="0.149550">
        <ele>1820.7</ele>
        <time>2013-10-13T07:18:19Z</time>
      </trkpt>
      <trkpt lat="42.785961" lon="0.149424">
        <ele>1821.3</ele>
        <time>2013-10-13T07:18:27Z</time>
      </trkpt>
      <trkpt lat="42.785932" lon="0.149305">
        <ele>1821.9</ele>
        <time>2013-10-13T07:18:35Z</time>
      </trkpt>
      <trkpt lat="42.785910" lon="0.149181">
        <ele>1822.5</ele>
        <time>2013-10-13T07:18:43Z</time>
      </trkpt>
      <trkpt lat="42.785878" lon="0.149066">
        <ele>1823.0</ele>
        <time>2013-10-13T07:18:51Z</time>
      </trkpt>
      <trkpt lat="42.785837" lon="0.148948">
        <ele>1823.6</ele>
        <time>2013-10-13T07:18:59Z</time>
      </trkpt>
      <trkpt lat="42.785803" lon="0.148825">
        <ele>1824.1</ele>
        <time>2013-10-13T07:19:07Z</time>
      </trkpt>
      <trkpt lat="42.785779" lon="0.148689">
        <ele>1824.8</ele>
        <time>2013-10-13T07:19:15Z</time>
      </trkpt>
      <trkpt lat="42.785758" lon="0.148556">
        <ele>1825.6</ele>
        <time>2013-10-13T07:19:24Z</time>
      </trkpt>
      <trkpt lat="42.785718" lon="0.148437">
        <ele>1826.3</ele>
        <time>2013-10-13T07:19:31Z</time>
      </trkpt>
      <trkpt lat="42.785694" lon="0.148316">
        <ele>1827.0</ele>
        <time>2013-10-13T07:19:38Z</time>
      </trkpt>
      <trkpt lat="42.785660" lon="0.148193">
        <ele>1827.7</ele>
        <time>2013-10-13T07:19:46Z</time>
      </trkpt>
      <trkpt lat="42.785627" lon="0.148064">
        <ele>1828.4</ele>
        <time>2013-10-13T07:19:54Z</time>
      </trkpt>
      <trkpt lat="42.785607" lon="0.147942">
        <ele>1829.2</ele>
        <time>2013-10-13T07:20:02Z</time>
      </trkpt>
      <trkpt lat="42.785582" lon="0.147820">
        <ele>1830.3</ele>
        <time>2013-10-13T07:20:10Z</time>
      </trkpt>
      <trkpt lat="42.785543" lon="0.147706">
        <ele>1831.0</ele>
        <time>2013-10-13T07:20:17Z</time>
      </trkpt>
      <trkpt lat="42.785503" lon="0.147589">
        <ele>1831.6</ele>
        <time>2013-10-13T07:20:25Z</time>
      </trkpt>
      <trkpt lat="42.785478" lon="0.147465">
        <ele>1832.1</ele>
        <time>2013-10-13T07:20:32Z</time>
      </trkpt>
      <trkpt lat="42.785444" lon="0.147351">
        <ele>1832.5</ele>
        <time>2013-10-13T07:20:40Z</time>
      </trkpt>
      <trkpt lat="42.785415" lon="0.147233">
        <ele>1833.4</ele>
        <time>2013-10-13T07:20:49Z</time>
      </trkpt>
      <trkpt lat="42.785383" lon="0.147114">
        <ele>1834.4</ele>
        <time>2013-10-13T07:20:57Z</time>
      </trkpt>
      <trkpt lat="42.785376" lon="0.146976">
        <ele>1835.1</ele>
        <time>2013-10-13T07:21:06Z</time>
      </trkpt>
      <trkpt lat="42.785348" lon="0.146860">
        <ele>1836.0</ele>
        <time>2013-10-13T07:21:14Z</time>
      </trkpt>
      <trkpt lat="42.785331" lon="0.146723">
        <ele>1836.7</ele>
        <time>2013-10-13T07:21:22Z</time>
      </trkpt>
      <trkpt lat="42.785296" lon="0.146608">
        <ele>1837.1</ele>
        <time>2013-10-13T07:21:31Z</time>
      </trkpt>
      <trkpt lat="42.785258" lon="0.146510">
        <ele>1837.4</ele>
        <time>2013-10-13T07:21:39Z</time>
      </trkpt>
      <trkpt lat="42.785212" lon="0.146383">
        <ele>1838.0</ele>
        <time>2013-10-13T07:21:48Z</time>
      </trkpt>
      <trkpt lat="42.785204" lon="0.146261">
        <ele>1838.7</ele>
        <time>2013-10-13T07:21:57Z</time>
      </trkpt>
      <trkpt lat="42.785234" lon="0.146166">
        <ele>1839.4</ele>
        <time>2013-10-13T07:22:10Z</time>
      </trkpt>
      <trkpt lat="42.785247" lon="0.146040">
        <ele>1838.3</ele>
        <time>2013-10-13T07:22:17Z</time>
      </trkpt>
      <trkpt lat="42.785279" lon="0.145936">
        <ele>1837.5</ele>
        <time>2013-10-13T07:22:24Z</time>
      </trkpt>
      <trkpt lat="42.785259" lon="0.145805">
        <ele>1837.2</ele>
        <time>2013-10-13T07:22:33Z</time>
      </trkpt>
      <trkpt lat="42.785219" lon="0.145706">
        <ele>1836.2</ele>
        <time>2013-10-13T07:22:44Z</time>
      </trkpt>
      <trkpt lat="42.785190" lon="0.145580">
        <ele>1833.4</ele>
        <time>2013-10-13T07:22:57Z</time>
      </trkpt>
      <trkpt lat="42.785200" lon="0.145442">
        <ele>1831.7</ele>
        <time>2013-10-13T07:23:04Z</time>
      </trkpt>
      <trkpt lat="42.785215" lon="0.145310">
        <ele>1830.4</ele>
        <time>2013-10-13T07:23:13Z</time>
      </trkpt>
      <trkpt lat="42.785250" lon="0.145241">
        <ele>1829.4</ele>
        <time>2013-10-13T07:23:30Z</time>
      </trkpt>
      <trkpt lat="42.785325" lon="0.145157">
        <ele>1828.9</ele>
        <time>2013-10-13T07:23:42Z</time>
      </trkpt>
      <trkpt lat="42.785372" lon="0.145176">
        <ele>1829.2</ele>
        <time>2013-10-13T07:23:58Z</time>
      </trkpt>
      <trkpt lat="42.785393" lon="0.145049">
        <ele>1829.5</ele>
        <time>2013-10-13T07:24:21Z</time>
      </trkpt>
      <trkpt lat="42.785371" lon="0.144950">
        <ele>1830.4</ele>
        <time>2013-10-13T07:24:40Z</time>
      </trkpt>
      <trkpt lat="42.785415" lon="0.144885">
        <ele>1831.5</ele>
        <time>2013-10-13T07:25:02Z</time>
      </trkpt>
      <trkpt lat="42.785512" lon="0.144832">
        <ele>1834.4</ele>
        <time>2013-10-13T07:25:18Z</time>
      </trkpt>
      <trkpt lat="42.785595" lon="0.144734">
        <ele>1835.9</ele>
        <time>2013-10-13T07:25:27Z</time>
      </trkpt>
      <trkpt lat="42.785669" lon="0.144638">
        <ele>1837.2</ele>
        <time>2013-10-13T07:25:37Z</time>
      </trkpt>
      <trkpt lat="42.785723" lon="0.144528">
        <ele>1839.4</ele>
        <time>2013-10-13T07:25:49Z</time>
      </trkpt>
      <trkpt lat="42.785779" lon="0.144408">
        <ele>1841.2</ele>
        <time>2013-10-13T07:26:00Z</time>
        <cmt>Cab. Moune</cmt>
      </trkpt>
      <trkpt lat="42.785818" lon="0.144280">
        <ele>1843.0</ele>
        <time>2013-10-13T07:26:12Z</time>
      </trkpt>
      <trkpt lat="42.785878" lon="0.144165">
        <ele>1844.9</ele>
        <time>2013-10-13T07:26:24Z</time>
      </trkpt>
      <trkpt lat="42.785936" lon="0.144057">
        <ele>1847.4</ele>
        <time>2013-10-13T07:26:38Z</time>
      </trkpt>
      <trkpt lat="42.785971" lon="0.143941">
        <ele>1849.3</ele>
        <time>2013-10-13T07:26:51Z</time>
      </trkpt>
      <trkpt lat="42.786003" lon="0.143816">
        <ele>1851.3</ele>
        <time>2013-10-13T07:27:03Z</time>
      </trkpt>
      <trkpt lat="42.786051" lon="0.143705">
        <ele>1853.2</ele>
        <time>2013-10-13T07:27:14Z</time>
      </trkpt>
      <trkpt lat="42.786084" lon="0.143605">
        <ele>1855.4</ele>
        <time>2013-10-13T07:27:29Z</time>
      </trkpt>
      <trkpt lat="42.786107" lon="0.143478">
        <ele>1857.7</ele>
        <time>2013-10-13T07:27:44Z</time>
      </trkpt>
      <trkpt lat="42.786134" lon="0.143349">
        <ele>1860.2</ele>
        <time>2013-10-13T07:27:58Z</time>
      </trkpt>
      <trkpt lat="42.786156" lon="0.143220">
        <ele>1862.7</ele>
        <time>2013-10-13T07:28:11Z</time>
      </trkpt>
      <trkpt lat="42.786182" lon="0.143080">
        <ele>1865.7</ele>
        <time>2013-10-13T07:28:26Z</time>
      </trkpt>
      <trkpt lat="42.786206" lon="0.142956">
        <ele>1868.2</ele>
        <time>2013-10-13T07:28:39Z</time>
      </trkpt>
      <trkpt lat="42.786229" lon="0.142839">
        <ele>1870.7</ele>
        <time>2013-10-13T07:28:58Z</time>
      </trkpt>
      <trkpt lat="42.786214" lon="0.142713">
        <ele>1872.3</ele>
        <time>2013-10-13T07:29:12Z</time>
      </trkpt>
      <trkpt lat="42.786180" lon="0.142590">
        <ele>1874.5</ele>
        <time>2013-10-13T07:29:25Z</time>
      </trkpt>
      <trkpt lat="42.786122" lon="0.142474">
        <ele>1876.9</ele>
        <time>2013-10-13T07:29:40Z</time>
      </trkpt>
      <trkpt lat="42.786043" lon="0.142389">
        <ele>1878.2</ele>
        <time>2013-10-13T07:29:55Z</time>
      </trkpt>
      <trkpt lat="42.785970" lon="0.142314">
        <ele>1879.9</ele>
        <time>2013-10-13T07:30:05Z</time>
      </trkpt>
      <trkpt lat="42.785896" lon="0.142207">
        <ele>1880.8</ele>
        <time>2013-10-13T07:30:17Z</time>
      </trkpt>
      <trkpt lat="42.785817" lon="0.142114">
        <ele>1882.0</ele>
        <time>2013-10-13T07:30:29Z</time>
      </trkpt>
      <trkpt lat="42.785737" lon="0.142050">
        <ele>1882.6</ele>
        <time>2013-10-13T07:30:39Z</time>
      </trkpt>
      <trkpt lat="42.785653" lon="0.141974">
        <ele>1884.2</ele>
        <time>2013-10-13T07:30:50Z</time>
      </trkpt>
      <trkpt lat="42.785612" lon="0.141867">
        <ele>1884.7</ele>
        <time>2013-10-13T07:31:00Z</time>
      </trkpt>
      <trkpt lat="42.785568" lon="0.141752">
        <ele>1885.5</ele>
        <time>2013-10-13T07:31:10Z</time>
      </trkpt>
      <trkpt lat="42.785494" lon="0.141652">
        <ele>1886.1</ele>
        <time>2013-10-13T07:31:20Z</time>
      </trkpt>
      <trkpt lat="42.785434" lon="0.141553">
        <ele>1887.8</ele>
        <time>2013-10-13T07:31:32Z</time>
      </trkpt>
      <trkpt lat="42.785386" lon="0.141435">
        <ele>1888.9</ele>
        <time>2013-10-13T07:31:43Z</time>
      </trkpt>
      <trkpt lat="42.785334" lon="0.141314">
        <ele>1890.0</ele>
        <time>2013-10-13T07:31:55Z</time>
      </trkpt>
      <trkpt lat="42.785275" lon="0.141209">
        <ele>1892.1</ele>
        <time>2013-10-13T07:32:08Z</time>
      </trkpt>
      <trkpt lat="42.785196" lon="0.141131">
        <ele>1893.4</ele>
        <time>2013-10-13T07:32:22Z</time>
      </trkpt>
      <trkpt lat="42.785094" lon="0.141075">
        <ele>1894.6</ele>
        <time>2013-10-13T07:32:36Z</time>
      </trkpt>
      <trkpt lat="42.785019" lon="0.140993">
        <ele>1895.6</ele>
        <time>2013-10-13T07:32:48Z</time>
      </trkpt>
      <trkpt lat="42.784910" lon="0.140956">
        <ele>1896.3</ele>
        <time>2013-10-13T07:33:01Z</time>
      </trkpt>
      <trkpt lat="42.784831" lon="0.140902">
        <ele>1895.4</ele>
        <time>2013-10-13T07:33:13Z</time>
      </trkpt>
      <trkpt lat="42.784725" lon="0.140851">
        <ele>1894.8</ele>
        <time>2013-10-13T07:33:27Z</time>
      </trkpt>
      <trkpt lat="42.784641" lon="0.140777">
        <ele>1894.1</ele>
        <time>2013-10-13T07:33:37Z</time>
      </trkpt>
      <trkpt lat="42.784569" lon="0.140691">
        <ele>1894.6</ele>
        <time>2013-10-13T07:33:48Z</time>
      </trkpt>
      <trkpt lat="42.784532" lon="0.140562">
        <ele>1895.9</ele>
        <time>2013-10-13T07:34:00Z</time>
      </trkpt>
      <trkpt lat="42.784492" lon="0.140429">
        <ele>1897.2</ele>
        <time>2013-10-13T07:34:12Z</time>
      </trkpt>
      <trkpt lat="42.784460" lon="0.140306">
        <ele>1897.6</ele>
        <time>2013-10-13T07:34:23Z</time>
      </trkpt>
      <trkpt lat="42.784418" lon="0.140174">
        <ele>1899.0</ele>
        <time>2013-10-13T07:34:37Z</time>
      </trkpt>
      <trkpt lat="42.784343" lon="0.140086">
        <ele>1900.1</ele>
        <time>2013-10-13T07:34:48Z</time>
      </trkpt>
      <trkpt lat="42.784299" lon="0.139985">
        <ele>1900.9</ele>
        <time>2013-10-13T07:34:58Z</time>
      </trkpt>
      <trkpt lat="42.784245" lon="0.139872">
        <ele>1900.8</ele>
        <time>2013-10-13T07:35:08Z</time>
      </trkpt>
      <trkpt lat="42.784253" lon="0.139736">
        <ele>1901.4</ele>
        <time>2013-10-13T07:35:18Z</time>
      </trkpt>
      <trkpt lat="42.784232" lon="0.139615">
        <ele>1903.2</ele>
        <time>2013-10-13T07:35:31Z</time>
      </trkpt>
      <trkpt lat="42.784215" lon="0.139486">
        <ele>1905.5</ele>
        <time>2013-10-13T07:35:44Z</time>
      </trkpt>
      <trkpt lat="42.784222" lon="0.139441">
        <ele>1908.1</ele>
        <time>2013-10-13T07:36:35Z</time>
      </trkpt>
      <trkpt lat="42.784263" lon="0.139352">
        <ele>1908.5</ele>
        <time>2013-10-13T07:36:53Z</time>
      </trkpt>
      <trkpt lat="42.784308" lon="0.139228">
        <ele>1911.2</ele>
        <time>2013-10-13T07:37:08Z</time>
      </trkpt>
      <trkpt lat="42.784329" lon="0.139094">
        <ele>1912.9</ele>
        <time>2013-10-13T07:37:21Z</time>
      </trkpt>
      <trkpt lat="42.784357" lon="0.138979">
        <ele>1915.1</ele>
        <time>2013-10-13T07:37:35Z</time>
      </trkpt>
      <trkpt lat="42.784347" lon="0.138852">
        <ele>1916.4</ele>
        <time>2013-10-13T07:37:48Z</time>
      </trkpt>
      <trkpt lat="42.784348" lon="0.138722">
        <ele>1917.6</ele>
        <time>2013-10-13T07:38:00Z</time>
      </trkpt>
      <trkpt lat="42.784339" lon="0.138602">
        <ele>1918.5</ele>
        <time>2013-10-13T07:38:13Z</time>
      </trkpt>
      <trkpt lat="42.784326" lon="0.138471">
        <ele>1919.7</ele>
        <time>2013-10-13T07:38:24Z</time>
      </trkpt>
      <trkpt lat="42.784295" lon="0.138352">
        <ele>1920.4</ele>
        <time>2013-10-13T07:38:35Z</time>
      </trkpt>
      <trkpt lat="42.784281" lon="0.138217">
        <ele>1920.7</ele>
        <time>2013-10-13T07:38:48Z</time>
      </trkpt>
      <trkpt lat="42.784268" lon="0.138074">
        <ele>1921.3</ele>
        <time>2013-10-13T07:38:59Z</time>
      </trkpt>
      <trkpt lat="42.784273" lon="0.137951">
        <ele>1922.0</ele>
        <time>2013-10-13T07:39:08Z</time>
      </trkpt>
      <trkpt lat="42.784274" lon="0.137835">
        <ele>1923.0</ele>
        <time>2013-10-13T07:39:18Z</time>
      </trkpt>
      <trkpt lat="42.784258" lon="0.137693">
        <ele>1924.1</ele>
        <time>2013-10-13T07:39:31Z</time>
      </trkpt>
      <trkpt lat="42.784251" lon="0.137567">
        <ele>1925.0</ele>
        <time>2013-10-13T07:39:44Z</time>
      </trkpt>
      <trkpt lat="42.784202" lon="0.137436">
        <ele>1925.4</ele>
        <time>2013-10-13T07:39:58Z</time>
      </trkpt>
      <trkpt lat="42.784175" lon="0.137302">
        <ele>1927.0</ele>
        <time>2013-10-13T07:40:10Z</time>
      </trkpt>
      <trkpt lat="42.784183" lon="0.137148">
        <ele>1928.2</ele>
        <time>2013-10-13T07:40:22Z</time>
      </trkpt>
      <trkpt lat="42.784228" lon="0.137018">
        <ele>1928.6</ele>
        <time>2013-10-13T07:40:33Z</time>
      </trkpt>
      <trkpt lat="42.784249" lon="0.136886">
        <ele>1930.8</ele>
        <time>2013-10-13T07:40:46Z</time>
      </trkpt>
      <trkpt lat="42.784319" lon="0.136768">
        <ele>1932.3</ele>
        <time>2013-10-13T07:40:57Z</time>
      </trkpt>
      <trkpt lat="42.784350" lon="0.136635">
        <ele>1933.8</ele>
        <time>2013-10-13T07:41:09Z</time>
      </trkpt>
      <trkpt lat="42.784369" lon="0.136509">
        <ele>1936.3</ele>
        <time>2013-10-13T07:41:23Z</time>
      </trkpt>
      <trkpt lat="42.784388" lon="0.136356">
        <ele>1937.7</ele>
        <time>2013-10-13T07:41:35Z</time>
      </trkpt>
      <trkpt lat="42.784361" lon="0.136226">
        <ele>1939.2</ele>
        <time>2013-10-13T07:41:47Z</time>
      </trkpt>
      <trkpt lat="42.784299" lon="0.136092">
        <ele>1940.7</ele>
        <time>2013-10-13T07:41:59Z</time>
      </trkpt>
      <trkpt lat="42.784254" lon="0.135968">
        <ele>1942.7</ele>
        <time>2013-10-13T07:42:12Z</time>
      </trkpt>
      <trkpt lat="42.784164" lon="0.135922">
        <ele>1944.4</ele>
        <time>2013-10-13T07:42:24Z</time>
      </trkpt>
      <trkpt lat="42.784095" lon="0.135858">
        <ele>1945.7</ele>
        <time>2013-10-13T07:42:35Z</time>
      </trkpt>
      <trkpt lat="42.784013" lon="0.135767">
        <ele>1947.7</ele>
        <time>2013-10-13T07:42:49Z</time>
      </trkpt>
      <trkpt lat="42.783910" lon="0.135686">
        <ele>1949.5</ele>
        <time>2013-10-13T07:43:02Z</time>
      </trkpt>
      <trkpt lat="42.783810" lon="0.135627">
        <ele>1950.9</ele>
        <time>2013-10-13T07:43:13Z</time>
      </trkpt>
      <trkpt lat="42.783747" lon="0.135529">
        <ele>1952.3</ele>
        <time>2013-10-13T07:43:26Z</time>
      </trkpt>
      <trkpt lat="42.783677" lon="0.135421">
        <ele>1954.7</ele>
        <time>2013-10-13T07:43:40Z</time>
      </trkpt>
      <trkpt lat="42.783612" lon="0.135314">
        <ele>1956.0</ele>
        <time>2013-10-13T07:43:52Z</time>
      </trkpt>
      <trkpt lat="42.783532" lon="0.135218">
        <ele>1957.5</ele>
        <time>2013-10-13T07:44:05Z</time>
      </trkpt>
      <trkpt lat="42.783599" lon="0.135247">
        <ele>1958.4</ele>
        <time>2013-10-13T07:44:49Z</time>
      </trkpt>
      <trkpt lat="42.783682" lon="0.135348">
        <ele>1957.5</ele>
        <time>2013-10-13T07:45:00Z</time>
      </trkpt>
      <trkpt lat="42.783732" lon="0.135440">
        <ele>1955.7</ele>
        <time>2013-10-13T07:45:11Z</time>
      </trkpt>
      <trkpt lat="42.783780" lon="0.135442">
        <ele>1955.8</ele>
        <time>2013-10-13T07:45:38Z</time>
      </trkpt>
      <trkpt lat="42.783771" lon="0.135414">
        <ele>1955.4</ele>
        <time>2013-10-13T07:45:59Z</time>
      </trkpt>
      <trkpt lat="42.783749" lon="0.135440">
        <ele>1955.8</ele>
        <time>2013-10-13T07:46:28Z</time>
      </trkpt>
      <trkpt lat="42.783747" lon="0.135445">
        <ele>1955.3</ele>
        <time>2013-10-13T07:47:23Z</time>
      </trkpt>
      <trkpt lat="42.783740" lon="0.135443">
        <ele>1954.1</ele>
        <time>2013-10-13T07:49:59Z</time>
      </trkpt>
      <trkpt lat="42.783728" lon="0.135425">
        <ele>1955.2</ele>
        <time>2013-10-13T07:50:48Z</time>
      </trkpt>
      <trkpt lat="42.783660" lon="0.135321">
        <ele>1955.5</ele>
        <time>2013-10-13T07:51:00Z</time>
      </trkpt>
      <trkpt lat="42.783589" lon="0.135237">
        <ele>1957.3</ele>
        <time>2013-10-13T07:51:16Z</time>
      </trkpt>
      <trkpt lat="42.783532" lon="0.135135">
        <ele>1957.7</ele>
        <time>2013-10-13T07:51:33Z</time>
      </trkpt>
      <trkpt lat="42.783475" lon="0.135019">
        <ele>1959.7</ele>
        <time>2013-10-13T07:51:47Z</time>
      </trkpt>
      <trkpt lat="42.783438" lon="0.134887">
        <ele>1961.7</ele>
        <time>2013-10-13T07:52:00Z</time>
      </trkpt>
      <trkpt lat="42.783379" lon="0.134771">
        <ele>1963.0</ele>
        <time>2013-10-13T07:52:12Z</time>
      </trkpt>
      <trkpt lat="42.783297" lon="0.134672">
        <ele>1964.2</ele>
        <time>2013-10-13T07:52:23Z</time>
      </trkpt>
      <trkpt lat="42.783232" lon="0.134602">
        <ele>1964.9</ele>
        <time>2013-10-13T07:52:32Z</time>
      </trkpt>
      <trkpt lat="42.783173" lon="0.134489">
        <ele>1966.6</ele>
        <time>2013-10-13T07:52:46Z</time>
      </trkpt>
      <trkpt lat="42.783059" lon="0.134434">
        <ele>1966.5</ele>
        <time>2013-10-13T07:52:58Z</time>
      </trkpt>
      <trkpt lat="42.782955" lon="0.134399">
        <ele>1967.2</ele>
        <time>2013-10-13T07:53:09Z</time>
      </trkpt>
      <trkpt lat="42.782884" lon="0.134313">
        <ele>1967.8</ele>
        <time>2013-10-13T07:53:20Z</time>
      </trkpt>
      <trkpt lat="42.782784" lon="0.134270">
        <ele>1969.4</ele>
        <time>2013-10-13T07:53:33Z</time>
      </trkpt>
      <trkpt lat="42.782688" lon="0.134250">
        <ele>1970.3</ele>
        <time>2013-10-13T07:53:43Z</time>
      </trkpt>
      <trkpt lat="42.782587" lon="0.134245">
        <ele>1972.1</ele>
        <time>2013-10-13T07:53:54Z</time>
      </trkpt>
      <trkpt lat="42.782490" lon="0.134216">
        <ele>1974.4</ele>
        <time>2013-10-13T07:54:07Z</time>
      </trkpt>
      <trkpt lat="42.782421" lon="0.134159">
        <ele>1977.8</ele>
        <time>2013-10-13T07:54:23Z</time>
      </trkpt>
      <trkpt lat="42.782334" lon="0.134145">
        <ele>1980.5</ele>
        <time>2013-10-13T07:54:36Z</time>
      </trkpt>
      <trkpt lat="42.782235" lon="0.134125">
        <ele>1983.6</ele>
        <time>2013-10-13T07:54:52Z</time>
      </trkpt>
      <trkpt lat="42.782096" lon="0.134110">
        <ele>1985.7</ele>
        <time>2013-10-13T07:55:05Z</time>
      </trkpt>
      <trkpt lat="42.782033" lon="0.134000">
        <ele>1987.4</ele>
        <time>2013-10-13T07:55:17Z</time>
      </trkpt>
      <trkpt lat="42.781969" lon="0.133891">
        <ele>1989.0</ele>
        <time>2013-10-13T07:55:28Z</time>
      </trkpt>
      <trkpt lat="42.781883" lon="0.133805">
        <ele>1990.3</ele>
        <time>2013-10-13T07:55:39Z</time>
      </trkpt>
      <trkpt lat="42.781816" lon="0.133692">
        <ele>1992.4</ele>
        <time>2013-10-13T07:55:52Z</time>
      </trkpt>
      <trkpt lat="42.781731" lon="0.133583">
        <ele>1994.2</ele>
        <time>2013-10-13T07:56:05Z</time>
      </trkpt>
      <trkpt lat="42.781667" lon="0.133461">
        <ele>1997.6</ele>
        <time>2013-10-13T07:56:21Z</time>
      </trkpt>
      <trkpt lat="42.781590" lon="0.133382">
        <ele>2000.1</ele>
        <time>2013-10-13T07:56:33Z</time>
      </trkpt>
      <trkpt lat="42.781510" lon="0.133305">
        <ele>2002.0</ele>
        <time>2013-10-13T07:56:45Z</time>
      </trkpt>
      <trkpt lat="42.781405" lon="0.133259">
        <ele>2004.2</ele>
        <time>2013-10-13T07:56:59Z</time>
      </trkpt>
      <trkpt lat="42.781326" lon="0.133184">
        <ele>2006.6</ele>
        <time>2013-10-13T07:57:11Z</time>
      </trkpt>
      <trkpt lat="42.781250" lon="0.133087">
        <ele>2007.8</ele>
        <time>2013-10-13T07:57:22Z</time>
      </trkpt>
      <trkpt lat="42.781169" lon="0.133030">
        <ele>2008.7</ele>
        <time>2013-10-13T07:57:32Z</time>
      </trkpt>
      <trkpt lat="42.781070" lon="0.133012">
        <ele>2010.8</ele>
        <time>2013-10-13T07:57:44Z</time>
      </trkpt>
      <trkpt lat="42.780969" lon="0.133003">
        <ele>2012.8</ele>
        <time>2013-10-13T07:57:57Z</time>
      </trkpt>
      <trkpt lat="42.780865" lon="0.132944">
        <ele>2015.3</ele>
        <time>2013-10-13T07:58:10Z</time>
      </trkpt>
      <trkpt lat="42.780795" lon="0.132855">
        <ele>2017.7</ele>
        <time>2013-10-13T07:58:22Z</time>
      </trkpt>
      <trkpt lat="42.780767" lon="0.132733">
        <ele>2020.2</ele>
        <time>2013-10-13T07:58:36Z</time>
      </trkpt>
      <trkpt lat="42.780677" lon="0.132679">
        <ele>2022.3</ele>
        <time>2013-10-13T07:58:53Z</time>
      </trkpt>
      <trkpt lat="42.780589" lon="0.132633">
        <ele>2022.9</ele>
        <time>2013-10-13T07:59:03Z</time>
      </trkpt>
      <trkpt lat="42.780548" lon="0.132509">
        <ele>2026.5</ele>
        <time>2013-10-13T07:59:20Z</time>
      </trkpt>
      <trkpt lat="42.780468" lon="0.132524">
        <ele>2027.0</ele>
        <time>2013-10-13T07:59:30Z</time>
      </trkpt>
      <trkpt lat="42.780387" lon="0.132435">
        <ele>2028.0</ele>
        <time>2013-10-13T07:59:43Z</time>
      </trkpt>
      <trkpt lat="42.780311" lon="0.132362">
        <ele>2028.5</ele>
        <time>2013-10-13T07:59:54Z</time>
      </trkpt>
      <trkpt lat="42.780237" lon="0.132273">
        <ele>2030.0</ele>
        <time>2013-10-13T08:00:07Z</time>
      </trkpt>
      <trkpt lat="42.780158" lon="0.132163">
        <ele>2032.1</ele>
        <time>2013-10-13T08:00:22Z</time>
      </trkpt>
      <trkpt lat="42.780056" lon="0.132125">
        <ele>2033.3</ele>
        <time>2013-10-13T08:00:33Z</time>
      </trkpt>
      <trkpt lat="42.779982" lon="0.132045">
        <ele>2035.5</ele>
        <time>2013-10-13T08:00:48Z</time>
      </trkpt>
      <trkpt lat="42.779889" lon="0.132026">
        <ele>2038.9</ele>
        <time>2013-10-13T08:01:06Z</time>
      </trkpt>
      <trkpt lat="42.779798" lon="0.132006">
        <ele>2041.1</ele>
        <time>2013-10-13T08:01:19Z</time>
      </trkpt>
      <trkpt lat="42.779705" lon="0.131962">
        <ele>2043.4</ele>
        <time>2013-10-13T08:01:34Z</time>
      </trkpt>
      <trkpt lat="42.779604" lon="0.132003">
        <ele>2046.2</ele>
        <time>2013-10-13T08:01:49Z</time>
      </trkpt>
      <trkpt lat="42.779500" lon="0.132036">
        <ele>2047.8</ele>
        <time>2013-10-13T08:02:02Z</time>
      </trkpt>
      <trkpt lat="42.779420" lon="0.131989">
        <ele>2050.4</ele>
        <time>2013-10-13T08:02:16Z</time>
      </trkpt>
      <trkpt lat="42.779320" lon="0.131978">
        <ele>2051.7</ele>
        <time>2013-10-13T08:02:28Z</time>
      </trkpt>
      <trkpt lat="42.779236" lon="0.131897">
        <ele>2054.1</ele>
        <time>2013-10-13T08:02:42Z</time>
      </trkpt>
      <trkpt lat="42.779132" lon="0.131926">
        <ele>2055.7</ele>
        <time>2013-10-13T08:02:57Z</time>
      </trkpt>
      <trkpt lat="42.779023" lon="0.131951">
        <ele>2056.4</ele>
        <time>2013-10-13T08:03:09Z</time>
      </trkpt>
      <trkpt lat="42.778933" lon="0.131933">
        <ele>2057.5</ele>
        <time>2013-10-13T08:03:23Z</time>
      </trkpt>
      <trkpt lat="42.778821" lon="0.131943">
        <ele>2058.5</ele>
        <time>2013-10-13T08:03:36Z</time>
      </trkpt>
      <trkpt lat="42.778722" lon="0.131936">
        <ele>2059.0</ele>
        <time>2013-10-13T08:03:49Z</time>
      </trkpt>
      <trkpt lat="42.778624" lon="0.131934">
        <ele>2059.1</ele>
        <time>2013-10-13T08:03:59Z</time>
      </trkpt>
      <trkpt lat="42.778520" lon="0.131915">
        <ele>2060.8</ele>
        <time>2013-10-13T08:04:13Z</time>
      </trkpt>
      <trkpt lat="42.778418" lon="0.131851">
        <ele>2063.1</ele>
        <time>2013-10-13T08:04:29Z</time>
      </trkpt>
      <trkpt lat="42.778333" lon="0.131742">
        <ele>2064.7</ele>
        <time>2013-10-13T08:04:41Z</time>
      </trkpt>
      <trkpt lat="42.778256" lon="0.131653">
        <ele>2066.1</ele>
        <time>2013-10-13T08:04:53Z</time>
      </trkpt>
      <trkpt lat="42.778245" lon="0.131587">
        <ele>2066.8</ele>
        <time>2013-10-13T08:07:03Z</time>
      </trkpt>
      <trkpt lat="42.778247" lon="0.131592">
        <ele>2067.9</ele>
        <time>2013-10-13T08:08:11Z</time>
      </trkpt>
      <trkpt lat="42.778210" lon="0.131555">
        <ele>2068.4</ele>
        <time>2013-10-13T08:09:08Z</time>
      </trkpt>
      <trkpt lat="42.778137" lon="0.131466">
        <ele>2069.8</ele>
        <time>2013-10-13T08:09:24Z</time>
      </trkpt>
      <trkpt lat="42.778029" lon="0.131422">
        <ele>2070.9</ele>
        <time>2013-10-13T08:09:37Z</time>
      </trkpt>
      <trkpt lat="42.777938" lon="0.131330">
        <ele>2071.9</ele>
        <time>2013-10-13T08:09:49Z</time>
      </trkpt>
      <trkpt lat="42.777852" lon="0.131237">
        <ele>2073.4</ele>
        <time>2013-10-13T08:10:01Z</time>
      </trkpt>
      <trkpt lat="42.777776" lon="0.131164">
        <ele>2075.2</ele>
        <time>2013-10-13T08:10:14Z</time>
      </trkpt>
      <trkpt lat="42.777678" lon="0.131074">
        <ele>2076.3</ele>
        <time>2013-10-13T08:10:26Z</time>
      </trkpt>
      <trkpt lat="42.777610" lon="0.130968">
        <ele>2077.5</ele>
        <time>2013-10-13T08:10:37Z</time>
      </trkpt>
      <trkpt lat="42.777526" lon="0.130875">
        <ele>2078.9</ele>
        <time>2013-10-13T08:10:50Z</time>
      </trkpt>
      <trkpt lat="42.777458" lon="0.130768">
        <ele>2080.0</ele>
        <time>2013-10-13T08:11:03Z</time>
      </trkpt>
      <trkpt lat="42.777344" lon="0.130660">
        <ele>2081.4</ele>
        <time>2013-10-13T08:11:16Z</time>
      </trkpt>
      <trkpt lat="42.777274" lon="0.130551">
        <ele>2082.1</ele>
        <time>2013-10-13T08:11:28Z</time>
      </trkpt>
      <trkpt lat="42.777167" lon="0.130493">
        <ele>2082.8</ele>
        <time>2013-10-13T08:11:41Z</time>
      </trkpt>
      <trkpt lat="42.777068" lon="0.130475">
        <ele>2083.1</ele>
        <time>2013-10-13T08:11:52Z</time>
      </trkpt>
      <trkpt lat="42.776978" lon="0.130433">
        <ele>2083.6</ele>
        <time>2013-10-13T08:12:01Z</time>
      </trkpt>
      <trkpt lat="42.776891" lon="0.130360">
        <ele>2085.0</ele>
        <time>2013-10-13T08:12:13Z</time>
      </trkpt>
      <trkpt lat="42.776799" lon="0.130287">
        <ele>2085.9</ele>
        <time>2013-10-13T08:12:24Z</time>
      </trkpt>
      <trkpt lat="42.776740" lon="0.130183">
        <ele>2087.4</ele>
        <time>2013-10-13T08:12:36Z</time>
      </trkpt>
      <trkpt lat="42.776703" lon="0.130053">
        <ele>2089.0</ele>
        <time>2013-10-13T08:12:50Z</time>
      </trkpt>
      <trkpt lat="42.776589" lon="0.130006">
        <ele>2089.8</ele>
        <time>2013-10-13T08:13:04Z</time>
      </trkpt>
      <trkpt lat="42.776512" lon="0.130072">
        <ele>2090.5</ele>
        <time>2013-10-13T08:13:16Z</time>
      </trkpt>
      <trkpt lat="42.776439" lon="0.130164">
        <ele>2091.4</ele>
        <time>2013-10-13T08:13:28Z</time>
      </trkpt>
      <trkpt lat="42.776332" lon="0.130138">
        <ele>2092.8</ele>
        <time>2013-10-13T08:13:41Z</time>
      </trkpt>
      <trkpt lat="42.776245" lon="0.130085">
        <ele>2093.6</ele>
        <time>2013-10-13T08:13:52Z</time>
      </trkpt>
      <trkpt lat="42.776150" lon="0.130024">
        <ele>2095.3</ele>
        <time>2013-10-13T08:14:04Z</time>
      </trkpt>
      <trkpt lat="42.776077" lon="0.129938">
        <ele>2096.7</ele>
        <time>2013-10-13T08:14:15Z</time>
      </trkpt>
      <trkpt lat="42.776001" lon="0.129836">
        <ele>2097.3</ele>
        <time>2013-10-13T08:14:25Z</time>
      </trkpt>
      <trkpt lat="42.775968" lon="0.129706">
        <ele>2097.5</ele>
        <time>2013-10-13T08:14:34Z</time>
      </trkpt>
      <trkpt lat="42.775919" lon="0.129586">
        <ele>2097.6</ele>
        <time>2013-10-13T08:14:43Z</time>
      </trkpt>
      <trkpt lat="42.775893" lon="0.129470">
        <ele>2097.7</ele>
        <time>2013-10-13T08:14:52Z</time>
      </trkpt>
      <trkpt lat="42.775841" lon="0.129344">
        <ele>2098.2</ele>
        <time>2013-10-13T08:15:02Z</time>
      </trkpt>
      <trkpt lat="42.775809" lon="0.129219">
        <ele>2099.5</ele>
        <time>2013-10-13T08:15:11Z</time>
      </trkpt>
      <trkpt lat="42.775781" lon="0.129088">
        <ele>2100.5</ele>
        <time>2013-10-13T08:15:20Z</time>
      </trkpt>
      <trkpt lat="42.775740" lon="0.128970">
        <ele>2101.1</ele>
        <time>2013-10-13T08:15:29Z</time>
      </trkpt>
      <trkpt lat="42.775707" lon="0.128845">
        <ele>2101.5</ele>
        <time>2013-10-13T08:15:38Z</time>
      </trkpt>
      <trkpt lat="42.775663" lon="0.128730">
        <ele>2101.4</ele>
        <time>2013-10-13T08:15:46Z</time>
      </trkpt>
      <trkpt lat="42.775622" lon="0.128624">
        <ele>2101.2</ele>
        <time>2013-10-13T08:15:54Z</time>
      </trkpt>
      <trkpt lat="42.775582" lon="0.128511">
        <ele>2100.8</ele>
        <time>2013-10-13T08:16:02Z</time>
      </trkpt>
      <trkpt lat="42.775520" lon="0.128408">
        <ele>2100.9</ele>
        <time>2013-10-13T08:16:10Z</time>
      </trkpt>
      <trkpt lat="42.775486" lon="0.128292">
        <ele>2101.5</ele>
        <time>2013-10-13T08:16:19Z</time>
      </trkpt>
      <trkpt lat="42.775452" lon="0.128181">
        <ele>2102.6</ele>
        <time>2013-10-13T08:16:28Z</time>
      </trkpt>
      <trkpt lat="42.775408" lon="0.128083">
        <ele>2103.8</ele>
        <time>2013-10-13T08:16:37Z</time>
      </trkpt>
      <trkpt lat="42.775358" lon="0.127988">
        <ele>2104.4</ele>
        <time>2013-10-13T08:16:45Z</time>
      </trkpt>
      <trkpt lat="42.775290" lon="0.127897">
        <ele>2104.8</ele>
        <time>2013-10-13T08:16:53Z</time>
      </trkpt>
      <trkpt lat="42.775238" lon="0.127793">
        <ele>2104.9</ele>
        <time>2013-10-13T08:17:02Z</time>
      </trkpt>
      <trkpt lat="42.775177" lon="0.127678">
        <ele>2104.8</ele>
        <time>2013-10-13T08:17:11Z</time>
      </trkpt>
      <trkpt lat="42.775116" lon="0.127583">
        <ele>2104.9</ele>
        <time>2013-10-13T08:17:20Z</time>
      </trkpt>
      <trkpt lat="42.775046" lon="0.127479">
        <ele>2105.5</ele>
        <time>2013-10-13T08:17:30Z</time>
      </trkpt>
      <trkpt lat="42.774951" lon="0.127433">
        <ele>2106.7</ele>
        <time>2013-10-13T08:17:41Z</time>
      </trkpt>
      <trkpt lat="42.774841" lon="0.127444">
        <ele>2107.3</ele>
        <time>2013-10-13T08:17:52Z</time>
      </trkpt>
      <trkpt lat="42.774734" lon="0.127481">
        <ele>2108.2</ele>
        <time>2013-10-13T08:18:03Z</time>
      </trkpt>
      <trkpt lat="42.774663" lon="0.127546">
        <ele>2108.4</ele>
        <time>2013-10-13T08:18:13Z</time>
      </trkpt>
      <trkpt lat="42.774566" lon="0.127622">
        <ele>2109.4</ele>
        <time>2013-10-13T08:18:25Z</time>
      </trkpt>
      <trkpt lat="42.774486" lon="0.127707">
        <ele>2110.4</ele>
        <time>2013-10-13T08:18:34Z</time>
      </trkpt>
      <trkpt lat="42.774418" lon="0.127794">
        <ele>2111.6</ele>
        <time>2013-10-13T08:18:44Z</time>
      </trkpt>
      <trkpt lat="42.774346" lon="0.127887">
        <ele>2112.5</ele>
        <time>2013-10-13T08:18:54Z</time>
      </trkpt>
      <trkpt lat="42.774259" lon="0.127973">
        <ele>2113.9</ele>
        <time>2013-10-13T08:19:06Z</time>
      </trkpt>
      <trkpt lat="42.774164" lon="0.128068">
        <ele>2115.3</ele>
        <time>2013-10-13T08:19:16Z</time>
      </trkpt>
      <trkpt lat="42.774074" lon="0.128172">
        <ele>2116.6</ele>
        <time>2013-10-13T08:19:27Z</time>
      </trkpt>
      <trkpt lat="42.774013" lon="0.128263">
        <ele>2117.8</ele>
        <time>2013-10-13T08:19:38Z</time>
      </trkpt>
      <trkpt lat="42.773957" lon="0.128369">
        <ele>2120.2</ele>
        <time>2013-10-13T08:19:50Z</time>
      </trkpt>
      <trkpt lat="42.773920" lon="0.128502">
        <ele>2121.4</ele>
        <time>2013-10-13T08:20:02Z</time>
      </trkpt>
      <trkpt lat="42.773876" lon="0.128643">
        <ele>2122.9</ele>
        <time>2013-10-13T08:20:15Z</time>
      </trkpt>
      <trkpt lat="42.773802" lon="0.128752">
        <ele>2123.4</ele>
        <time>2013-10-13T08:20:25Z</time>
      </trkpt>
      <trkpt lat="42.773716" lon="0.128816">
        <ele>2123.6</ele>
        <time>2013-10-13T08:20:34Z</time>
      </trkpt>
      <trkpt lat="42.773615" lon="0.128838">
        <ele>2123.5</ele>
        <time>2013-10-13T08:20:45Z</time>
      </trkpt>
      <trkpt lat="42.773551" lon="0.128720">
        <ele>2123.7</ele>
        <time>2013-10-13T08:20:56Z</time>
      </trkpt>
      <trkpt lat="42.773479" lon="0.128652">
        <ele>2125.2</ele>
        <time>2013-10-13T08:21:09Z</time>
      </trkpt>
      <trkpt lat="42.773395" lon="0.128685">
        <ele>2126.2</ele>
        <time>2013-10-13T08:21:22Z</time>
        <cmt>Bif. 2138m</cmt>
      </trkpt>
      <trkpt lat="42.773312" lon="0.128722">
        <ele>2125.8</ele>
        <time>2013-10-13T08:21:39Z</time>
      </trkpt>
      <trkpt lat="42.773241" lon="0.128644">
        <ele>2126.3</ele>
        <time>2013-10-13T08:21:57Z</time>
      </trkpt>
      <trkpt lat="42.773179" lon="0.128495">
        <ele>2128.7</ele>
        <time>2013-10-13T08:22:12Z</time>
      </trkpt>
      <trkpt lat="42.773129" lon="0.128368">
        <ele>2130.0</ele>
        <time>2013-10-13T08:22:23Z</time>
      </trkpt>
      <trkpt lat="42.773107" lon="0.128229">
        <ele>2130.9</ele>
        <time>2013-10-13T08:22:34Z</time>
      </trkpt>
      <trkpt lat="42.773081" lon="0.128107">
        <ele>2131.9</ele>
        <time>2013-10-13T08:22:44Z</time>
      </trkpt>
      <trkpt lat="42.773052" lon="0.128063">
        <ele>2133.6</ele>
        <time>2013-10-13T08:22:59Z</time>
      </trkpt>
      <trkpt lat="42.773049" lon="0.128053">
        <ele>2135.0</ele>
        <time>2013-10-13T08:23:19Z</time>
      </trkpt>
      <trkpt lat="42.773023" lon="0.127928">
        <ele>2136.3</ele>
        <time>2013-10-13T08:23:34Z</time>
      </trkpt>
      <trkpt lat="42.772934" lon="0.127841">
        <ele>2140.6</ele>
        <time>2013-10-13T08:23:51Z</time>
      </trkpt>
      <trkpt lat="42.772887" lon="0.127732">
        <ele>2144.6</ele>
        <time>2013-10-13T08:24:04Z</time>
      </trkpt>
      <trkpt lat="42.772857" lon="0.127602">
        <ele>2147.8</ele>
        <time>2013-10-13T08:24:19Z</time>
      </trkpt>
      <trkpt lat="42.772774" lon="0.127547">
        <ele>2152.3</ele>
        <time>2013-10-13T08:24:41Z</time>
      </trkpt>
      <trkpt lat="42.772694" lon="0.127574">
        <ele>2157.3</ele>
        <time>2013-10-13T08:25:03Z</time>
      </trkpt>
      <trkpt lat="42.772658" lon="0.127483">
        <ele>2161.7</ele>
        <time>2013-10-13T08:25:24Z</time>
      </trkpt>
      <trkpt lat="42.772580" lon="0.127395">
        <ele>2165.6</ele>
        <time>2013-10-13T08:25:42Z</time>
      </trkpt>
      <trkpt lat="42.772592" lon="0.127276">
        <ele>2168.0</ele>
        <time>2013-10-13T08:25:56Z</time>
      </trkpt>
      <trkpt lat="42.772619" lon="0.127141">
        <ele>2170.2</ele>
        <time>2013-10-13T08:26:12Z</time>
      </trkpt>
      <trkpt lat="42.772638" lon="0.127009">
        <ele>2172.5</ele>
        <time>2013-10-13T08:26:27Z</time>
      </trkpt>
      <trkpt lat="42.772653" lon="0.126878">
        <ele>2174.8</ele>
        <time>2013-10-13T08:26:41Z</time>
      </trkpt>
      <trkpt lat="42.772630" lon="0.126773">
        <ele>2177.6</ele>
        <time>2013-10-13T08:26:57Z</time>
      </trkpt>
      <trkpt lat="42.772616" lon="0.126637">
        <ele>2180.9</ele>
        <time>2013-10-13T08:27:13Z</time>
      </trkpt>
      <trkpt lat="42.772600" lon="0.126503">
        <ele>2182.7</ele>
        <time>2013-10-13T08:27:27Z</time>
      </trkpt>
      <trkpt lat="42.772588" lon="0.126359">
        <ele>2185.2</ele>
        <time>2013-10-13T08:27:41Z</time>
      </trkpt>
      <trkpt lat="42.772522" lon="0.126286">
        <ele>2188.4</ele>
        <time>2013-10-13T08:28:00Z</time>
      </trkpt>
      <trkpt lat="42.772472" lon="0.126185">
        <ele>2190.9</ele>
        <time>2013-10-13T08:28:16Z</time>
      </trkpt>
      <trkpt lat="42.772406" lon="0.126096">
        <ele>2193.0</ele>
        <time>2013-10-13T08:28:32Z</time>
      </trkpt>
      <trkpt lat="42.772370" lon="0.125984">
        <ele>2195.2</ele>
        <time>2013-10-13T08:28:47Z</time>
      </trkpt>
      <trkpt lat="42.772323" lon="0.125858">
        <ele>2197.2</ele>
        <time>2013-10-13T08:28:59Z</time>
      </trkpt>
      <trkpt lat="42.772312" lon="0.125735">
        <ele>2198.2</ele>
        <time>2013-10-13T08:29:11Z</time>
      </trkpt>
      <trkpt lat="42.772288" lon="0.125678">
        <ele>2199.5</ele>
        <time>2013-10-13T08:29:36Z</time>
      </trkpt>
      <trkpt lat="42.772293" lon="0.125615">
        <ele>2199.9</ele>
        <time>2013-10-13T08:30:49Z</time>
      </trkpt>
      <trkpt lat="42.772201" lon="0.125535">
        <ele>2200.3</ele>
        <time>2013-10-13T08:31:05Z</time>
      </trkpt>
      <trkpt lat="42.772134" lon="0.125450">
        <ele>2201.0</ele>
        <time>2013-10-13T08:31:15Z</time>
      </trkpt>
      <trkpt lat="42.772074" lon="0.125327">
        <ele>2201.7</ele>
        <time>2013-10-13T08:31:26Z</time>
      </trkpt>
      <trkpt lat="42.772036" lon="0.125200">
        <ele>2203.0</ele>
        <time>2013-10-13T08:31:39Z</time>
      </trkpt>
      <trkpt lat="42.772033" lon="0.125055">
        <ele>2204.3</ele>
        <time>2013-10-13T08:31:49Z</time>
      </trkpt>
      <trkpt lat="42.772018" lon="0.124923">
        <ele>2205.6</ele>
        <time>2013-10-13T08:32:01Z</time>
      </trkpt>
      <trkpt lat="42.771919" lon="0.124868">
        <ele>2208.2</ele>
        <time>2013-10-13T08:32:15Z</time>
      </trkpt>
      <trkpt lat="42.771806" lon="0.124851">
        <ele>2210.5</ele>
        <time>2013-10-13T08:32:27Z</time>
      </trkpt>
      <trkpt lat="42.771718" lon="0.124869">
        <ele>2212.7</ele>
        <time>2013-10-13T08:32:41Z</time>
      </trkpt>
      <trkpt lat="42.771635" lon="0.124920">
        <ele>2214.2</ele>
        <time>2013-10-13T08:32:53Z</time>
      </trkpt>
      <trkpt lat="42.771544" lon="0.124887">
        <ele>2217.0</ele>
        <time>2013-10-13T08:33:07Z</time>
      </trkpt>
      <trkpt lat="42.771447" lon="0.124849">
        <ele>2220.0</ele>
        <time>2013-10-13T08:33:22Z</time>
      </trkpt>
      <trkpt lat="42.771341" lon="0.124859">
        <ele>2223.6</ele>
        <time>2013-10-13T08:33:39Z</time>
      </trkpt>
      <trkpt lat="42.771234" lon="0.124882">
        <ele>2226.6</ele>
        <time>2013-10-13T08:33:54Z</time>
      </trkpt>
      <trkpt lat="42.771131" lon="0.124916">
        <ele>2229.8</ele>
        <time>2013-10-13T08:34:10Z</time>
      </trkpt>
      <trkpt lat="42.771037" lon="0.124903">
        <ele>2232.1</ele>
        <time>2013-10-13T08:34:26Z</time>
      </trkpt>
      <trkpt lat="42.770949" lon="0.124893">
        <ele>2234.9</ele>
        <time>2013-10-13T08:34:41Z</time>
      </trkpt>
      <trkpt lat="42.770856" lon="0.124836">
        <ele>2238.3</ele>
        <time>2013-10-13T08:35:00Z</time>
      </trkpt>
      <trkpt lat="42.770781" lon="0.124741">
        <ele>2242.8</ele>
        <time>2013-10-13T08:35:22Z</time>
      </trkpt>
      <trkpt lat="42.770706" lon="0.124652">
        <ele>2245.4</ele>
        <time>2013-10-13T08:35:38Z</time>
      </trkpt>
      <trkpt lat="42.770617" lon="0.124586">
        <ele>2249.7</ele>
        <time>2013-10-13T08:36:02Z</time>
      </trkpt>
      <trkpt lat="42.770522" lon="0.124568">
        <ele>2253.5</ele>
        <time>2013-10-13T08:36:23Z</time>
      </trkpt>
      <trkpt lat="42.770431" lon="0.124537">
        <ele>2257.5</ele>
        <time>2013-10-13T08:36:44Z</time>
      </trkpt>
      <trkpt lat="42.770347" lon="0.124513">
        <ele>2260.8</ele>
        <time>2013-10-13T08:37:03Z</time>
      </trkpt>
      <trkpt lat="42.770253" lon="0.124534">
        <ele>2263.6</ele>
        <time>2013-10-13T08:37:19Z</time>
      </trkpt>
      <trkpt lat="42.770201" lon="0.124499">
        <ele>2268.9</ele>
        <time>2013-10-13T08:37:45Z</time>
      </trkpt>
      <trkpt lat="42.770135" lon="0.124571">
        <ele>2273.5</ele>
        <time>2013-10-13T08:38:10Z</time>
      </trkpt>
      <trkpt lat="42.770099" lon="0.124703">
        <ele>2275.8</ele>
        <time>2013-10-13T08:38:28Z</time>
      </trkpt>
      <trkpt lat="42.770079" lon="0.124844">
        <ele>2276.9</ele>
        <time>2013-10-13T08:39:01Z</time>
      </trkpt>
      <trkpt lat="42.770025" lon="0.124946">
        <ele>2277.8</ele>
        <time>2013-10-13T08:39:13Z</time>
      </trkpt>
      <trkpt lat="42.769918" lon="0.124917">
        <ele>2280.4</ele>
        <time>2013-10-13T08:39:29Z</time>
      </trkpt>
      <trkpt lat="42.769829" lon="0.124879">
        <ele>2285.4</ele>
        <time>2013-10-13T08:39:52Z</time>
      </trkpt>
      <trkpt lat="42.769753" lon="0.124830">
        <ele>2289.6</ele>
        <time>2013-10-13T08:40:12Z</time>
      </trkpt>
      <trkpt lat="42.769711" lon="0.124764">
        <ele>2293.9</ele>
        <time>2013-10-13T08:40:30Z</time>
      </trkpt>
      <trkpt lat="42.769623" lon="0.124700">
        <ele>2297.1</ele>
        <time>2013-10-13T08:40:48Z</time>
      </trkpt>
      <trkpt lat="42.769591" lon="0.124673">
        <ele>2301.4</ele>
        <time>2013-10-13T08:42:10Z</time>
      </trkpt>
      <trkpt lat="42.769513" lon="0.124622">
        <ele>2303.6</ele>
        <time>2013-10-13T08:42:33Z</time>
      </trkpt>
      <trkpt lat="42.769417" lon="0.124578">
        <ele>2305.5</ele>
        <time>2013-10-13T08:42:50Z</time>
      </trkpt>
      <trkpt lat="42.769327" lon="0.124526">
        <ele>2308.1</ele>
        <time>2013-10-13T08:43:08Z</time>
      </trkpt>
      <trkpt lat="42.769229" lon="0.124471">
        <ele>2311.6</ele>
        <time>2013-10-13T08:43:27Z</time>
      </trkpt>
      <trkpt lat="42.769127" lon="0.124462">
        <ele>2314.5</ele>
        <time>2013-10-13T08:43:40Z</time>
      </trkpt>
      <trkpt lat="42.769031" lon="0.124473">
        <ele>2316.8</ele>
        <time>2013-10-13T08:43:53Z</time>
      </trkpt>
      <trkpt lat="42.768933" lon="0.124515">
        <ele>2319.5</ele>
        <time>2013-10-13T08:44:08Z</time>
      </trkpt>
      <trkpt lat="42.768849" lon="0.124551">
        <ele>2321.9</ele>
        <time>2013-10-13T08:44:22Z</time>
      </trkpt>
      <trkpt lat="42.768757" lon="0.124561">
        <ele>2323.9</ele>
        <time>2013-10-13T08:44:34Z</time>
      </trkpt>
      <trkpt lat="42.768676" lon="0.124560">
        <ele>2326.0</ele>
        <time>2013-10-13T08:44:49Z</time>
      </trkpt>
      <trkpt lat="42.768587" lon="0.124590">
        <ele>2327.9</ele>
        <time>2013-10-13T08:45:05Z</time>
      </trkpt>
      <trkpt lat="42.768502" lon="0.124719">
        <ele>2328.4</ele>
        <time>2013-10-13T08:45:15Z</time>
      </trkpt>
      <trkpt lat="42.768424" lon="0.124799">
        <ele>2328.7</ele>
        <time>2013-10-13T08:45:26Z</time>
      </trkpt>
      <trkpt lat="42.768363" lon="0.124874">
        <ele>2328.2</ele>
        <time>2013-10-13T08:45:34Z</time>
      </trkpt>
      <trkpt lat="42.768288" lon="0.124934">
        <ele>2328.1</ele>
        <time>2013-10-13T08:45:45Z</time>
      </trkpt>
      <trkpt lat="42.768216" lon="0.124996">
        <ele>2328.9</ele>
        <time>2013-10-13T08:45:56Z</time>
      </trkpt>
      <trkpt lat="42.768127" lon="0.125061">
        <ele>2330.3</ele>
        <time>2013-10-13T08:46:07Z</time>
      </trkpt>
      <trkpt lat="42.768028" lon="0.125106">
        <ele>2332.1</ele>
        <time>2013-10-13T08:46:19Z</time>
      </trkpt>
      <trkpt lat="42.767927" lon="0.125113">
        <ele>2333.4</ele>
        <time>2013-10-13T08:46:31Z</time>
      </trkpt>
      <trkpt lat="42.767839" lon="0.125148">
        <ele>2335.2</ele>
        <time>2013-10-13T08:46:44Z</time>
      </trkpt>
      <trkpt lat="42.767756" lon="0.125108">
        <ele>2336.1</ele>
        <time>2013-10-13T08:46:56Z</time>
      </trkpt>
      <trkpt lat="42.767647" lon="0.125094">
        <ele>2337.7</ele>
        <time>2013-10-13T08:47:10Z</time>
      </trkpt>
      <trkpt lat="42.767555" lon="0.125127">
        <ele>2339.4</ele>
        <time>2013-10-13T08:47:22Z</time>
      </trkpt>
      <trkpt lat="42.767460" lon="0.125180">
        <ele>2340.3</ele>
        <time>2013-10-13T08:47:34Z</time>
      </trkpt>
      <trkpt lat="42.767376" lon="0.125218">
        <ele>2341.3</ele>
        <time>2013-10-13T08:47:48Z</time>
      </trkpt>
      <trkpt lat="42.767284" lon="0.125214">
        <ele>2344.0</ele>
        <time>2013-10-13T08:48:18Z</time>
      </trkpt>
      <trkpt lat="42.767179" lon="0.125211">
        <ele>2344.9</ele>
        <time>2013-10-13T08:49:07Z</time>
      </trkpt>
      <trkpt lat="42.767078" lon="0.125215">
        <ele>2346.4</ele>
        <time>2013-10-13T08:49:20Z</time>
      </trkpt>
      <trkpt lat="42.766979" lon="0.125204">
        <ele>2348.0</ele>
        <time>2013-10-13T08:49:32Z</time>
      </trkpt>
      <trkpt lat="42.766899" lon="0.125278">
        <ele>2349.4</ele>
        <time>2013-10-13T08:49:43Z</time>
      </trkpt>
      <trkpt lat="42.766815" lon="0.125361">
        <ele>2350.6</ele>
        <time>2013-10-13T08:49:55Z</time>
      </trkpt>
      <trkpt lat="42.766737" lon="0.125420">
        <ele>2351.6</ele>
        <time>2013-10-13T08:50:06Z</time>
      </trkpt>
      <trkpt lat="42.766644" lon="0.125507">
        <ele>2352.7</ele>
        <time>2013-10-13T08:50:18Z</time>
      </trkpt>
      <trkpt lat="42.766550" lon="0.125588">
        <ele>2353.6</ele>
        <time>2013-10-13T08:50:28Z</time>
      </trkpt>
      <trkpt lat="42.766464" lon="0.125619">
        <ele>2354.9</ele>
        <time>2013-10-13T08:50:39Z</time>
      </trkpt>
      <trkpt lat="42.766381" lon="0.125590">
        <ele>2355.7</ele>
        <time>2013-10-13T08:50:49Z</time>
      </trkpt>
      <trkpt lat="42.766344" lon="0.125439">
        <ele>2355.8</ele>
        <time>2013-10-13T08:51:01Z</time>
      </trkpt>
      <trkpt lat="42.766288" lon="0.125307">
        <ele>2356.5</ele>
        <time>2013-10-13T08:51:13Z</time>
      </trkpt>
      <trkpt lat="42.766207" lon="0.125198">
        <ele>2357.2</ele>
        <time>2013-10-13T08:51:24Z</time>
      </trkpt>
      <trkpt lat="42.766122" lon="0.125151">
        <ele>2357.5</ele>
        <time>2013-10-13T08:51:35Z</time>
      </trkpt>
      <trkpt lat="42.766037" lon="0.125187">
        <ele>2357.8</ele>
        <time>2013-10-13T08:51:45Z</time>
      </trkpt>
      <trkpt lat="42.765939" lon="0.125217">
        <ele>2358.1</ele>
        <time>2013-10-13T08:51:56Z</time>
      </trkpt>
      <trkpt lat="42.765862" lon="0.125255">
        <ele>2358.6</ele>
        <time>2013-10-13T08:52:08Z</time>
      </trkpt>
      <trkpt lat="42.765766" lon="0.125290">
        <ele>2358.6</ele>
        <time>2013-10-13T08:52:19Z</time>
      </trkpt>
      <trkpt lat="42.765658" lon="0.125298">
        <ele>2358.8</ele>
        <time>2013-10-13T08:52:30Z</time>
      </trkpt>
      <trkpt lat="42.765556" lon="0.125339">
        <ele>2358.8</ele>
        <time>2013-10-13T08:52:42Z</time>
      </trkpt>
      <trkpt lat="42.765461" lon="0.125391">
        <ele>2359.3</ele>
        <time>2013-10-13T08:52:53Z</time>
      </trkpt>
      <trkpt lat="42.765364" lon="0.125402">
        <ele>2359.5</ele>
        <time>2013-10-13T08:53:05Z</time>
      </trkpt>
      <trkpt lat="42.765288" lon="0.125471">
        <ele>2359.8</ele>
        <time>2013-10-13T08:53:15Z</time>
      </trkpt>
      <trkpt lat="42.765209" lon="0.125581">
        <ele>2361.0</ele>
        <time>2013-10-13T08:53:27Z</time>
      </trkpt>
      <trkpt lat="42.765125" lon="0.125651">
        <ele>2361.9</ele>
        <time>2013-10-13T08:53:38Z</time>
      </trkpt>
      <trkpt lat="42.765028" lon="0.125686">
        <ele>2362.9</ele>
        <time>2013-10-13T08:53:49Z</time>
      </trkpt>
      <trkpt lat="42.764943" lon="0.125737">
        <ele>2363.8</ele>
        <time>2013-10-13T08:54:00Z</time>
      </trkpt>
      <trkpt lat="42.764869" lon="0.125844">
        <ele>2364.4</ele>
        <time>2013-10-13T08:54:12Z</time>
      </trkpt>
      <trkpt lat="42.764800" lon="0.125936">
        <ele>2365.1</ele>
        <time>2013-10-13T08:54:22Z</time>
      </trkpt>
      <trkpt lat="42.764745" lon="0.126081">
        <ele>2365.7</ele>
        <time>2013-10-13T08:54:33Z</time>
      </trkpt>
      <trkpt lat="42.764682" lon="0.126157">
        <ele>2366.2</ele>
        <time>2013-10-13T08:54:42Z</time>
      </trkpt>
      <trkpt lat="42.764618" lon="0.126244">
        <ele>2367.5</ele>
        <time>2013-10-13T08:54:54Z</time>
      </trkpt>
      <trkpt lat="42.764551" lon="0.126339">
        <ele>2369.1</ele>
        <time>2013-10-13T08:55:06Z</time>
      </trkpt>
      <trkpt lat="42.764481" lon="0.126427">
        <ele>2370.2</ele>
        <time>2013-10-13T08:55:17Z</time>
      </trkpt>
      <trkpt lat="42.764395" lon="0.126473">
        <ele>2371.4</ele>
        <time>2013-10-13T08:55:32Z</time>
      </trkpt>
      <trkpt lat="42.764298" lon="0.126521">
        <ele>2372.3</ele>
        <time>2013-10-13T08:55:43Z</time>
      </trkpt>
      <trkpt lat="42.764202" lon="0.126572">
        <ele>2373.4</ele>
        <time>2013-10-13T08:55:55Z</time>
      </trkpt>
      <trkpt lat="42.764106" lon="0.126618">
        <ele>2374.2</ele>
        <time>2013-10-13T08:56:07Z</time>
      </trkpt>
      <trkpt lat="42.764015" lon="0.126659">
        <ele>2375.6</ele>
        <time>2013-10-13T08:56:19Z</time>
      </trkpt>
      <trkpt lat="42.763919" lon="0.126689">
        <ele>2377.0</ele>
        <time>2013-10-13T08:56:32Z</time>
      </trkpt>
      <trkpt lat="42.763817" lon="0.126681">
        <ele>2377.9</ele>
        <time>2013-10-13T08:56:45Z</time>
      </trkpt>
      <trkpt lat="42.763724" lon="0.126723">
        <ele>2378.7</ele>
        <time>2013-10-13T08:56:58Z</time>
      </trkpt>
      <trkpt lat="42.763624" lon="0.126786">
        <ele>2379.9</ele>
        <time>2013-10-13T08:57:11Z</time>
      </trkpt>
      <trkpt lat="42.763514" lon="0.126840">
        <ele>2381.2</ele>
        <time>2013-10-13T08:57:23Z</time>
      </trkpt>
      <trkpt lat="42.763419" lon="0.126877">
        <ele>2382.1</ele>
        <time>2013-10-13T08:57:35Z</time>
      </trkpt>
      <trkpt lat="42.763319" lon="0.126873">
        <ele>2382.9</ele>
        <time>2013-10-13T08:57:47Z</time>
      </trkpt>
      <trkpt lat="42.763216" lon="0.126881">
        <ele>2383.6</ele>
        <time>2013-10-13T08:57:59Z</time>
      </trkpt>
      <trkpt lat="42.763132" lon="0.126905">
        <ele>2384.9</ele>
        <time>2013-10-13T08:58:11Z</time>
      </trkpt>
      <trkpt lat="42.763054" lon="0.126975">
        <ele>2386.0</ele>
        <time>2013-10-13T08:58:23Z</time>
      </trkpt>
      <trkpt lat="42.762958" lon="0.126997">
        <ele>2387.8</ele>
        <time>2013-10-13T08:58:38Z</time>
      </trkpt>
      <trkpt lat="42.762862" lon="0.127014">
        <ele>2388.6</ele>
        <time>2013-10-13T08:58:49Z</time>
      </trkpt>
      <trkpt lat="42.762779" lon="0.127002">
        <ele>2389.4</ele>
        <time>2013-10-13T08:59:01Z</time>
      </trkpt>
      <trkpt lat="42.762675" lon="0.126978">
        <ele>2389.6</ele>
        <time>2013-10-13T08:59:13Z</time>
      </trkpt>
      <trkpt lat="42.762574" lon="0.126929">
        <ele>2390.9</ele>
        <time>2013-10-13T08:59:25Z</time>
      </trkpt>
      <trkpt lat="42.762477" lon="0.126921">
        <ele>2392.3</ele>
        <time>2013-10-13T08:59:39Z</time>
      </trkpt>
      <trkpt lat="42.762382" lon="0.126901">
        <ele>2394.8</ele>
        <time>2013-10-13T08:59:55Z</time>
      </trkpt>
      <trkpt lat="42.762291" lon="0.126857">
        <ele>2396.9</ele>
        <time>2013-10-13T09:00:09Z</time>
      </trkpt>
      <trkpt lat="42.762207" lon="0.126803">
        <ele>2399.3</ele>
        <time>2013-10-13T09:00:23Z</time>
      </trkpt>
      <trkpt lat="42.762126" lon="0.126755">
        <ele>2400.7</ele>
        <time>2013-10-13T09:00:35Z</time>
      </trkpt>
      <trkpt lat="42.762026" lon="0.126784">
        <ele>2402.7</ele>
        <time>2013-10-13T09:00:48Z</time>
      </trkpt>
      <trkpt lat="42.761921" lon="0.126780">
        <ele>2404.2</ele>
        <time>2013-10-13T09:01:01Z</time>
      </trkpt>
      <trkpt lat="42.761832" lon="0.126806">
        <ele>2405.2</ele>
        <time>2013-10-13T09:01:12Z</time>
      </trkpt>
      <trkpt lat="42.761735" lon="0.126819">
        <ele>2406.2</ele>
        <time>2013-10-13T09:01:23Z</time>
      </trkpt>
      <trkpt lat="42.761714" lon="0.126829">
        <ele>2406.5</ele>
        <time>2013-10-13T09:01:43Z</time>
      </trkpt>
      <trkpt lat="42.761628" lon="0.126767">
        <ele>2407.5</ele>
        <time>2013-10-13T09:01:56Z</time>
      </trkpt>
      <trkpt lat="42.761532" lon="0.126758">
        <ele>2409.1</ele>
        <time>2013-10-13T09:02:11Z</time>
      </trkpt>
      <trkpt lat="42.761435" lon="0.126796">
        <ele>2411.5</ele>
        <time>2013-10-13T09:02:25Z</time>
      </trkpt>
      <trkpt lat="42.761339" lon="0.126794">
        <ele>2414.4</ele>
        <time>2013-10-13T09:02:40Z</time>
      </trkpt>
      <trkpt lat="42.761245" lon="0.126772">
        <ele>2416.8</ele>
        <time>2013-10-13T09:02:54Z</time>
      </trkpt>
      <trkpt lat="42.761154" lon="0.126800">
        <ele>2418.4</ele>
        <time>2013-10-13T09:03:07Z</time>
      </trkpt>
      <trkpt lat="42.761068" lon="0.126816">
        <ele>2419.7</ele>
        <time>2013-10-13T09:03:19Z</time>
      </trkpt>
      <trkpt lat="42.760995" lon="0.126862">
        <ele>2421.8</ele>
        <time>2013-10-13T09:03:35Z</time>
      </trkpt>
      <trkpt lat="42.760922" lon="0.126923">
        <ele>2423.6</ele>
        <time>2013-10-13T09:03:49Z</time>
      </trkpt>
      <trkpt lat="42.760843" lon="0.126996">
        <ele>2425.4</ele>
        <time>2013-10-13T09:04:02Z</time>
      </trkpt>
      <trkpt lat="42.760764" lon="0.127056">
        <ele>2427.6</ele>
        <time>2013-10-13T09:04:18Z</time>
      </trkpt>
      <trkpt lat="42.760687" lon="0.127121">
        <ele>2429.6</ele>
        <time>2013-10-13T09:04:33Z</time>
      </trkpt>
      <trkpt lat="42.760590" lon="0.127158">
        <ele>2432.0</ele>
        <time>2013-10-13T09:04:49Z</time>
      </trkpt>
      <trkpt lat="42.760482" lon="0.127184">
        <ele>2433.8</ele>
        <time>2013-10-13T09:05:03Z</time>
      </trkpt>
      <trkpt lat="42.760388" lon="0.127179">
        <ele>2435.6</ele>
        <time>2013-10-13T09:05:18Z</time>
      </trkpt>
      <trkpt lat="42.760285" lon="0.127202">
        <ele>2437.2</ele>
        <time>2013-10-13T09:05:33Z</time>
      </trkpt>
      <trkpt lat="42.760190" lon="0.127205">
        <ele>2439.1</ele>
        <time>2013-10-13T09:05:47Z</time>
      </trkpt>
      <trkpt lat="42.760097" lon="0.127257">
        <ele>2440.0</ele>
        <time>2013-10-13T09:06:00Z</time>
      </trkpt>
      <trkpt lat="42.760014" lon="0.127308">
        <ele>2441.4</ele>
        <time>2013-10-13T09:06:14Z</time>
      </trkpt>
      <trkpt lat="42.759938" lon="0.127377">
        <ele>2443.3</ele>
        <time>2013-10-13T09:06:28Z</time>
      </trkpt>
      <trkpt lat="42.759866" lon="0.127451">
        <ele>2444.6</ele>
        <time>2013-10-13T09:06:41Z</time>
      </trkpt>
      <trkpt lat="42.759806" lon="0.127558">
        <ele>2444.2</ele>
        <time>2013-10-13T09:06:54Z</time>
      </trkpt>
      <trkpt lat="42.759765" lon="0.127651">
        <ele>2444.4</ele>
        <time>2013-10-13T09:07:07Z</time>
      </trkpt>
      <trkpt lat="42.759708" lon="0.127733">
        <ele>2444.2</ele>
        <time>2013-10-13T09:07:25Z</time>
      </trkpt>
      <trkpt lat="42.759628" lon="0.127843">
        <ele>2445.4</ele>
        <time>2013-10-13T09:07:42Z</time>
      </trkpt>
      <trkpt lat="42.759558" lon="0.127936">
        <ele>2445.9</ele>
        <time>2013-10-13T09:07:56Z</time>
      </trkpt>
      <trkpt lat="42.759479" lon="0.128050">
        <ele>2446.8</ele>
        <time>2013-10-13T09:08:11Z</time>
      </trkpt>
      <trkpt lat="42.759415" lon="0.128134">
        <ele>2448.4</ele>
        <time>2013-10-13T09:08:29Z</time>
      </trkpt>
      <trkpt lat="42.759393" lon="0.128045">
        <ele>2450.7</ele>
        <time>2013-10-13T09:09:03Z</time>
      </trkpt>
      <trkpt lat="42.759330" lon="0.127981">
        <ele>2453.5</ele>
        <time>2013-10-13T09:09:20Z</time>
      </trkpt>
      <trkpt lat="42.759352" lon="0.127831">
        <ele>2456.8</ele>
        <time>2013-10-13T09:09:41Z</time>
      </trkpt>
      <trkpt lat="42.759373" lon="0.127703">
        <ele>2459.2</ele>
        <time>2013-10-13T09:09:59Z</time>
      </trkpt>
      <trkpt lat="42.759361" lon="0.127581">
        <ele>2462.6</ele>
        <time>2013-10-13T09:10:17Z</time>
      </trkpt>
      <trkpt lat="42.759337" lon="0.127528">
        <ele>2466.3</ele>
        <time>2013-10-13T09:10:45Z</time>
      </trkpt>
      <trkpt lat="42.759247" lon="0.127571">
        <ele>2471.0</ele>
        <time>2013-10-13T09:11:13Z</time>
      </trkpt>
      <trkpt lat="42.759172" lon="0.127654">
        <ele>2473.5</ele>
        <time>2013-10-13T09:11:29Z</time>
      </trkpt>
      <trkpt lat="42.759085" lon="0.127703">
        <ele>2477.7</ele>
        <time>2013-10-13T09:11:56Z</time>
      </trkpt>
      <trkpt lat="42.759025" lon="0.127781">
        <ele>2480.5</ele>
        <time>2013-10-13T09:12:16Z</time>
      </trkpt>
      <trkpt lat="42.758998" lon="0.127894">
        <ele>2482.1</ele>
        <time>2013-10-13T09:12:32Z</time>
      </trkpt>
      <trkpt lat="42.758940" lon="0.127922">
        <ele>2485.2</ele>
        <time>2013-10-13T09:12:51Z</time>
      </trkpt>
      <trkpt lat="42.758908" lon="0.127832">
        <ele>2488.8</ele>
        <time>2013-10-13T09:13:15Z</time>
      </trkpt>
      <trkpt lat="42.758857" lon="0.127958">
        <ele>2491.3</ele>
        <time>2013-10-13T09:13:34Z</time>
      </trkpt>
      <trkpt lat="42.758779" lon="0.128010">
        <ele>2492.9</ele>
        <time>2013-10-13T09:14:08Z</time>
      </trkpt>
      <trkpt lat="42.758701" lon="0.128096">
        <ele>2495.9</ele>
        <time>2013-10-13T09:14:29Z</time>
      </trkpt>
      <trkpt lat="42.758636" lon="0.128190">
        <ele>2498.0</ele>
        <time>2013-10-13T09:14:46Z</time>
      </trkpt>
      <trkpt lat="42.758553" lon="0.128266">
        <ele>2501.8</ele>
        <time>2013-10-13T09:15:08Z</time>
      </trkpt>
      <trkpt lat="42.758477" lon="0.128317">
        <ele>2505.6</ele>
        <time>2013-10-13T09:15:31Z</time>
      </trkpt>
      <trkpt lat="42.758431" lon="0.128309">
        <ele>2509.0</ele>
        <time>2013-10-13T09:15:50Z</time>
      </trkpt>
      <trkpt lat="42.758401" lon="0.128175">
        <ele>2513.1</ele>
        <time>2013-10-13T09:16:12Z</time>
      </trkpt>
      <trkpt lat="42.758394" lon="0.128023">
        <ele>2515.8</ele>
        <time>2013-10-13T09:16:29Z</time>
      </trkpt>
      <trkpt lat="42.758346" lon="0.128070">
        <ele>2518.6</ele>
        <time>2013-10-13T09:16:51Z</time>
      </trkpt>
      <trkpt lat="42.758331" lon="0.127978">
        <ele>2521.0</ele>
        <time>2013-10-13T09:17:09Z</time>
      </trkpt>
      <trkpt lat="42.758308" lon="0.127903">
        <ele>2523.7</ele>
        <time>2013-10-13T09:17:28Z</time>
      </trkpt>
      <trkpt lat="42.758238" lon="0.127996">
        <ele>2527.3</ele>
        <time>2013-10-13T09:17:53Z</time>
      </trkpt>
      <trkpt lat="42.758232" lon="0.128032">
        <ele>2529.5</ele>
        <time>2013-10-13T09:19:41Z</time>
      </trkpt>
      <trkpt lat="42.758224" lon="0.128056">
        <ele>2529.5</ele>
        <time>2013-10-13T09:21:02Z</time>
      </trkpt>
      <trkpt lat="42.758181" lon="0.128038">
        <ele>2531.5</ele>
        <time>2013-10-13T09:21:18Z</time>
      </trkpt>
      <trkpt lat="42.758172" lon="0.127904">
        <ele>2534.3</ele>
        <time>2013-10-13T09:21:36Z</time>
      </trkpt>
      <trkpt lat="42.758145" lon="0.127845">
        <ele>2537.1</ele>
        <time>2013-10-13T09:21:56Z</time>
      </trkpt>
      <trkpt lat="42.758089" lon="0.127945">
        <ele>2539.0</ele>
        <time>2013-10-13T09:22:11Z</time>
      </trkpt>
      <trkpt lat="42.758019" lon="0.128031">
        <ele>2542.2</ele>
        <time>2013-10-13T09:22:32Z</time>
      </trkpt>
      <trkpt lat="42.757945" lon="0.128130">
        <ele>2545.2</ele>
        <time>2013-10-13T09:22:48Z</time>
      </trkpt>
      <trkpt lat="42.757874" lon="0.128219">
        <ele>2548.3</ele>
        <time>2013-10-13T09:23:06Z</time>
      </trkpt>
      <trkpt lat="42.757804" lon="0.128302">
        <ele>2551.0</ele>
        <time>2013-10-13T09:23:22Z</time>
      </trkpt>
      <trkpt lat="42.757749" lon="0.128403">
        <ele>2552.4</ele>
        <time>2013-10-13T09:23:35Z</time>
      </trkpt>
      <trkpt lat="42.757733" lon="0.128329">
        <ele>2554.1</ele>
        <time>2013-10-13T09:23:50Z</time>
      </trkpt>
      <trkpt lat="42.757713" lon="0.128207">
        <ele>2557.2</ele>
        <time>2013-10-13T09:24:10Z</time>
      </trkpt>
      <trkpt lat="42.757723" lon="0.128063">
        <ele>2559.2</ele>
        <time>2013-10-13T09:24:27Z</time>
      </trkpt>
      <trkpt lat="42.757694" lon="0.127970">
        <ele>2561.3</ele>
        <time>2013-10-13T09:24:48Z</time>
      </trkpt>
      <trkpt lat="42.757614" lon="0.128033">
        <ele>2564.7</ele>
        <time>2013-10-13T09:25:09Z</time>
      </trkpt>
      <trkpt lat="42.757590" lon="0.128151">
        <ele>2565.3</ele>
        <time>2013-10-13T09:25:26Z</time>
      </trkpt>
      <trkpt lat="42.757552" lon="0.128174">
        <ele>2566.8</ele>
        <time>2013-10-13T09:26:06Z</time>
      </trkpt>
      <trkpt lat="42.757546" lon="0.128312">
        <ele>2568.4</ele>
        <time>2013-10-13T09:26:31Z</time>
      </trkpt>
      <trkpt lat="42.757486" lon="0.128402">
        <ele>2569.3</ele>
        <time>2013-10-13T09:26:48Z</time>
      </trkpt>
      <trkpt lat="42.757428" lon="0.128476">
        <ele>2572.2</ele>
        <time>2013-10-13T09:27:15Z</time>
      </trkpt>
      <trkpt lat="42.757351" lon="0.128534">
        <ele>2576.4</ele>
        <time>2013-10-13T09:27:56Z</time>
      </trkpt>
      <trkpt lat="42.757300" lon="0.128581">
        <ele>2580.0</ele>
        <time>2013-10-13T09:28:24Z</time>
      </trkpt>
      <trkpt lat="42.757335" lon="0.128461">
        <ele>2582.9</ele>
        <time>2013-10-13T09:28:47Z</time>
      </trkpt>
      <trkpt lat="42.757323" lon="0.128347">
        <ele>2584.2</ele>
        <time>2013-10-13T09:29:09Z</time>
      </trkpt>
      <trkpt lat="42.757291" lon="0.128232">
        <ele>2585.6</ele>
        <time>2013-10-13T09:29:36Z</time>
      </trkpt>
      <trkpt lat="42.757291" lon="0.128188">
        <ele>2586.6</ele>
        <time>2013-10-13T09:30:30Z</time>
        <cmt>Hourquette de Heas</cmt>
      </trkpt>
      <trkpt lat="42.757236" lon="0.128250">
        <ele>2585.6</ele>
        <time>2013-10-13T09:36:47Z</time>
      </trkpt>
      <trkpt lat="42.757242" lon="0.128356">
        <ele>2588.1</ele>
        <time>2013-10-13T09:37:56Z</time>
      </trkpt>
      <trkpt lat="42.757176" lon="0.128445">
        <ele>2590.7</ele>
        <time>2013-10-13T09:38:16Z</time>
      </trkpt>
      <trkpt lat="42.757109" lon="0.128536">
        <ele>2594.0</ele>
        <time>2013-10-13T09:38:32Z</time>
      </trkpt>
      <trkpt lat="42.757066" lon="0.128631">
        <ele>2597.5</ele>
        <time>2013-10-13T09:38:53Z</time>
      </trkpt>
      <trkpt lat="42.756980" lon="0.128730">
        <ele>2598.1</ele>
        <time>2013-10-13T09:39:12Z</time>
      </trkpt>
      <trkpt lat="42.756898" lon="0.128815">
        <ele>2598.2</ele>
        <time>2013-10-13T09:39:29Z</time>
      </trkpt>
      <trkpt lat="42.756844" lon="0.128904">
        <ele>2600.6</ele>
        <time>2013-10-13T09:39:56Z</time>
      </trkpt>
      <trkpt lat="42.756798" lon="0.128992">
        <ele>2604.0</ele>
        <time>2013-10-13T09:40:11Z</time>
      </trkpt>
      <trkpt lat="42.756695" lon="0.129062">
        <ele>2605.0</ele>
        <time>2013-10-13T09:40:25Z</time>
      </trkpt>
      <trkpt lat="42.756625" lon="0.129124">
        <ele>2605.8</ele>
        <time>2013-10-13T09:40:38Z</time>
      </trkpt>
      <trkpt lat="42.756587" lon="0.129202">
        <ele>2610.4</ele>
        <time>2013-10-13T09:41:00Z</time>
      </trkpt>
      <trkpt lat="42.756528" lon="0.129265">
        <ele>2613.3</ele>
        <time>2013-10-13T09:41:16Z</time>
      </trkpt>
      <trkpt lat="42.756488" lon="0.129330">
        <ele>2614.8</ele>
        <time>2013-10-13T09:41:30Z</time>
      </trkpt>
      <trkpt lat="42.756425" lon="0.129372">
        <ele>2616.7</ele>
        <time>2013-10-13T09:42:04Z</time>
      </trkpt>
      <trkpt lat="42.756341" lon="0.129441">
        <ele>2616.4</ele>
        <time>2013-10-13T09:42:38Z</time>
      </trkpt>
      <trkpt lat="42.756275" lon="0.129539">
        <ele>2619.8</ele>
        <time>2013-10-13T09:43:00Z</time>
      </trkpt>
      <trkpt lat="42.756212" lon="0.129587">
        <ele>2622.3</ele>
        <time>2013-10-13T09:43:22Z</time>
      </trkpt>
      <trkpt lat="42.756137" lon="0.129644">
        <ele>2623.6</ele>
        <time>2013-10-13T09:43:52Z</time>
      </trkpt>
      <trkpt lat="42.756045" lon="0.129691">
        <ele>2622.6</ele>
        <time>2013-10-13T09:44:05Z</time>
      </trkpt>
      <trkpt lat="42.755944" lon="0.129744">
        <ele>2623.3</ele>
        <time>2013-10-13T09:44:20Z</time>
      </trkpt>
      <trkpt lat="42.755886" lon="0.129831">
        <ele>2626.7</ele>
        <time>2013-10-13T09:44:40Z</time>
      </trkpt>
      <trkpt lat="42.755833" lon="0.129943">
        <ele>2630.8</ele>
        <time>2013-10-13T09:45:00Z</time>
      </trkpt>
      <trkpt lat="42.755741" lon="0.129988">
        <ele>2630.6</ele>
        <time>2013-10-13T09:45:14Z</time>
      </trkpt>
      <trkpt lat="42.755649" lon="0.130092">
        <ele>2630.7</ele>
        <time>2013-10-13T09:45:27Z</time>
      </trkpt>
      <trkpt lat="42.755584" lon="0.130202">
        <ele>2630.7</ele>
        <time>2013-10-13T09:45:39Z</time>
      </trkpt>
      <trkpt lat="42.755525" lon="0.130317">
        <ele>2631.3</ele>
        <time>2013-10-13T09:45:51Z</time>
      </trkpt>
      <trkpt lat="42.755464" lon="0.130413">
        <ele>2631.6</ele>
        <time>2013-10-13T09:46:03Z</time>
      </trkpt>
      <trkpt lat="42.755386" lon="0.130507">
        <ele>2632.3</ele>
        <time>2013-10-13T09:46:14Z</time>
      </trkpt>
      <trkpt lat="42.755337" lon="0.130628">
        <ele>2633.0</ele>
        <time>2013-10-13T09:46:30Z</time>
      </trkpt>
      <trkpt lat="42.755293" lon="0.130739">
        <ele>2635.5</ele>
        <time>2013-10-13T09:46:43Z</time>
      </trkpt>
      <trkpt lat="42.755288" lon="0.130859">
        <ele>2639.2</ele>
        <time>2013-10-13T09:48:15Z</time>
      </trkpt>
      <trkpt lat="42.755222" lon="0.130945">
        <ele>2640.7</ele>
        <time>2013-10-13T09:48:37Z</time>
      </trkpt>
      <trkpt lat="42.755143" lon="0.131052">
        <ele>2641.7</ele>
        <time>2013-10-13T09:48:50Z</time>
      </trkpt>
      <trkpt lat="42.755077" lon="0.131163">
        <ele>2643.6</ele>
        <time>2013-10-13T09:49:02Z</time>
      </trkpt>
      <trkpt lat="42.755012" lon="0.131247">
        <ele>2645.0</ele>
        <time>2013-10-13T09:49:14Z</time>
      </trkpt>
      <trkpt lat="42.754927" lon="0.131314">
        <ele>2646.1</ele>
        <time>2013-10-13T09:49:25Z</time>
      </trkpt>
      <trkpt lat="42.754836" lon="0.131354">
        <ele>2646.9</ele>
        <time>2013-10-13T09:49:37Z</time>
      </trkpt>
      <trkpt lat="42.754746" lon="0.131389">
        <ele>2646.8</ele>
        <time>2013-10-13T09:49:48Z</time>
      </trkpt>
      <trkpt lat="42.754672" lon="0.131491">
        <ele>2648.3</ele>
        <time>2013-10-13T09:50:02Z</time>
      </trkpt>
      <trkpt lat="42.754609" lon="0.131571">
        <ele>2650.5</ele>
        <time>2013-10-13T09:50:19Z</time>
      </trkpt>
      <trkpt lat="42.754568" lon="0.131674">
        <ele>2653.0</ele>
        <time>2013-10-13T09:50:36Z</time>
      </trkpt>
      <trkpt lat="42.754509" lon="0.131788">
        <ele>2655.7</ele>
        <time>2013-10-13T09:50:56Z</time>
      </trkpt>
      <trkpt lat="42.754465" lon="0.131873">
        <ele>2659.4</ele>
        <time>2013-10-13T09:51:15Z</time>
      </trkpt>
      <trkpt lat="42.754386" lon="0.131955">
        <ele>2660.6</ele>
        <time>2013-10-13T09:51:28Z</time>
      </trkpt>
      <trkpt lat="42.754309" lon="0.132032">
        <ele>2662.1</ele>
        <time>2013-10-13T09:51:38Z</time>
      </trkpt>
      <trkpt lat="42.754233" lon="0.132112">
        <ele>2662.7</ele>
        <time>2013-10-13T09:51:49Z</time>
      </trkpt>
      <trkpt lat="42.754165" lon="0.132185">
        <ele>2663.3</ele>
        <time>2013-10-13T09:51:58Z</time>
      </trkpt>
      <trkpt lat="42.754088" lon="0.132272">
        <ele>2665.0</ele>
        <time>2013-10-13T09:52:10Z</time>
      </trkpt>
      <trkpt lat="42.754026" lon="0.132363">
        <ele>2666.2</ele>
        <time>2013-10-13T09:52:41Z</time>
      </trkpt>
      <trkpt lat="42.753962" lon="0.132394">
        <ele>2666.3</ele>
        <time>2013-10-13T09:54:07Z</time>
      </trkpt>
      <trkpt lat="42.753912" lon="0.132517">
        <ele>2667.2</ele>
        <time>2013-10-13T09:54:20Z</time>
      </trkpt>
      <trkpt lat="42.753849" lon="0.132628">
        <ele>2668.1</ele>
        <time>2013-10-13T09:54:31Z</time>
      </trkpt>
      <trkpt lat="42.753775" lon="0.132720">
        <ele>2669.9</ele>
        <time>2013-10-13T09:54:42Z</time>
      </trkpt>
      <trkpt lat="42.753726" lon="0.132823">
        <ele>2671.4</ele>
        <time>2013-10-13T09:54:53Z</time>
      </trkpt>
      <trkpt lat="42.753681" lon="0.132928">
        <ele>2673.9</ele>
        <time>2013-10-13T09:55:07Z</time>
      </trkpt>
      <trkpt lat="42.753604" lon="0.133005">
        <ele>2675.9</ele>
        <time>2013-10-13T09:55:19Z</time>
      </trkpt>
      <trkpt lat="42.753534" lon="0.133086">
        <ele>2677.0</ele>
        <time>2013-10-13T09:55:29Z</time>
      </trkpt>
      <trkpt lat="42.753464" lon="0.133173">
        <ele>2677.7</ele>
        <time>2013-10-13T09:55:40Z</time>
      </trkpt>
      <trkpt lat="42.753393" lon="0.133280">
        <ele>2679.0</ele>
        <time>2013-10-13T09:55:53Z</time>
      </trkpt>
      <trkpt lat="42.753328" lon="0.133387">
        <ele>2680.1</ele>
        <time>2013-10-13T09:56:04Z</time>
      </trkpt>
      <trkpt lat="42.753272" lon="0.133493">
        <ele>2681.8</ele>
        <time>2013-10-13T09:56:17Z</time>
      </trkpt>
      <trkpt lat="42.753188" lon="0.133568">
        <ele>2682.4</ele>
        <time>2013-10-13T09:56:29Z</time>
      </trkpt>
      <trkpt lat="42.753114" lon="0.133658">
        <ele>2682.4</ele>
        <time>2013-10-13T09:56:40Z</time>
      </trkpt>
      <trkpt lat="42.753020" lon="0.133743">
        <ele>2682.7</ele>
        <time>2013-10-13T09:56:52Z</time>
      </trkpt>
      <trkpt lat="42.752953" lon="0.133843">
        <ele>2682.8</ele>
        <time>2013-10-13T09:57:03Z</time>
      </trkpt>
      <trkpt lat="42.752893" lon="0.133949">
        <ele>2684.1</ele>
        <time>2013-10-13T09:57:14Z</time>
      </trkpt>
      <trkpt lat="42.752827" lon="0.134047">
        <ele>2684.2</ele>
        <time>2013-10-13T09:57:25Z</time>
      </trkpt>
      <trkpt lat="42.752771" lon="0.134153">
        <ele>2684.6</ele>
        <time>2013-10-13T09:57:35Z</time>
      </trkpt>
      <trkpt lat="42.752711" lon="0.134253">
        <ele>2685.6</ele>
        <time>2013-10-13T09:57:45Z</time>
      </trkpt>
      <trkpt lat="42.752650" lon="0.134348">
        <ele>2686.5</ele>
        <time>2013-10-13T09:57:55Z</time>
      </trkpt>
      <trkpt lat="42.752581" lon="0.134436">
        <ele>2687.3</ele>
        <time>2013-10-13T09:58:06Z</time>
      </trkpt>
      <trkpt lat="42.752515" lon="0.134520">
        <ele>2688.4</ele>
        <time>2013-10-13T09:58:18Z</time>
      </trkpt>
      <trkpt lat="42.752413" lon="0.134578">
        <ele>2689.4</ele>
        <time>2013-10-13T09:58:31Z</time>
      </trkpt>
      <trkpt lat="42.752316" lon="0.134632">
        <ele>2688.9</ele>
        <time>2013-10-13T09:58:43Z</time>
      </trkpt>
      <trkpt lat="42.752224" lon="0.134707">
        <ele>2689.0</ele>
        <time>2013-10-13T09:58:53Z</time>
      </trkpt>
      <trkpt lat="42.752137" lon="0.134792">
        <ele>2690.4</ele>
        <time>2013-10-13T09:59:05Z</time>
      </trkpt>
      <trkpt lat="42.752053" lon="0.134870">
        <ele>2691.4</ele>
        <time>2013-10-13T09:59:16Z</time>
      </trkpt>
      <trkpt lat="42.751982" lon="0.134945">
        <ele>2692.4</ele>
        <time>2013-10-13T09:59:27Z</time>
      </trkpt>
      <trkpt lat="42.751895" lon="0.135009">
        <ele>2693.8</ele>
        <time>2013-10-13T09:59:40Z</time>
      </trkpt>
      <trkpt lat="42.751834" lon="0.135129">
        <ele>2694.2</ele>
        <time>2013-10-13T09:59:54Z</time>
      </trkpt>
      <trkpt lat="42.751760" lon="0.135234">
        <ele>2694.7</ele>
        <time>2013-10-13T10:00:20Z</time>
      </trkpt>
      <trkpt lat="42.751690" lon="0.135342">
        <ele>2695.1</ele>
        <time>2013-10-13T10:00:34Z</time>
      </trkpt>
      <trkpt lat="42.751607" lon="0.135401">
        <ele>2695.7</ele>
        <time>2013-10-13T10:00:44Z</time>
      </trkpt>
      <trkpt lat="42.751535" lon="0.135479">
        <ele>2696.7</ele>
        <time>2013-10-13T10:00:55Z</time>
      </trkpt>
      <trkpt lat="42.751461" lon="0.135595">
        <ele>2698.5</ele>
        <time>2013-10-13T10:01:10Z</time>
      </trkpt>
      <trkpt lat="42.751362" lon="0.135658">
        <ele>2700.4</ele>
        <time>2013-10-13T10:01:24Z</time>
      </trkpt>
      <trkpt lat="42.751267" lon="0.135701">
        <ele>2702.5</ele>
        <time>2013-10-13T10:01:36Z</time>
      </trkpt>
      <trkpt lat="42.751172" lon="0.135733">
        <ele>2704.8</ele>
        <time>2013-10-13T10:01:49Z</time>
      </trkpt>
      <trkpt lat="42.751109" lon="0.135807">
        <ele>2706.4</ele>
        <time>2013-10-13T10:02:00Z</time>
      </trkpt>
      <trkpt lat="42.751022" lon="0.135867">
        <ele>2707.4</ele>
        <time>2013-10-13T10:02:11Z</time>
      </trkpt>
      <trkpt lat="42.750934" lon="0.135932">
        <ele>2708.5</ele>
        <time>2013-10-13T10:02:24Z</time>
      </trkpt>
      <trkpt lat="42.750845" lon="0.136015">
        <ele>2710.7</ele>
        <time>2013-10-13T10:02:37Z</time>
      </trkpt>
      <trkpt lat="42.750754" lon="0.136063">
        <ele>2713.5</ele>
        <time>2013-10-13T10:02:53Z</time>
      </trkpt>
      <trkpt lat="42.750662" lon="0.136116">
        <ele>2716.2</ele>
        <time>2013-10-13T10:03:07Z</time>
      </trkpt>
      <trkpt lat="42.750569" lon="0.136151">
        <ele>2718.8</ele>
        <time>2013-10-13T10:03:22Z</time>
      </trkpt>
      <trkpt lat="42.750475" lon="0.136179">
        <ele>2721.7</ele>
        <time>2013-10-13T10:03:38Z</time>
      </trkpt>
      <trkpt lat="42.750380" lon="0.136213">
        <ele>2725.0</ele>
        <time>2013-10-13T10:03:54Z</time>
      </trkpt>
      <trkpt lat="42.750304" lon="0.136293">
        <ele>2728.3</ele>
        <time>2013-10-13T10:04:10Z</time>
      </trkpt>
      <trkpt lat="42.750235" lon="0.136375">
        <ele>2731.9</ele>
        <time>2013-10-13T10:04:27Z</time>
      </trkpt>
      <trkpt lat="42.750157" lon="0.136432">
        <ele>2735.2</ele>
        <time>2013-10-13T10:04:45Z</time>
      </trkpt>
      <trkpt lat="42.750101" lon="0.136522">
        <ele>2739.0</ele>
        <time>2013-10-13T10:05:03Z</time>
      </trkpt>
      <trkpt lat="42.750019" lon="0.136560">
        <ele>2742.6</ele>
        <time>2013-10-13T10:05:21Z</time>
      </trkpt>
      <trkpt lat="42.749939" lon="0.136623">
        <ele>2747.5</ele>
        <time>2013-10-13T10:05:40Z</time>
      </trkpt>
      <trkpt lat="42.749930" lon="0.136744">
        <ele>2751.1</ele>
        <time>2013-10-13T10:05:59Z</time>
      </trkpt>
      <trkpt lat="42.749882" lon="0.136846">
        <ele>2753.7</ele>
        <time>2013-10-13T10:06:23Z</time>
      </trkpt>
      <trkpt lat="42.749805" lon="0.136918">
        <ele>2758.1</ele>
        <time>2013-10-13T10:06:44Z</time>
      </trkpt>
      <trkpt lat="42.749771" lon="0.136983">
        <ele>2759.3</ele>
        <time>2013-10-13T10:07:54Z</time>
      </trkpt>
      <trkpt lat="42.749754" lon="0.136967">
        <ele>2761.2</ele>
        <time>2013-10-13T10:08:55Z</time>
      </trkpt>
      <trkpt lat="42.749720" lon="0.137050">
        <ele>2762.5</ele>
        <time>2013-10-13T10:10:44Z</time>
      </trkpt>
      <trkpt lat="42.749669" lon="0.137156">
        <ele>2763.8</ele>
        <time>2013-10-13T10:10:57Z</time>
      </trkpt>
      <trkpt lat="42.749588" lon="0.137240">
        <ele>2764.9</ele>
        <time>2013-10-13T10:11:09Z</time>
      </trkpt>
      <trkpt lat="42.749552" lon="0.137361">
        <ele>2766.8</ele>
        <time>2013-10-13T10:11:29Z</time>
      </trkpt>
      <trkpt lat="42.749499" lon="0.137448">
        <ele>2766.9</ele>
        <time>2013-10-13T10:11:48Z</time>
      </trkpt>
      <trkpt lat="42.749429" lon="0.137522">
        <ele>2767.2</ele>
        <time>2013-10-13T10:12:04Z</time>
      </trkpt>
      <trkpt lat="42.749357" lon="0.137610">
        <ele>2765.5</ele>
        <time>2013-10-13T10:12:22Z</time>
      </trkpt>
      <trkpt lat="42.749332" lon="0.137679">
        <ele>2765.6</ele>
        <time>2013-10-13T10:13:12Z</time>
      </trkpt>
      <trkpt lat="42.749258" lon="0.137757">
        <ele>2768.8</ele>
        <time>2013-10-13T10:13:51Z</time>
      </trkpt>
      <trkpt lat="42.749217" lon="0.137840">
        <ele>2769.7</ele>
        <time>2013-10-13T10:14:20Z</time>
      </trkpt>
      <trkpt lat="42.749180" lon="0.137926">
        <ele>2770.4</ele>
        <time>2013-10-13T10:15:05Z</time>
      </trkpt>
      <trkpt lat="42.749146" lon="0.137904">
        <ele>2771.8</ele>
        <time>2013-10-13T10:15:47Z</time>
      </trkpt>
      <trkpt lat="42.749164" lon="0.137948">
        <ele>2776.3</ele>
        <time>2013-10-13T10:16:40Z</time>
      </trkpt>
      <trkpt lat="42.749114" lon="0.137979">
        <ele>2779.2</ele>
        <time>2013-10-13T10:29:03Z</time>
      </trkpt>
      <trkpt lat="42.749054" lon="0.138096">
        <ele>2782.2</ele>
        <time>2013-10-13T10:29:36Z</time>
      </trkpt>
      <trkpt lat="42.748974" lon="0.138166">
        <ele>2784.9</ele>
        <time>2013-10-13T10:29:50Z</time>
      </trkpt>
      <trkpt lat="42.748894" lon="0.138239">
        <ele>2792.4</ele>
        <time>2013-10-13T10:30:16Z</time>
      </trkpt>
      <trkpt lat="42.748831" lon="0.138286">
        <ele>2793.6</ele>
        <time>2013-10-13T10:30:48Z</time>
      </trkpt>
      <trkpt lat="42.748732" lon="0.138364">
        <ele>2788.5</ele>
        <time>2013-10-13T10:32:59Z</time>
      </trkpt>
      <trkpt lat="42.748655" lon="0.138444">
        <ele>2787.3</ele>
        <time>2013-10-13T10:33:24Z</time>
      </trkpt>
      <trkpt lat="42.748560" lon="0.138484">
        <ele>2794.8</ele>
        <time>2013-10-13T10:34:10Z</time>
      </trkpt>
      <trkpt lat="42.748498" lon="0.138565">
        <ele>2798.1</ele>
        <time>2013-10-13T10:34:29Z</time>
      </trkpt>
      <trkpt lat="42.748441" lon="0.138639">
        <ele>2797.8</ele>
        <time>2013-10-13T10:35:15Z</time>
      </trkpt>
      <trkpt lat="42.748386" lon="0.138703">
        <ele>2800.3</ele>
        <time>2013-10-13T10:35:41Z</time>
      </trkpt>
      <trkpt lat="42.748339" lon="0.138740">
        <ele>2804.4</ele>
        <time>2013-10-13T10:36:11Z</time>
      </trkpt>
      <trkpt lat="42.748235" lon="0.138783">
        <ele>2806.4</ele>
        <time>2013-10-13T10:37:21Z</time>
      </trkpt>
      <trkpt lat="42.748167" lon="0.138818">
        <ele>2809.2</ele>
        <time>2013-10-13T10:37:39Z</time>
      </trkpt>
      <trkpt lat="42.748081" lon="0.138848">
        <ele>2810.9</ele>
        <time>2013-10-13T10:38:27Z</time>
      </trkpt>
      <trkpt lat="42.748004" lon="0.138904">
        <ele>2810.9</ele>
        <time>2013-10-13T10:39:29Z</time>
      </trkpt>
      <trkpt lat="42.747922" lon="0.138947">
        <ele>2811.6</ele>
        <time>2013-10-13T10:40:07Z</time>
      </trkpt>
      <trkpt lat="42.747838" lon="0.138986">
        <ele>2812.3</ele>
        <time>2013-10-13T10:40:19Z</time>
      </trkpt>
      <trkpt lat="42.747741" lon="0.138991">
        <ele>2814.4</ele>
        <time>2013-10-13T10:40:35Z</time>
      </trkpt>
      <trkpt lat="42.747679" lon="0.138947">
        <ele>2813.4</ele>
        <time>2013-10-13T10:41:30Z</time>
      </trkpt>
      <trkpt lat="42.747583" lon="0.139008">
        <ele>2813.6</ele>
        <time>2013-10-13T10:41:47Z</time>
      </trkpt>
      <trkpt lat="42.747504" lon="0.139084">
        <ele>2815.5</ele>
        <time>2013-10-13T10:42:02Z</time>
      </trkpt>
      <trkpt lat="42.747428" lon="0.139171">
        <ele>2817.4</ele>
        <time>2013-10-13T10:42:16Z</time>
      </trkpt>
      <trkpt lat="42.747326" lon="0.139183">
        <ele>2820.3</ele>
        <time>2013-10-13T10:42:34Z</time>
      </trkpt>
      <trkpt lat="42.747228" lon="0.139249">
        <ele>2823.5</ele>
        <time>2013-10-13T10:42:45Z</time>
      </trkpt>
      <trkpt lat="42.747156" lon="0.139313">
        <ele>2826.4</ele>
        <time>2013-10-13T10:43:04Z</time>
        <cmt>Pic de la Gela</cmt>
      </trkpt>
      <trkpt lat="42.747140" lon="0.139324">
        <ele>2825.4</ele>
        <time>2013-10-13T11:51:04Z</time>
      </trkpt>
      <trkpt lat="42.747146" lon="0.139388">
        <ele>2824.3</ele>
        <time>2013-10-13T11:53:01Z</time>
      </trkpt>
      <trkpt lat="42.747149" lon="0.139504">
        <ele>2822.1</ele>
        <time>2013-10-13T11:53:23Z</time>
      </trkpt>
      <trkpt lat="42.747111" lon="0.139594">
        <ele>2817.9</ele>
        <time>2013-10-13T11:53:58Z</time>
      </trkpt>
      <trkpt lat="42.747165" lon="0.139638">
        <ele>2813.6</ele>
        <time>2013-10-13T11:54:23Z</time>
      </trkpt>
      <trkpt lat="42.747221" lon="0.139693">
        <ele>2808.9</ele>
        <time>2013-10-13T11:54:56Z</time>
      </trkpt>
      <trkpt lat="42.747285" lon="0.139718">
        <ele>2804.2</ele>
        <time>2013-10-13T11:55:16Z</time>
      </trkpt>
      <trkpt lat="42.747272" lon="0.139856">
        <ele>2800.0</ele>
        <time>2013-10-13T11:55:36Z</time>
      </trkpt>
      <trkpt lat="42.747333" lon="0.139910">
        <ele>2794.4</ele>
        <time>2013-10-13T11:55:59Z</time>
      </trkpt>
      <trkpt lat="42.747367" lon="0.140023">
        <ele>2791.6</ele>
        <time>2013-10-13T11:56:17Z</time>
      </trkpt>
      <trkpt lat="42.747411" lon="0.140033">
        <ele>2789.1</ele>
        <time>2013-10-13T12:02:41Z</time>
      </trkpt>
      <trkpt lat="42.747471" lon="0.139999">
        <ele>2784.8</ele>
        <time>2013-10-13T12:03:00Z</time>
      </trkpt>
      <trkpt lat="42.747517" lon="0.139965">
        <ele>2781.8</ele>
        <time>2013-10-13T12:05:44Z</time>
      </trkpt>
      <trkpt lat="42.747539" lon="0.139988">
        <ele>2780.9</ele>
        <time>2013-10-13T12:10:16Z</time>
      </trkpt>
      <trkpt lat="42.747609" lon="0.139965">
        <ele>2774.2</ele>
        <time>2013-10-13T12:11:22Z</time>
      </trkpt>
      <trkpt lat="42.747675" lon="0.139902">
        <ele>2769.1</ele>
        <time>2013-10-13T12:12:38Z</time>
      </trkpt>
      <trkpt lat="42.747742" lon="0.139838">
        <ele>2764.8</ele>
        <time>2013-10-13T12:13:36Z</time>
      </trkpt>
      <trkpt lat="42.747837" lon="0.139764">
        <ele>2759.7</ele>
        <time>2013-10-13T12:14:38Z</time>
      </trkpt>
      <trkpt lat="42.747928" lon="0.139760">
        <ele>2754.6</ele>
        <time>2013-10-13T12:15:17Z</time>
      </trkpt>
      <trkpt lat="42.747996" lon="0.139801">
        <ele>2748.0</ele>
        <time>2013-10-13T12:16:21Z</time>
      </trkpt>
      <trkpt lat="42.748060" lon="0.139837">
        <ele>2744.0</ele>
        <time>2013-10-13T12:16:38Z</time>
      </trkpt>
      <trkpt lat="42.748145" lon="0.139815">
        <ele>2740.1</ele>
        <time>2013-10-13T12:16:53Z</time>
      </trkpt>
      <trkpt lat="42.748230" lon="0.139797">
        <ele>2735.9</ele>
        <time>2013-10-13T12:17:05Z</time>
      </trkpt>
      <trkpt lat="42.748331" lon="0.139794">
        <ele>2731.1</ele>
        <time>2013-10-13T12:17:15Z</time>
      </trkpt>
      <trkpt lat="42.748406" lon="0.139792">
        <ele>2726.8</ele>
        <time>2013-10-13T12:17:25Z</time>
      </trkpt>
      <trkpt lat="42.748512" lon="0.139819">
        <ele>2721.3</ele>
        <time>2013-10-13T12:17:41Z</time>
      </trkpt>
      <trkpt lat="42.748605" lon="0.139802">
        <ele>2717.5</ele>
        <time>2013-10-13T12:18:05Z</time>
      </trkpt>
      <trkpt lat="42.748677" lon="0.139846">
        <ele>2717.1</ele>
        <time>2013-10-13T12:18:16Z</time>
      </trkpt>
      <trkpt lat="42.748727" lon="0.139910">
        <ele>2712.4</ele>
        <time>2013-10-13T12:18:33Z</time>
      </trkpt>
      <trkpt lat="42.748795" lon="0.139961">
        <ele>2709.4</ele>
        <time>2013-10-13T12:18:46Z</time>
      </trkpt>
      <trkpt lat="42.748872" lon="0.140042">
        <ele>2706.9</ele>
        <time>2013-10-13T12:18:57Z</time>
      </trkpt>
      <trkpt lat="42.748950" lon="0.140071">
        <ele>2703.8</ele>
        <time>2013-10-13T12:19:08Z</time>
      </trkpt>
      <trkpt lat="42.748975" lon="0.140167">
        <ele>2702.6</ele>
        <time>2013-10-13T12:20:17Z</time>
      </trkpt>
      <trkpt lat="42.749052" lon="0.140256">
        <ele>2698.3</ele>
        <time>2013-10-13T12:20:30Z</time>
      </trkpt>
      <trkpt lat="42.749111" lon="0.140357">
        <ele>2693.1</ele>
        <time>2013-10-13T12:20:45Z</time>
      </trkpt>
      <trkpt lat="42.749135" lon="0.140482">
        <ele>2688.0</ele>
        <time>2013-10-13T12:21:01Z</time>
      </trkpt>
      <trkpt lat="42.749181" lon="0.140452">
        <ele>2685.7</ele>
        <time>2013-10-13T12:21:13Z</time>
      </trkpt>
      <trkpt lat="42.749257" lon="0.140392">
        <ele>2682.1</ele>
        <time>2013-10-13T12:21:29Z</time>
      </trkpt>
      <trkpt lat="42.749329" lon="0.140334">
        <ele>2677.5</ele>
        <time>2013-10-13T12:21:48Z</time>
      </trkpt>
      <trkpt lat="42.749371" lon="0.140211">
        <ele>2672.4</ele>
        <time>2013-10-13T12:22:15Z</time>
      </trkpt>
      <trkpt lat="42.749431" lon="0.140157">
        <ele>2668.2</ele>
        <time>2013-10-13T12:23:02Z</time>
      </trkpt>
      <trkpt lat="42.749494" lon="0.140128">
        <ele>2666.1</ele>
        <time>2013-10-13T12:23:47Z</time>
      </trkpt>
      <trkpt lat="42.749522" lon="0.140117">
        <ele>2662.2</ele>
        <time>2013-10-13T12:24:40Z</time>
      </trkpt>
      <trkpt lat="42.749571" lon="0.140052">
        <ele>2656.2</ele>
        <time>2013-10-13T12:25:09Z</time>
      </trkpt>
      <trkpt lat="42.749606" lon="0.139996">
        <ele>2652.9</ele>
        <time>2013-10-13T12:26:03Z</time>
      </trkpt>
      <trkpt lat="42.749662" lon="0.139898">
        <ele>2648.6</ele>
        <time>2013-10-13T12:26:38Z</time>
      </trkpt>
      <trkpt lat="42.749745" lon="0.139846">
        <ele>2644.1</ele>
        <time>2013-10-13T12:26:58Z</time>
      </trkpt>
      <trkpt lat="42.749821" lon="0.139821">
        <ele>2639.9</ele>
        <time>2013-10-13T12:27:12Z</time>
      </trkpt>
      <trkpt lat="42.749871" lon="0.139794">
        <ele>2637.6</ele>
        <time>2013-10-13T12:28:19Z</time>
      </trkpt>
      <trkpt lat="42.749954" lon="0.139792">
        <ele>2633.6</ele>
        <time>2013-10-13T12:28:33Z</time>
      </trkpt>
      <trkpt lat="42.750009" lon="0.139834">
        <ele>2629.0</ele>
        <time>2013-10-13T12:28:48Z</time>
      </trkpt>
      <trkpt lat="42.750057" lon="0.139863">
        <ele>2625.7</ele>
        <time>2013-10-13T12:29:00Z</time>
      </trkpt>
      <trkpt lat="42.750098" lon="0.139972">
        <ele>2621.3</ele>
        <time>2013-10-13T12:29:15Z</time>
      </trkpt>
      <trkpt lat="42.750174" lon="0.140017">
        <ele>2616.3</ele>
        <time>2013-10-13T12:29:27Z</time>
      </trkpt>
      <trkpt lat="42.750248" lon="0.139964">
        <ele>2613.1</ele>
        <time>2013-10-13T12:29:37Z</time>
      </trkpt>
      <trkpt lat="42.750321" lon="0.139957">
        <ele>2608.2</ele>
        <time>2013-10-13T12:29:47Z</time>
      </trkpt>
      <trkpt lat="42.750379" lon="0.140046">
        <ele>2603.5</ele>
        <time>2013-10-13T12:29:56Z</time>
      </trkpt>
      <trkpt lat="42.750454" lon="0.140079">
        <ele>2598.8</ele>
        <time>2013-10-13T12:30:05Z</time>
      </trkpt>
      <trkpt lat="42.750546" lon="0.140042">
        <ele>2594.8</ele>
        <time>2013-10-13T12:30:13Z</time>
      </trkpt>
      <trkpt lat="42.750626" lon="0.140014">
        <ele>2589.4</ele>
        <time>2013-10-13T12:30:22Z</time>
      </trkpt>
      <trkpt lat="42.750718" lon="0.139989">
        <ele>2584.8</ele>
        <time>2013-10-13T12:30:32Z</time>
      </trkpt>
      <trkpt lat="42.750813" lon="0.139963">
        <ele>2579.1</ele>
        <time>2013-10-13T12:30:59Z</time>
      </trkpt>
      <trkpt lat="42.750818" lon="0.139963">
        <ele>2578.1</ele>
        <time>2013-10-13T12:31:22Z</time>
      </trkpt>
      <trkpt lat="42.750872" lon="0.139948">
        <ele>2592.9</ele>
        <time>2013-10-13T12:32:24Z</time>
      </trkpt>
      <trkpt lat="42.750874" lon="0.140006">
        <ele>2593.7</ele>
        <time>2013-10-13T12:36:34Z</time>
      </trkpt>
      <trkpt lat="42.750972" lon="0.140027">
        <ele>2590.1</ele>
        <time>2013-10-13T12:36:47Z</time>
      </trkpt>
      <trkpt lat="42.751079" lon="0.140050">
        <ele>2585.9</ele>
        <time>2013-10-13T12:37:02Z</time>
      </trkpt>
      <trkpt lat="42.751153" lon="0.140148">
        <ele>2583.8</ele>
        <time>2013-10-13T12:37:12Z</time>
      </trkpt>
      <trkpt lat="42.751203" lon="0.140256">
        <ele>2581.9</ele>
        <time>2013-10-13T12:37:37Z</time>
      </trkpt>
      <trkpt lat="42.751269" lon="0.140171">
        <ele>2581.5</ele>
        <time>2013-10-13T12:38:06Z</time>
      </trkpt>
      <trkpt lat="42.751352" lon="0.140092">
        <ele>2580.1</ele>
        <time>2013-10-13T12:38:16Z</time>
      </trkpt>
      <trkpt lat="42.751444" lon="0.140094">
        <ele>2578.5</ele>
        <time>2013-10-13T12:38:25Z</time>
      </trkpt>
      <trkpt lat="42.751529" lon="0.140150">
        <ele>2577.1</ele>
        <time>2013-10-13T12:38:36Z</time>
      </trkpt>
      <trkpt lat="42.751618" lon="0.140175">
        <ele>2575.4</ele>
        <time>2013-10-13T12:38:45Z</time>
      </trkpt>
      <trkpt lat="42.751705" lon="0.140199">
        <ele>2572.7</ele>
        <time>2013-10-13T12:38:56Z</time>
      </trkpt>
      <trkpt lat="42.751789" lon="0.140153">
        <ele>2569.2</ele>
        <time>2013-10-13T12:39:08Z</time>
      </trkpt>
      <trkpt lat="42.751872" lon="0.140150">
        <ele>2566.3</ele>
        <time>2013-10-13T12:39:19Z</time>
      </trkpt>
      <trkpt lat="42.751975" lon="0.140125">
        <ele>2564.3</ele>
        <time>2013-10-13T12:39:30Z</time>
      </trkpt>
      <trkpt lat="42.752036" lon="0.140214">
        <ele>2562.8</ele>
        <time>2013-10-13T12:39:39Z</time>
      </trkpt>
      <trkpt lat="42.752124" lon="0.140212">
        <ele>2561.3</ele>
        <time>2013-10-13T12:39:49Z</time>
      </trkpt>
      <trkpt lat="42.752213" lon="0.140172">
        <ele>2560.5</ele>
        <time>2013-10-13T12:39:58Z</time>
      </trkpt>
      <trkpt lat="42.752316" lon="0.140147">
        <ele>2560.9</ele>
        <time>2013-10-13T12:40:07Z</time>
      </trkpt>
      <trkpt lat="42.752402" lon="0.140181">
        <ele>2560.7</ele>
        <time>2013-10-13T12:40:15Z</time>
      </trkpt>
      <trkpt lat="42.752466" lon="0.140144">
        <ele>2558.9</ele>
        <time>2013-10-13T12:40:41Z</time>
      </trkpt>
      <trkpt lat="42.752532" lon="0.140148">
        <ele>2553.4</ele>
        <time>2013-10-13T12:41:26Z</time>
      </trkpt>
      <trkpt lat="42.752573" lon="0.140150">
        <ele>2549.0</ele>
        <time>2013-10-13T12:41:54Z</time>
      </trkpt>
      <trkpt lat="42.752651" lon="0.140122">
        <ele>2545.8</ele>
        <time>2013-10-13T12:42:06Z</time>
      </trkpt>
      <trkpt lat="42.752727" lon="0.140154">
        <ele>2541.4</ele>
        <time>2013-10-13T12:42:21Z</time>
      </trkpt>
      <trkpt lat="42.752795" lon="0.140128">
        <ele>2536.5</ele>
        <time>2013-10-13T12:42:41Z</time>
      </trkpt>
      <trkpt lat="42.752886" lon="0.140122">
        <ele>2532.8</ele>
        <time>2013-10-13T12:42:58Z</time>
      </trkpt>
      <trkpt lat="42.752961" lon="0.140122">
        <ele>2529.2</ele>
        <time>2013-10-13T12:43:10Z</time>
      </trkpt>
      <trkpt lat="42.753032" lon="0.140044">
        <ele>2526.7</ele>
        <time>2013-10-13T12:43:22Z</time>
      </trkpt>
      <trkpt lat="42.753090" lon="0.139941">
        <ele>2525.1</ele>
        <time>2013-10-13T12:43:33Z</time>
      </trkpt>
      <trkpt lat="42.753161" lon="0.139862">
        <ele>2524.5</ele>
        <time>2013-10-13T12:43:48Z</time>
      </trkpt>
      <trkpt lat="42.753242" lon="0.139921">
        <ele>2524.8</ele>
        <time>2013-10-13T12:44:49Z</time>
      </trkpt>
      <trkpt lat="42.753290" lon="0.139998">
        <ele>2526.1</ele>
        <time>2013-10-13T12:47:03Z</time>
      </trkpt>
      <trkpt lat="42.753328" lon="0.140128">
        <ele>2526.1</ele>
        <time>2013-10-13T12:47:13Z</time>
      </trkpt>
      <trkpt lat="42.753383" lon="0.140220">
        <ele>2525.1</ele>
        <time>2013-10-13T12:47:25Z</time>
      </trkpt>
      <trkpt lat="42.753463" lon="0.140235">
        <ele>2522.6</ele>
        <time>2013-10-13T12:47:37Z</time>
      </trkpt>
      <trkpt lat="42.753530" lon="0.140310">
        <ele>2520.5</ele>
        <time>2013-10-13T12:47:47Z</time>
      </trkpt>
      <trkpt lat="42.753564" lon="0.140433">
        <ele>2518.7</ele>
        <time>2013-10-13T12:47:57Z</time>
      </trkpt>
      <trkpt lat="42.753591" lon="0.140554">
        <ele>2516.9</ele>
        <time>2013-10-13T12:48:08Z</time>
      </trkpt>
      <trkpt lat="42.753640" lon="0.140573">
        <ele>2514.7</ele>
        <time>2013-10-13T12:48:19Z</time>
      </trkpt>
      <trkpt lat="42.753707" lon="0.140571">
        <ele>2512.1</ele>
        <time>2013-10-13T12:48:32Z</time>
      </trkpt>
      <trkpt lat="42.753777" lon="0.140556">
        <ele>2509.8</ele>
        <time>2013-10-13T12:48:42Z</time>
      </trkpt>
      <trkpt lat="42.753842" lon="0.140537">
        <ele>2506.3</ele>
        <time>2013-10-13T12:49:00Z</time>
      </trkpt>
      <trkpt lat="42.753823" lon="0.140661">
        <ele>2505.5</ele>
        <time>2013-10-13T12:49:13Z</time>
      </trkpt>
      <trkpt lat="42.753782" lon="0.140735">
        <ele>2499.9</ele>
        <time>2013-10-13T12:50:01Z</time>
      </trkpt>
      <trkpt lat="42.753816" lon="0.140754">
        <ele>2498.5</ele>
        <time>2013-10-13T12:50:39Z</time>
      </trkpt>
      <trkpt lat="42.753883" lon="0.140740">
        <ele>2496.1</ele>
        <time>2013-10-13T12:51:33Z</time>
      </trkpt>
      <trkpt lat="42.753937" lon="0.140786">
        <ele>2495.2</ele>
        <time>2013-10-13T12:52:29Z</time>
      </trkpt>
      <trkpt lat="42.754000" lon="0.140881">
        <ele>2491.8</ele>
        <time>2013-10-13T12:52:42Z</time>
      </trkpt>
      <trkpt lat="42.754050" lon="0.140885">
        <ele>2488.9</ele>
        <time>2013-10-13T12:52:56Z</time>
      </trkpt>
      <trkpt lat="42.754102" lon="0.140986">
        <ele>2485.3</ele>
        <time>2013-10-13T12:53:11Z</time>
      </trkpt>
      <trkpt lat="42.754104" lon="0.141029">
        <ele>2479.9</ele>
        <time>2013-10-13T12:53:34Z</time>
      </trkpt>
      <trkpt lat="42.754154" lon="0.141024">
        <ele>2478.7</ele>
        <time>2013-10-13T12:53:51Z</time>
      </trkpt>
      <trkpt lat="42.754203" lon="0.141125">
        <ele>2474.8</ele>
        <time>2013-10-13T12:54:07Z</time>
      </trkpt>
      <trkpt lat="42.754235" lon="0.141169">
        <ele>2471.5</ele>
        <time>2013-10-13T12:54:23Z</time>
      </trkpt>
      <trkpt lat="42.754247" lon="0.141284">
        <ele>2469.0</ele>
        <time>2013-10-13T12:54:32Z</time>
      </trkpt>
      <trkpt lat="42.754241" lon="0.141372">
        <ele>2464.8</ele>
        <time>2013-10-13T12:54:58Z</time>
      </trkpt>
      <trkpt lat="42.754278" lon="0.141499">
        <ele>2464.0</ele>
        <time>2013-10-13T12:55:09Z</time>
      </trkpt>
      <trkpt lat="42.754335" lon="0.141591">
        <ele>2461.4</ele>
        <time>2013-10-13T12:55:25Z</time>
      </trkpt>
      <trkpt lat="42.754401" lon="0.141672">
        <ele>2458.9</ele>
        <time>2013-10-13T12:55:35Z</time>
      </trkpt>
      <trkpt lat="42.754457" lon="0.141779">
        <ele>2456.2</ele>
        <time>2013-10-13T12:55:42Z</time>
      </trkpt>
      <trkpt lat="42.754551" lon="0.141855">
        <ele>2453.9</ele>
        <time>2013-10-13T12:55:49Z</time>
      </trkpt>
      <trkpt lat="42.754648" lon="0.141841">
        <ele>2451.0</ele>
        <time>2013-10-13T12:55:55Z</time>
      </trkpt>
      <trkpt lat="42.754771" lon="0.141863">
        <ele>2449.2</ele>
        <time>2013-10-13T12:55:59Z</time>
      </trkpt>
      <trkpt lat="42.754852" lon="0.141913">
        <ele>2447.5</ele>
        <time>2013-10-13T12:56:03Z</time>
      </trkpt>
      <trkpt lat="42.754972" lon="0.141923">
        <ele>2447.7</ele>
        <time>2013-10-13T12:56:11Z</time>
      </trkpt>
      <trkpt lat="42.755066" lon="0.141931">
        <ele>2446.6</ele>
        <time>2013-10-13T12:56:16Z</time>
      </trkpt>
      <trkpt lat="42.755169" lon="0.141932">
        <ele>2443.5</ele>
        <time>2013-10-13T12:56:26Z</time>
      </trkpt>
      <trkpt lat="42.755273" lon="0.141926">
        <ele>2440.8</ele>
        <time>2013-10-13T12:56:35Z</time>
      </trkpt>
      <trkpt lat="42.755345" lon="0.141912">
        <ele>2437.9</ele>
        <time>2013-10-13T12:56:43Z</time>
      </trkpt>
      <trkpt lat="42.755368" lon="0.141964">
        <ele>2437.7</ele>
        <time>2013-10-13T12:57:55Z</time>
        <cmt>Hourquette de Chermentas</cmt>
      </trkpt>
      <trkpt lat="42.755350" lon="0.141937">
        <ele>2437.6</ele>
        <time>2013-10-13T13:02:19Z</time>
      </trkpt>
      <trkpt lat="42.755377" lon="0.141865">
        <ele>2437.0</ele>
        <time>2013-10-13T13:02:59Z</time>
      </trkpt>
      <trkpt lat="42.755398" lon="0.141720">
        <ele>2434.9</ele>
        <time>2013-10-13T13:03:11Z</time>
      </trkpt>
      <trkpt lat="42.755459" lon="0.141612">
        <ele>2433.0</ele>
        <time>2013-10-13T13:03:21Z</time>
      </trkpt>
      <trkpt lat="42.755545" lon="0.141529">
        <ele>2431.2</ele>
        <time>2013-10-13T13:03:31Z</time>
      </trkpt>
      <trkpt lat="42.755628" lon="0.141452">
        <ele>2430.1</ele>
        <time>2013-10-13T13:03:42Z</time>
      </trkpt>
      <trkpt lat="42.755681" lon="0.141363">
        <ele>2429.5</ele>
        <time>2013-10-13T13:03:54Z</time>
      </trkpt>
      <trkpt lat="42.755731" lon="0.141252">
        <ele>2428.3</ele>
        <time>2013-10-13T13:04:04Z</time>
      </trkpt>
      <trkpt lat="42.755783" lon="0.141135">
        <ele>2426.4</ele>
        <time>2013-10-13T13:04:14Z</time>
      </trkpt>
      <trkpt lat="42.755834" lon="0.141027">
        <ele>2424.8</ele>
        <time>2013-10-13T13:04:24Z</time>
      </trkpt>
      <trkpt lat="42.755892" lon="0.140957">
        <ele>2422.2</ele>
        <time>2013-10-13T13:04:45Z</time>
      </trkpt>
      <trkpt lat="42.755909" lon="0.140920">
        <ele>2422.3</ele>
        <time>2013-10-13T13:08:43Z</time>
      </trkpt>
      <trkpt lat="42.755954" lon="0.140838">
        <ele>2420.9</ele>
        <time>2013-10-13T13:08:52Z</time>
      </trkpt>
      <trkpt lat="42.755996" lon="0.140716">
        <ele>2419.3</ele>
        <time>2013-10-13T13:09:00Z</time>
      </trkpt>
      <trkpt lat="42.756061" lon="0.140660">
        <ele>2417.4</ele>
        <time>2013-10-13T13:09:09Z</time>
      </trkpt>
      <trkpt lat="42.756150" lon="0.140669">
        <ele>2415.4</ele>
        <time>2013-10-13T13:09:18Z</time>
      </trkpt>
      <trkpt lat="42.756242" lon="0.140591">
        <ele>2413.0</ele>
        <time>2013-10-13T13:09:28Z</time>
      </trkpt>
      <trkpt lat="42.756317" lon="0.140478">
        <ele>2410.7</ele>
        <time>2013-10-13T13:09:37Z</time>
      </trkpt>
      <trkpt lat="42.756386" lon="0.140380">
        <ele>2407.9</ele>
        <time>2013-10-13T13:09:47Z</time>
      </trkpt>
      <trkpt lat="42.756462" lon="0.140282">
        <ele>2405.7</ele>
        <time>2013-10-13T13:09:55Z</time>
      </trkpt>
      <trkpt lat="42.756519" lon="0.140187">
        <ele>2403.5</ele>
        <time>2013-10-13T13:10:02Z</time>
      </trkpt>
      <trkpt lat="42.756592" lon="0.140103">
        <ele>2401.9</ele>
        <time>2013-10-13T13:10:10Z</time>
      </trkpt>
      <trkpt lat="42.756668" lon="0.140020">
        <ele>2401.0</ele>
        <time>2013-10-13T13:10:18Z</time>
      </trkpt>
      <trkpt lat="42.756744" lon="0.139930">
        <ele>2400.4</ele>
        <time>2013-10-13T13:10:26Z</time>
      </trkpt>
      <trkpt lat="42.756793" lon="0.139812">
        <ele>2399.0</ele>
        <time>2013-10-13T13:10:34Z</time>
      </trkpt>
      <trkpt lat="42.756843" lon="0.139696">
        <ele>2398.1</ele>
        <time>2013-10-13T13:10:42Z</time>
      </trkpt>
      <trkpt lat="42.756935" lon="0.139625">
        <ele>2396.5</ele>
        <time>2013-10-13T13:10:51Z</time>
      </trkpt>
      <trkpt lat="42.756998" lon="0.139519">
        <ele>2395.0</ele>
        <time>2013-10-13T13:10:59Z</time>
      </trkpt>
      <trkpt lat="42.757074" lon="0.139431">
        <ele>2394.1</ele>
        <time>2013-10-13T13:11:07Z</time>
      </trkpt>
      <trkpt lat="42.757144" lon="0.139344">
        <ele>2393.4</ele>
        <time>2013-10-13T13:11:16Z</time>
      </trkpt>
      <trkpt lat="42.757234" lon="0.139315">
        <ele>2390.9</ele>
        <time>2013-10-13T13:11:24Z</time>
      </trkpt>
      <trkpt lat="42.757332" lon="0.139297">
        <ele>2387.5</ele>
        <time>2013-10-13T13:11:33Z</time>
      </trkpt>
      <trkpt lat="42.757431" lon="0.139293">
        <ele>2383.8</ele>
        <time>2013-10-13T13:11:43Z</time>
      </trkpt>
      <trkpt lat="42.757530" lon="0.139294">
        <ele>2379.5</ele>
        <time>2013-10-13T13:11:52Z</time>
      </trkpt>
      <trkpt lat="42.757616" lon="0.139306">
        <ele>2376.2</ele>
        <time>2013-10-13T13:12:00Z</time>
      </trkpt>
      <trkpt lat="42.757721" lon="0.139368">
        <ele>2374.4</ele>
        <time>2013-10-13T13:12:09Z</time>
      </trkpt>
      <trkpt lat="42.757803" lon="0.139367">
        <ele>2373.6</ele>
        <time>2013-10-13T13:12:17Z</time>
      </trkpt>
      <trkpt lat="42.757885" lon="0.139393">
        <ele>2371.8</ele>
        <time>2013-10-13T13:12:26Z</time>
      </trkpt>
      <trkpt lat="42.757984" lon="0.139385">
        <ele>2370.4</ele>
        <time>2013-10-13T13:12:35Z</time>
      </trkpt>
      <trkpt lat="42.758060" lon="0.139470">
        <ele>2368.9</ele>
        <time>2013-10-13T13:12:43Z</time>
      </trkpt>
      <trkpt lat="42.758132" lon="0.139565">
        <ele>2367.5</ele>
        <time>2013-10-13T13:12:53Z</time>
      </trkpt>
      <trkpt lat="42.758169" lon="0.139501">
        <ele>2365.2</ele>
        <time>2013-10-13T13:13:05Z</time>
      </trkpt>
      <trkpt lat="42.758182" lon="0.139369">
        <ele>2363.6</ele>
        <time>2013-10-13T13:13:15Z</time>
      </trkpt>
      <trkpt lat="42.758221" lon="0.139259">
        <ele>2361.0</ele>
        <time>2013-10-13T13:13:25Z</time>
      </trkpt>
      <trkpt lat="42.758273" lon="0.139150">
        <ele>2357.3</ele>
        <time>2013-10-13T13:13:36Z</time>
      </trkpt>
      <trkpt lat="42.758346" lon="0.139079">
        <ele>2353.1</ele>
        <time>2013-10-13T13:13:46Z</time>
      </trkpt>
      <trkpt lat="42.758426" lon="0.139046">
        <ele>2347.9</ele>
        <time>2013-10-13T13:13:57Z</time>
      </trkpt>
      <trkpt lat="42.758513" lon="0.139009">
        <ele>2343.7</ele>
        <time>2013-10-13T13:14:08Z</time>
      </trkpt>
      <trkpt lat="42.758617" lon="0.139022">
        <ele>2340.3</ele>
        <time>2013-10-13T13:14:18Z</time>
      </trkpt>
      <trkpt lat="42.758709" lon="0.139035">
        <ele>2337.8</ele>
        <time>2013-10-13T13:14:28Z</time>
      </trkpt>
      <trkpt lat="42.758794" lon="0.138967">
        <ele>2335.7</ele>
        <time>2013-10-13T13:14:56Z</time>
      </trkpt>
      <trkpt lat="42.758894" lon="0.138963">
        <ele>2333.7</ele>
        <time>2013-10-13T13:15:07Z</time>
      </trkpt>
      <trkpt lat="42.758997" lon="0.138998">
        <ele>2331.3</ele>
        <time>2013-10-13T13:15:17Z</time>
      </trkpt>
      <trkpt lat="42.759095" lon="0.138993">
        <ele>2329.3</ele>
        <time>2013-10-13T13:15:27Z</time>
      </trkpt>
      <trkpt lat="42.759197" lon="0.139032">
        <ele>2325.9</ele>
        <time>2013-10-13T13:15:39Z</time>
      </trkpt>
      <trkpt lat="42.759275" lon="0.139055">
        <ele>2322.6</ele>
        <time>2013-10-13T13:15:49Z</time>
      </trkpt>
      <trkpt lat="42.759363" lon="0.139112">
        <ele>2318.7</ele>
        <time>2013-10-13T13:16:01Z</time>
      </trkpt>
      <trkpt lat="42.759455" lon="0.139127">
        <ele>2316.4</ele>
        <time>2013-10-13T13:16:11Z</time>
      </trkpt>
      <trkpt lat="42.759548" lon="0.139145">
        <ele>2314.6</ele>
        <time>2013-10-13T13:16:21Z</time>
      </trkpt>
      <trkpt lat="42.759638" lon="0.139150">
        <ele>2312.4</ele>
        <time>2013-10-13T13:16:31Z</time>
      </trkpt>
      <trkpt lat="42.759720" lon="0.139106">
        <ele>2309.3</ele>
        <time>2013-10-13T13:16:43Z</time>
      </trkpt>
      <trkpt lat="42.759747" lon="0.138977">
        <ele>2304.9</ele>
        <time>2013-10-13T13:16:56Z</time>
      </trkpt>
      <trkpt lat="42.759807" lon="0.138891">
        <ele>2301.6</ele>
        <time>2013-10-13T13:17:07Z</time>
      </trkpt>
      <trkpt lat="42.759815" lon="0.138760">
        <ele>2298.8</ele>
        <time>2013-10-13T13:17:17Z</time>
      </trkpt>
      <trkpt lat="42.759857" lon="0.138635">
        <ele>2294.9</ele>
        <time>2013-10-13T13:17:28Z</time>
      </trkpt>
      <trkpt lat="42.759914" lon="0.138515">
        <ele>2292.1</ele>
        <time>2013-10-13T13:17:38Z</time>
      </trkpt>
      <trkpt lat="42.759977" lon="0.138434">
        <ele>2289.2</ele>
        <time>2013-10-13T13:17:47Z</time>
      </trkpt>
      <trkpt lat="42.760064" lon="0.138368">
        <ele>2285.1</ele>
        <time>2013-10-13T13:18:01Z</time>
      </trkpt>
      <trkpt lat="42.760157" lon="0.138308">
        <ele>2281.1</ele>
        <time>2013-10-13T13:18:14Z</time>
      </trkpt>
      <trkpt lat="42.760230" lon="0.138204">
        <ele>2278.1</ele>
        <time>2013-10-13T13:18:24Z</time>
      </trkpt>
      <trkpt lat="42.760313" lon="0.138131">
        <ele>2273.7</ele>
        <time>2013-10-13T13:18:36Z</time>
      </trkpt>
      <trkpt lat="42.760392" lon="0.138028">
        <ele>2269.7</ele>
        <time>2013-10-13T13:18:47Z</time>
      </trkpt>
      <trkpt lat="42.760459" lon="0.137923">
        <ele>2266.7</ele>
        <time>2013-10-13T13:18:56Z</time>
      </trkpt>
      <trkpt lat="42.760504" lon="0.137814">
        <ele>2263.0</ele>
        <time>2013-10-13T13:19:06Z</time>
      </trkpt>
      <trkpt lat="42.760518" lon="0.137691">
        <ele>2259.9</ele>
        <time>2013-10-13T13:19:16Z</time>
      </trkpt>
      <trkpt lat="42.760553" lon="0.137569">
        <ele>2256.3</ele>
        <time>2013-10-13T13:19:26Z</time>
      </trkpt>
      <trkpt lat="42.760574" lon="0.137443">
        <ele>2253.6</ele>
        <time>2013-10-13T13:19:36Z</time>
      </trkpt>
      <trkpt lat="42.760658" lon="0.137383">
        <ele>2250.0</ele>
        <time>2013-10-13T13:19:48Z</time>
      </trkpt>
      <trkpt lat="42.760751" lon="0.137367">
        <ele>2247.4</ele>
        <time>2013-10-13T13:19:56Z</time>
      </trkpt>
      <trkpt lat="42.760835" lon="0.137344">
        <ele>2244.0</ele>
        <time>2013-10-13T13:20:06Z</time>
      </trkpt>
      <trkpt lat="42.760845" lon="0.137229">
        <ele>2241.1</ele>
        <time>2013-10-13T13:20:17Z</time>
      </trkpt>
      <trkpt lat="42.760895" lon="0.137174">
        <ele>2235.8</ele>
        <time>2013-10-13T13:20:32Z</time>
      </trkpt>
      <trkpt lat="42.760966" lon="0.137230">
        <ele>2231.9</ele>
        <time>2013-10-13T13:20:45Z</time>
      </trkpt>
      <trkpt lat="42.761050" lon="0.137298">
        <ele>2226.9</ele>
        <time>2013-10-13T13:21:01Z</time>
      </trkpt>
      <trkpt lat="42.761140" lon="0.137343">
        <ele>2223.2</ele>
        <time>2013-10-13T13:21:12Z</time>
      </trkpt>
      <trkpt lat="42.761252" lon="0.137340">
        <ele>2219.0</ele>
        <time>2013-10-13T13:21:25Z</time>
      </trkpt>
      <trkpt lat="42.761351" lon="0.137321">
        <ele>2214.7</ele>
        <time>2013-10-13T13:21:38Z</time>
      </trkpt>
      <trkpt lat="42.761439" lon="0.137278">
        <ele>2211.1</ele>
        <time>2013-10-13T13:21:50Z</time>
      </trkpt>
      <trkpt lat="42.761511" lon="0.137230">
        <ele>2206.7</ele>
        <time>2013-10-13T13:22:02Z</time>
      </trkpt>
      <trkpt lat="42.761592" lon="0.137177">
        <ele>2202.7</ele>
        <time>2013-10-13T13:22:17Z</time>
      </trkpt>
      <trkpt lat="42.761620" lon="0.137222">
        <ele>2200.8</ele>
        <time>2013-10-13T13:23:09Z</time>
      </trkpt>
      <trkpt lat="42.761667" lon="0.137200">
        <ele>2199.4</ele>
        <time>2013-10-13T13:23:52Z</time>
      </trkpt>
      <trkpt lat="42.761675" lon="0.137034">
        <ele>2196.6</ele>
        <time>2013-10-13T13:24:05Z</time>
      </trkpt>
      <trkpt lat="42.761641" lon="0.136885">
        <ele>2193.4</ele>
        <time>2013-10-13T13:24:16Z</time>
      </trkpt>
      <trkpt lat="42.761705" lon="0.136804">
        <ele>2190.5</ele>
        <time>2013-10-13T13:24:25Z</time>
      </trkpt>
      <trkpt lat="42.761801" lon="0.136825">
        <ele>2186.5</ele>
        <time>2013-10-13T13:24:35Z</time>
      </trkpt>
      <trkpt lat="42.761907" lon="0.136848">
        <ele>2183.5</ele>
        <time>2013-10-13T13:24:45Z</time>
      </trkpt>
      <trkpt lat="42.761997" lon="0.136859">
        <ele>2181.5</ele>
        <time>2013-10-13T13:24:54Z</time>
      </trkpt>
      <trkpt lat="42.762097" lon="0.136844">
        <ele>2180.1</ele>
        <time>2013-10-13T13:25:03Z</time>
      </trkpt>
      <trkpt lat="42.762196" lon="0.136817">
        <ele>2179.2</ele>
        <time>2013-10-13T13:25:14Z</time>
      </trkpt>
      <trkpt lat="42.762286" lon="0.136745">
        <ele>2177.4</ele>
        <time>2013-10-13T13:25:23Z</time>
      </trkpt>
      <trkpt lat="42.762371" lon="0.136668">
        <ele>2175.9</ele>
        <time>2013-10-13T13:25:33Z</time>
      </trkpt>
      <trkpt lat="42.762466" lon="0.136595">
        <ele>2174.0</ele>
        <time>2013-10-13T13:25:42Z</time>
      </trkpt>
      <trkpt lat="42.762534" lon="0.136552">
        <ele>2172.0</ele>
        <time>2013-10-13T13:25:56Z</time>
      </trkpt>
      <trkpt lat="42.762486" lon="0.136504">
        <ele>2171.5</ele>
        <time>2013-10-13T13:26:29Z</time>
      </trkpt>
      <trkpt lat="42.762401" lon="0.136470">
        <ele>2170.1</ele>
        <time>2013-10-13T13:26:38Z</time>
      </trkpt>
      <trkpt lat="42.762324" lon="0.136392">
        <ele>2167.4</ele>
        <time>2013-10-13T13:26:46Z</time>
      </trkpt>
      <trkpt lat="42.762263" lon="0.136287">
        <ele>2164.8</ele>
        <time>2013-10-13T13:26:55Z</time>
      </trkpt>
      <trkpt lat="42.762258" lon="0.136159">
        <ele>2162.9</ele>
        <time>2013-10-13T13:27:04Z</time>
      </trkpt>
      <trkpt lat="42.762278" lon="0.136046">
        <ele>2161.8</ele>
        <time>2013-10-13T13:27:12Z</time>
      </trkpt>
      <trkpt lat="42.762302" lon="0.135911">
        <ele>2160.2</ele>
        <time>2013-10-13T13:27:21Z</time>
      </trkpt>
      <trkpt lat="42.762323" lon="0.135800">
        <ele>2158.0</ele>
        <time>2013-10-13T13:27:29Z</time>
      </trkpt>
      <trkpt lat="42.762389" lon="0.135717">
        <ele>2155.4</ele>
        <time>2013-10-13T13:27:39Z</time>
      </trkpt>
      <trkpt lat="42.762502" lon="0.135692">
        <ele>2153.4</ele>
        <time>2013-10-13T13:28:04Z</time>
      </trkpt>
      <trkpt lat="42.762593" lon="0.135619">
        <ele>2152.4</ele>
        <time>2013-10-13T13:28:16Z</time>
      </trkpt>
      <trkpt lat="42.762678" lon="0.135628">
        <ele>2148.3</ele>
        <time>2013-10-13T13:28:27Z</time>
      </trkpt>
      <trkpt lat="42.762678" lon="0.135713">
        <ele>2147.2</ele>
        <time>2013-10-13T13:29:24Z</time>
      </trkpt>
      <trkpt lat="42.762725" lon="0.135806">
        <ele>2143.2</ele>
        <time>2013-10-13T13:29:42Z</time>
      </trkpt>
      <trkpt lat="42.762800" lon="0.135864">
        <ele>2139.5</ele>
        <time>2013-10-13T13:29:53Z</time>
      </trkpt>
      <trkpt lat="42.762882" lon="0.135903">
        <ele>2136.4</ele>
        <time>2013-10-13T13:30:09Z</time>
      </trkpt>
      <trkpt lat="42.762970" lon="0.135908">
        <ele>2133.9</ele>
        <time>2013-10-13T13:30:22Z</time>
      </trkpt>
      <trkpt lat="42.763050" lon="0.135932">
        <ele>2131.3</ele>
        <time>2013-10-13T13:30:32Z</time>
      </trkpt>
      <trkpt lat="42.763115" lon="0.135923">
        <ele>2128.2</ele>
        <time>2013-10-13T13:30:43Z</time>
      </trkpt>
      <trkpt lat="42.763195" lon="0.135882">
        <ele>2125.9</ele>
        <time>2013-10-13T13:30:55Z</time>
      </trkpt>
      <trkpt lat="42.763284" lon="0.135839">
        <ele>2123.0</ele>
        <time>2013-10-13T13:31:10Z</time>
      </trkpt>
      <trkpt lat="42.763400" lon="0.135845">
        <ele>2120.5</ele>
        <time>2013-10-13T13:31:19Z</time>
      </trkpt>
      <trkpt lat="42.763504" lon="0.135837">
        <ele>2119.3</ele>
        <time>2013-10-13T13:31:29Z</time>
      </trkpt>
      <trkpt lat="42.763600" lon="0.135874">
        <ele>2118.8</ele>
        <time>2013-10-13T13:31:38Z</time>
      </trkpt>
      <trkpt lat="42.763689" lon="0.135948">
        <ele>2117.3</ele>
        <time>2013-10-13T13:31:47Z</time>
      </trkpt>
      <trkpt lat="42.763791" lon="0.135991">
        <ele>2117.1</ele>
        <time>2013-10-13T13:31:58Z</time>
      </trkpt>
      <trkpt lat="42.763885" lon="0.135980">
        <ele>2116.6</ele>
        <time>2013-10-13T13:32:07Z</time>
      </trkpt>
      <trkpt lat="42.763971" lon="0.135932">
        <ele>2114.4</ele>
        <time>2013-10-13T13:32:16Z</time>
      </trkpt>
      <trkpt lat="42.764068" lon="0.135908">
        <ele>2111.7</ele>
        <time>2013-10-13T13:32:25Z</time>
      </trkpt>
      <trkpt lat="42.764168" lon="0.135882">
        <ele>2108.7</ele>
        <time>2013-10-13T13:32:34Z</time>
      </trkpt>
      <trkpt lat="42.764261" lon="0.135851">
        <ele>2106.8</ele>
        <time>2013-10-13T13:32:44Z</time>
      </trkpt>
      <trkpt lat="42.764348" lon="0.135807">
        <ele>2104.5</ele>
        <time>2013-10-13T13:32:53Z</time>
      </trkpt>
      <trkpt lat="42.764461" lon="0.135800">
        <ele>2102.6</ele>
        <time>2013-10-13T13:33:02Z</time>
      </trkpt>
      <trkpt lat="42.764554" lon="0.135847">
        <ele>2100.4</ele>
        <time>2013-10-13T13:33:10Z</time>
      </trkpt>
      <trkpt lat="42.764625" lon="0.135917">
        <ele>2097.0</ele>
        <time>2013-10-13T13:33:19Z</time>
      </trkpt>
      <trkpt lat="42.764713" lon="0.135917">
        <ele>2095.5</ele>
        <time>2013-10-13T13:33:34Z</time>
      </trkpt>
      <trkpt lat="42.764777" lon="0.135995">
        <ele>2094.1</ele>
        <time>2013-10-13T13:33:43Z</time>
      </trkpt>
      <trkpt lat="42.764849" lon="0.136057">
        <ele>2093.5</ele>
        <time>2013-10-13T13:33:55Z</time>
      </trkpt>
      <trkpt lat="42.764936" lon="0.136090">
        <ele>2092.1</ele>
        <time>2013-10-13T13:34:03Z</time>
      </trkpt>
      <trkpt lat="42.765004" lon="0.136183">
        <ele>2090.6</ele>
        <time>2013-10-13T13:34:11Z</time>
      </trkpt>
      <trkpt lat="42.765053" lon="0.136268">
        <ele>2090.5</ele>
        <time>2013-10-13T13:34:24Z</time>
      </trkpt>
      <trkpt lat="42.765062" lon="0.136263">
        <ele>2090.7</ele>
        <time>2013-10-13T13:35:06Z</time>
      </trkpt>
      <trkpt lat="42.765130" lon="0.136254">
        <ele>2091.4</ele>
        <time>2013-10-13T13:35:31Z</time>
      </trkpt>
      <trkpt lat="42.765186" lon="0.136312">
        <ele>2089.3</ele>
        <time>2013-10-13T13:35:49Z</time>
      </trkpt>
      <trkpt lat="42.765286" lon="0.136316">
        <ele>2089.0</ele>
        <time>2013-10-13T13:36:00Z</time>
        <cmt>Lac Badet</cmt>
      </trkpt>
      <trkpt lat="42.765306" lon="0.136318">
        <ele>2088.6</ele>
        <time>2013-10-13T13:51:53Z</time>
      </trkpt>
      <trkpt lat="42.765309" lon="0.136307">
        <ele>2089.4</ele>
        <time>2013-10-13T13:53:18Z</time>
      </trkpt>
      <trkpt lat="42.765407" lon="0.136268">
        <ele>2089.6</ele>
        <time>2013-10-13T13:53:43Z</time>
      </trkpt>
      <trkpt lat="42.765508" lon="0.136244">
        <ele>2088.1</ele>
        <time>2013-10-13T13:54:02Z</time>
      </trkpt>
      <trkpt lat="42.765595" lon="0.136300">
        <ele>2087.3</ele>
        <time>2013-10-13T13:54:15Z</time>
      </trkpt>
      <trkpt lat="42.765696" lon="0.136376">
        <ele>2086.7</ele>
        <time>2013-10-13T13:54:27Z</time>
      </trkpt>
      <trkpt lat="42.765796" lon="0.136465">
        <ele>2087.4</ele>
        <time>2013-10-13T13:54:40Z</time>
      </trkpt>
      <trkpt lat="42.765906" lon="0.136530">
        <ele>2088.1</ele>
        <time>2013-10-13T13:54:52Z</time>
      </trkpt>
      <trkpt lat="42.766000" lon="0.136596">
        <ele>2089.9</ele>
        <time>2013-10-13T13:55:04Z</time>
      </trkpt>
      <trkpt lat="42.766104" lon="0.136639">
        <ele>2091.3</ele>
        <time>2013-10-13T13:55:17Z</time>
      </trkpt>
      <trkpt lat="42.766205" lon="0.136671">
        <ele>2092.7</ele>
        <time>2013-10-13T13:55:30Z</time>
      </trkpt>
      <trkpt lat="42.766294" lon="0.136649">
        <ele>2093.9</ele>
        <time>2013-10-13T13:55:41Z</time>
      </trkpt>
      <trkpt lat="42.766386" lon="0.136628">
        <ele>2094.2</ele>
        <time>2013-10-13T13:55:50Z</time>
      </trkpt>
      <trkpt lat="42.766484" lon="0.136612">
        <ele>2094.0</ele>
        <time>2013-10-13T13:55:59Z</time>
      </trkpt>
      <trkpt lat="42.766590" lon="0.136633">
        <ele>2093.6</ele>
        <time>2013-10-13T13:56:08Z</time>
      </trkpt>
      <trkpt lat="42.766683" lon="0.136646">
        <ele>2092.6</ele>
        <time>2013-10-13T13:56:17Z</time>
      </trkpt>
      <trkpt lat="42.766764" lon="0.136626">
        <ele>2092.1</ele>
        <time>2013-10-13T13:56:27Z</time>
      </trkpt>
      <trkpt lat="42.766865" lon="0.136615">
        <ele>2091.7</ele>
        <time>2013-10-13T13:56:37Z</time>
      </trkpt>
      <trkpt lat="42.766972" lon="0.136619">
        <ele>2091.6</ele>
        <time>2013-10-13T13:56:46Z</time>
      </trkpt>
      <trkpt lat="42.767074" lon="0.136619">
        <ele>2091.3</ele>
        <time>2013-10-13T13:56:57Z</time>
      </trkpt>
      <trkpt lat="42.767166" lon="0.136576">
        <ele>2091.3</ele>
        <time>2013-10-13T13:57:07Z</time>
      </trkpt>
      <trkpt lat="42.767270" lon="0.136537">
        <ele>2091.9</ele>
        <time>2013-10-13T13:57:17Z</time>
      </trkpt>
      <trkpt lat="42.767377" lon="0.136489">
        <ele>2092.3</ele>
        <time>2013-10-13T13:57:26Z</time>
      </trkpt>
      <trkpt lat="42.767456" lon="0.136421">
        <ele>2092.2</ele>
        <time>2013-10-13T13:57:35Z</time>
      </trkpt>
      <trkpt lat="42.767548" lon="0.136373">
        <ele>2091.8</ele>
        <time>2013-10-13T13:57:44Z</time>
      </trkpt>
      <trkpt lat="42.767639" lon="0.136327">
        <ele>2091.5</ele>
        <time>2013-10-13T13:57:53Z</time>
      </trkpt>
      <trkpt lat="42.767738" lon="0.136296">
        <ele>2090.5</ele>
        <time>2013-10-13T13:58:02Z</time>
      </trkpt>
      <trkpt lat="42.767836" lon="0.136288">
        <ele>2089.3</ele>
        <time>2013-10-13T13:58:10Z</time>
      </trkpt>
      <trkpt lat="42.767931" lon="0.136288">
        <ele>2088.7</ele>
        <time>2013-10-13T13:58:18Z</time>
      </trkpt>
      <trkpt lat="42.768036" lon="0.136274">
        <ele>2088.2</ele>
        <time>2013-10-13T13:58:27Z</time>
      </trkpt>
      <trkpt lat="42.768125" lon="0.136241">
        <ele>2087.2</ele>
        <time>2013-10-13T13:58:36Z</time>
      </trkpt>
      <trkpt lat="42.768229" lon="0.136226">
        <ele>2086.1</ele>
        <time>2013-10-13T13:58:45Z</time>
      </trkpt>
      <trkpt lat="42.768324" lon="0.136235">
        <ele>2085.0</ele>
        <time>2013-10-13T13:58:53Z</time>
      </trkpt>
      <trkpt lat="42.768420" lon="0.136231">
        <ele>2084.1</ele>
        <time>2013-10-13T13:59:01Z</time>
      </trkpt>
      <trkpt lat="42.768516" lon="0.136237">
        <ele>2082.8</ele>
        <time>2013-10-13T13:59:10Z</time>
      </trkpt>
      <trkpt lat="42.768598" lon="0.136277">
        <ele>2081.2</ele>
        <time>2013-10-13T13:59:18Z</time>
      </trkpt>
      <trkpt lat="42.768691" lon="0.136297">
        <ele>2079.8</ele>
        <time>2013-10-13T13:59:26Z</time>
      </trkpt>
      <trkpt lat="42.768776" lon="0.136320">
        <ele>2078.1</ele>
        <time>2013-10-13T13:59:34Z</time>
      </trkpt>
      <trkpt lat="42.768869" lon="0.136356">
        <ele>2075.1</ele>
        <time>2013-10-13T13:59:44Z</time>
      </trkpt>
      <trkpt lat="42.768969" lon="0.136391">
        <ele>2074.2</ele>
        <time>2013-10-13T13:59:53Z</time>
      </trkpt>
      <trkpt lat="42.769063" lon="0.136425">
        <ele>2074.1</ele>
        <time>2013-10-13T14:00:02Z</time>
      </trkpt>
      <trkpt lat="42.769163" lon="0.136462">
        <ele>2073.6</ele>
        <time>2013-10-13T14:00:11Z</time>
      </trkpt>
      <trkpt lat="42.769260" lon="0.136500">
        <ele>2073.7</ele>
        <time>2013-10-13T14:00:21Z</time>
      </trkpt>
      <trkpt lat="42.769346" lon="0.136553">
        <ele>2073.7</ele>
        <time>2013-10-13T14:00:29Z</time>
      </trkpt>
      <trkpt lat="42.769415" lon="0.136643">
        <ele>2072.9</ele>
        <time>2013-10-13T14:00:39Z</time>
      </trkpt>
      <trkpt lat="42.769504" lon="0.136652">
        <ele>2071.7</ele>
        <time>2013-10-13T14:00:48Z</time>
      </trkpt>
      <trkpt lat="42.769591" lon="0.136671">
        <ele>2070.0</ele>
        <time>2013-10-13T14:00:58Z</time>
      </trkpt>
      <trkpt lat="42.769683" lon="0.136654">
        <ele>2067.4</ele>
        <time>2013-10-13T14:01:09Z</time>
      </trkpt>
      <trkpt lat="42.769782" lon="0.136623">
        <ele>2065.3</ele>
        <time>2013-10-13T14:01:20Z</time>
      </trkpt>
      <trkpt lat="42.769892" lon="0.136633">
        <ele>2063.1</ele>
        <time>2013-10-13T14:01:31Z</time>
      </trkpt>
      <trkpt lat="42.769986" lon="0.136604">
        <ele>2060.4</ele>
        <time>2013-10-13T14:01:42Z</time>
      </trkpt>
      <trkpt lat="42.770076" lon="0.136546">
        <ele>2057.5</ele>
        <time>2013-10-13T14:01:53Z</time>
      </trkpt>
      <trkpt lat="42.770176" lon="0.136501">
        <ele>2054.8</ele>
        <time>2013-10-13T14:02:04Z</time>
      </trkpt>
      <trkpt lat="42.770239" lon="0.136436">
        <ele>2051.1</ele>
        <time>2013-10-13T14:02:18Z</time>
      </trkpt>
      <trkpt lat="42.770297" lon="0.136319">
        <ele>2048.4</ele>
        <time>2013-10-13T14:02:30Z</time>
      </trkpt>
      <trkpt lat="42.770381" lon="0.136237">
        <ele>2045.6</ele>
        <time>2013-10-13T14:02:41Z</time>
      </trkpt>
      <trkpt lat="42.770463" lon="0.136150">
        <ele>2042.5</ele>
        <time>2013-10-13T14:02:52Z</time>
      </trkpt>
      <trkpt lat="42.770556" lon="0.136105">
        <ele>2039.8</ele>
        <time>2013-10-13T14:03:02Z</time>
      </trkpt>
      <trkpt lat="42.770647" lon="0.136071">
        <ele>2036.6</ele>
        <time>2013-10-13T14:03:13Z</time>
      </trkpt>
      <trkpt lat="42.770741" lon="0.136035">
        <ele>2033.8</ele>
        <time>2013-10-13T14:03:25Z</time>
      </trkpt>
      <trkpt lat="42.770847" lon="0.136011">
        <ele>2030.8</ele>
        <time>2013-10-13T14:03:37Z</time>
      </trkpt>
      <trkpt lat="42.770949" lon="0.136007">
        <ele>2028.2</ele>
        <time>2013-10-13T14:03:46Z</time>
      </trkpt>
      <trkpt lat="42.771063" lon="0.135988">
        <ele>2026.0</ele>
        <time>2013-10-13T14:03:57Z</time>
      </trkpt>
      <trkpt lat="42.771179" lon="0.135966">
        <ele>2023.9</ele>
        <time>2013-10-13T14:04:06Z</time>
      </trkpt>
      <trkpt lat="42.771280" lon="0.135985">
        <ele>2022.2</ele>
        <time>2013-10-13T14:04:15Z</time>
      </trkpt>
      <trkpt lat="42.771376" lon="0.135983">
        <ele>2019.6</ele>
        <time>2013-10-13T14:04:24Z</time>
      </trkpt>
      <trkpt lat="42.771459" lon="0.136023">
        <ele>2017.8</ele>
        <time>2013-10-13T14:04:35Z</time>
      </trkpt>
      <trkpt lat="42.771567" lon="0.136060">
        <ele>2015.1</ele>
        <time>2013-10-13T14:04:52Z</time>
      </trkpt>
      <trkpt lat="42.771669" lon="0.136090">
        <ele>2014.1</ele>
        <time>2013-10-13T14:05:02Z</time>
      </trkpt>
      <trkpt lat="42.771767" lon="0.136089">
        <ele>2011.8</ele>
        <time>2013-10-13T14:05:12Z</time>
      </trkpt>
      <trkpt lat="42.771874" lon="0.136137">
        <ele>2010.2</ele>
        <time>2013-10-13T14:05:21Z</time>
      </trkpt>
      <trkpt lat="42.771959" lon="0.136188">
        <ele>2008.5</ele>
        <time>2013-10-13T14:05:30Z</time>
      </trkpt>
      <trkpt lat="42.772056" lon="0.136230">
        <ele>2006.5</ele>
        <time>2013-10-13T14:05:40Z</time>
      </trkpt>
      <trkpt lat="42.772159" lon="0.136192">
        <ele>2003.8</ele>
        <time>2013-10-13T14:05:51Z</time>
      </trkpt>
      <trkpt lat="42.772252" lon="0.136191">
        <ele>2002.2</ele>
        <time>2013-10-13T14:06:03Z</time>
      </trkpt>
      <trkpt lat="42.772337" lon="0.136255">
        <ele>2000.0</ele>
        <time>2013-10-13T14:06:12Z</time>
      </trkpt>
      <trkpt lat="42.772437" lon="0.136238">
        <ele>1998.3</ele>
        <time>2013-10-13T14:06:20Z</time>
      </trkpt>
      <trkpt lat="42.772551" lon="0.136227">
        <ele>1998.3</ele>
        <time>2013-10-13T14:06:31Z</time>
      </trkpt>
      <trkpt lat="42.772641" lon="0.136286">
        <ele>1997.6</ele>
        <time>2013-10-13T14:06:42Z</time>
      </trkpt>
      <trkpt lat="42.772752" lon="0.136307">
        <ele>1996.5</ele>
        <time>2013-10-13T14:06:52Z</time>
      </trkpt>
      <trkpt lat="42.772864" lon="0.136323">
        <ele>1993.4</ele>
        <time>2013-10-13T14:07:03Z</time>
      </trkpt>
      <trkpt lat="42.772948" lon="0.136294">
        <ele>1990.4</ele>
        <time>2013-10-13T14:07:26Z</time>
      </trkpt>
      <trkpt lat="42.773050" lon="0.136274">
        <ele>1989.5</ele>
        <time>2013-10-13T14:07:35Z</time>
      </trkpt>
      <trkpt lat="42.773136" lon="0.136278">
        <ele>1987.8</ele>
        <time>2013-10-13T14:07:43Z</time>
      </trkpt>
      <trkpt lat="42.773235" lon="0.136311">
        <ele>1985.4</ele>
        <time>2013-10-13T14:07:52Z</time>
      </trkpt>
      <trkpt lat="42.773331" lon="0.136327">
        <ele>1984.3</ele>
        <time>2013-10-13T14:08:00Z</time>
      </trkpt>
      <trkpt lat="42.773436" lon="0.136316">
        <ele>1982.2</ele>
        <time>2013-10-13T14:08:13Z</time>
      </trkpt>
      <trkpt lat="42.773535" lon="0.136347">
        <ele>1980.0</ele>
        <time>2013-10-13T14:08:24Z</time>
      </trkpt>
      <trkpt lat="42.773640" lon="0.136337">
        <ele>1976.9</ele>
        <time>2013-10-13T14:08:36Z</time>
      </trkpt>
      <trkpt lat="42.773729" lon="0.136304">
        <ele>1974.8</ele>
        <time>2013-10-13T14:08:45Z</time>
      </trkpt>
      <trkpt lat="42.773820" lon="0.136295">
        <ele>1972.8</ele>
        <time>2013-10-13T14:08:55Z</time>
      </trkpt>
      <trkpt lat="42.773922" lon="0.136279">
        <ele>1970.7</ele>
        <time>2013-10-13T14:09:04Z</time>
      </trkpt>
      <trkpt lat="42.774040" lon="0.136266">
        <ele>1969.9</ele>
        <time>2013-10-13T14:09:13Z</time>
      </trkpt>
      <trkpt lat="42.774138" lon="0.136266">
        <ele>1969.2</ele>
        <time>2013-10-13T14:09:21Z</time>
      </trkpt>
      <trkpt lat="42.774225" lon="0.136281">
        <ele>1968.2</ele>
        <time>2013-10-13T14:09:29Z</time>
      </trkpt>
      <trkpt lat="42.774321" lon="0.136325">
        <ele>1967.1</ele>
        <time>2013-10-13T14:09:39Z</time>
      </trkpt>
      <trkpt lat="42.774417" lon="0.136335">
        <ele>1966.1</ele>
        <time>2013-10-13T14:09:47Z</time>
      </trkpt>
      <trkpt lat="42.774514" lon="0.136359">
        <ele>1965.0</ele>
        <time>2013-10-13T14:09:56Z</time>
      </trkpt>
      <trkpt lat="42.774612" lon="0.136402">
        <ele>1963.8</ele>
        <time>2013-10-13T14:10:05Z</time>
      </trkpt>
      <trkpt lat="42.774697" lon="0.136445">
        <ele>1962.7</ele>
        <time>2013-10-13T14:10:13Z</time>
      </trkpt>
      <trkpt lat="42.774796" lon="0.136465">
        <ele>1961.8</ele>
        <time>2013-10-13T14:10:21Z</time>
      </trkpt>
      <trkpt lat="42.774888" lon="0.136475">
        <ele>1960.5</ele>
        <time>2013-10-13T14:10:29Z</time>
      </trkpt>
      <trkpt lat="42.774974" lon="0.136506">
        <ele>1959.9</ele>
        <time>2013-10-13T14:10:36Z</time>
      </trkpt>
      <trkpt lat="42.775074" lon="0.136541">
        <ele>1958.6</ele>
        <time>2013-10-13T14:10:44Z</time>
      </trkpt>
      <trkpt lat="42.775156" lon="0.136490">
        <ele>1956.9</ele>
        <time>2013-10-13T14:10:53Z</time>
      </trkpt>
      <trkpt lat="42.775233" lon="0.136500">
        <ele>1956.1</ele>
        <time>2013-10-13T14:11:01Z</time>
      </trkpt>
      <trkpt lat="42.775311" lon="0.136546">
        <ele>1955.8</ele>
        <time>2013-10-13T14:11:09Z</time>
      </trkpt>
      <trkpt lat="42.775418" lon="0.136564">
        <ele>1955.3</ele>
        <time>2013-10-13T14:11:18Z</time>
      </trkpt>
      <trkpt lat="42.775516" lon="0.136612">
        <ele>1955.3</ele>
        <time>2013-10-13T14:11:26Z</time>
      </trkpt>
      <trkpt lat="42.775604" lon="0.136653">
        <ele>1955.7</ele>
        <time>2013-10-13T14:11:34Z</time>
      </trkpt>
      <trkpt lat="42.775679" lon="0.136723">
        <ele>1955.4</ele>
        <time>2013-10-13T14:11:43Z</time>
      </trkpt>
      <trkpt lat="42.775762" lon="0.136792">
        <ele>1953.9</ele>
        <time>2013-10-13T14:11:52Z</time>
      </trkpt>
      <trkpt lat="42.775862" lon="0.136853">
        <ele>1953.8</ele>
        <time>2013-10-13T14:12:01Z</time>
      </trkpt>
      <trkpt lat="42.775955" lon="0.136922">
        <ele>1954.3</ele>
        <time>2013-10-13T14:12:10Z</time>
      </trkpt>
      <trkpt lat="42.776030" lon="0.136974">
        <ele>1954.3</ele>
        <time>2013-10-13T14:12:17Z</time>
      </trkpt>
      <trkpt lat="42.776098" lon="0.137055">
        <ele>1955.0</ele>
        <time>2013-10-13T14:12:26Z</time>
      </trkpt>
      <trkpt lat="42.776146" lon="0.137156">
        <ele>1955.6</ele>
        <time>2013-10-13T14:12:34Z</time>
      </trkpt>
      <trkpt lat="42.776241" lon="0.137184">
        <ele>1955.6</ele>
        <time>2013-10-13T14:12:43Z</time>
      </trkpt>
      <trkpt lat="42.776339" lon="0.137176">
        <ele>1955.0</ele>
        <time>2013-10-13T14:12:51Z</time>
      </trkpt>
      <trkpt lat="42.776414" lon="0.137246">
        <ele>1954.2</ele>
        <time>2013-10-13T14:13:00Z</time>
      </trkpt>
      <trkpt lat="42.776488" lon="0.137313">
        <ele>1953.7</ele>
        <time>2013-10-13T14:13:08Z</time>
      </trkpt>
      <trkpt lat="42.776546" lon="0.137411">
        <ele>1953.2</ele>
        <time>2013-10-13T14:13:16Z</time>
      </trkpt>
      <trkpt lat="42.776622" lon="0.137464">
        <ele>1953.0</ele>
        <time>2013-10-13T14:13:24Z</time>
      </trkpt>
      <trkpt lat="42.776703" lon="0.137528">
        <ele>1953.5</ele>
        <time>2013-10-13T14:13:32Z</time>
      </trkpt>
      <trkpt lat="42.776772" lon="0.137613">
        <ele>1953.6</ele>
        <time>2013-10-13T14:13:39Z</time>
      </trkpt>
      <trkpt lat="42.776824" lon="0.137713">
        <ele>1953.6</ele>
        <time>2013-10-13T14:13:47Z</time>
      </trkpt>
      <trkpt lat="42.776887" lon="0.137810">
        <ele>1952.9</ele>
        <time>2013-10-13T14:13:56Z</time>
      </trkpt>
      <trkpt lat="42.776952" lon="0.137899">
        <ele>1951.2</ele>
        <time>2013-10-13T14:14:06Z</time>
      </trkpt>
      <trkpt lat="42.777029" lon="0.137898">
        <ele>1948.0</ele>
        <time>2013-10-13T14:14:17Z</time>
      </trkpt>
      <trkpt lat="42.777124" lon="0.137889">
        <ele>1944.3</ele>
        <time>2013-10-13T14:14:30Z</time>
      </trkpt>
      <trkpt lat="42.777210" lon="0.137916">
        <ele>1942.3</ele>
        <time>2013-10-13T14:14:38Z</time>
      </trkpt>
      <trkpt lat="42.777302" lon="0.137959">
        <ele>1940.6</ele>
        <time>2013-10-13T14:14:48Z</time>
      </trkpt>
      <trkpt lat="42.777376" lon="0.138026">
        <ele>1939.6</ele>
        <time>2013-10-13T14:14:56Z</time>
      </trkpt>
      <trkpt lat="42.777414" lon="0.138135">
        <ele>1939.0</ele>
        <time>2013-10-13T14:15:03Z</time>
      </trkpt>
      <trkpt lat="42.777454" lon="0.138237">
        <ele>1937.0</ele>
        <time>2013-10-13T14:15:12Z</time>
      </trkpt>
      <trkpt lat="42.777502" lon="0.138346">
        <ele>1934.1</ele>
        <time>2013-10-13T14:15:21Z</time>
      </trkpt>
      <trkpt lat="42.777537" lon="0.138479">
        <ele>1933.0</ele>
        <time>2013-10-13T14:15:31Z</time>
      </trkpt>
      <trkpt lat="42.777619" lon="0.138554">
        <ele>1930.8</ele>
        <time>2013-10-13T14:15:45Z</time>
      </trkpt>
      <trkpt lat="42.777709" lon="0.138620">
        <ele>1930.9</ele>
        <time>2013-10-13T14:15:57Z</time>
      </trkpt>
      <trkpt lat="42.777799" lon="0.138703">
        <ele>1932.2</ele>
        <time>2013-10-13T14:16:08Z</time>
      </trkpt>
      <trkpt lat="42.777869" lon="0.138793">
        <ele>1932.8</ele>
        <time>2013-10-13T14:16:17Z</time>
      </trkpt>
      <trkpt lat="42.777913" lon="0.138916">
        <ele>1932.9</ele>
        <time>2013-10-13T14:16:26Z</time>
      </trkpt>
      <trkpt lat="42.777983" lon="0.139036">
        <ele>1932.8</ele>
        <time>2013-10-13T14:16:36Z</time>
      </trkpt>
      <trkpt lat="42.778059" lon="0.139105">
        <ele>1933.0</ele>
        <time>2013-10-13T14:16:44Z</time>
      </trkpt>
      <trkpt lat="42.778125" lon="0.139200">
        <ele>1932.8</ele>
        <time>2013-10-13T14:16:53Z</time>
      </trkpt>
      <trkpt lat="42.778185" lon="0.139313">
        <ele>1933.4</ele>
        <time>2013-10-13T14:17:02Z</time>
      </trkpt>
      <trkpt lat="42.778250" lon="0.139410">
        <ele>1933.7</ele>
        <time>2013-10-13T14:17:12Z</time>
      </trkpt>
      <trkpt lat="42.778342" lon="0.139474">
        <ele>1933.7</ele>
        <time>2013-10-13T14:17:21Z</time>
      </trkpt>
      <trkpt lat="42.778412" lon="0.139527">
        <ele>1934.1</ele>
        <time>2013-10-13T14:17:30Z</time>
      </trkpt>
      <trkpt lat="42.778512" lon="0.139533">
        <ele>1934.1</ele>
        <time>2013-10-13T14:17:39Z</time>
      </trkpt>
      <trkpt lat="42.778602" lon="0.139616">
        <ele>1934.1</ele>
        <time>2013-10-13T14:17:49Z</time>
      </trkpt>
      <trkpt lat="42.778678" lon="0.139717">
        <ele>1934.3</ele>
        <time>2013-10-13T14:17:58Z</time>
      </trkpt>
      <trkpt lat="42.778753" lon="0.139814">
        <ele>1934.1</ele>
        <time>2013-10-13T14:18:06Z</time>
      </trkpt>
      <trkpt lat="42.778840" lon="0.139861">
        <ele>1934.5</ele>
        <time>2013-10-13T14:18:14Z</time>
      </trkpt>
      <trkpt lat="42.778927" lon="0.139874">
        <ele>1934.2</ele>
        <time>2013-10-13T14:18:22Z</time>
      </trkpt>
      <trkpt lat="42.779018" lon="0.139901">
        <ele>1933.8</ele>
        <time>2013-10-13T14:18:33Z</time>
      </trkpt>
      <trkpt lat="42.779077" lon="0.139948">
        <ele>1933.5</ele>
        <time>2013-10-13T14:19:27Z</time>
      </trkpt>
      <trkpt lat="42.779095" lon="0.139961">
        <ele>1933.9</ele>
        <time>2013-10-13T14:21:43Z</time>
      </trkpt>
      <trkpt lat="42.779185" lon="0.139987">
        <ele>1933.7</ele>
        <time>2013-10-13T14:21:52Z</time>
      </trkpt>
      <trkpt lat="42.779287" lon="0.139989">
        <ele>1933.0</ele>
        <time>2013-10-13T14:22:00Z</time>
      </trkpt>
      <trkpt lat="42.779392" lon="0.139975">
        <ele>1933.3</ele>
        <time>2013-10-13T14:22:09Z</time>
      </trkpt>
      <trkpt lat="42.779490" lon="0.139997">
        <ele>1933.3</ele>
        <time>2013-10-13T14:22:18Z</time>
      </trkpt>
      <trkpt lat="42.779589" lon="0.140038">
        <ele>1933.2</ele>
        <time>2013-10-13T14:22:27Z</time>
      </trkpt>
      <trkpt lat="42.779664" lon="0.140134">
        <ele>1932.7</ele>
        <time>2013-10-13T14:22:36Z</time>
      </trkpt>
      <trkpt lat="42.779693" lon="0.140260">
        <ele>1932.0</ele>
        <time>2013-10-13T14:22:46Z</time>
      </trkpt>
      <trkpt lat="42.779785" lon="0.140299">
        <ele>1931.9</ele>
        <time>2013-10-13T14:22:57Z</time>
      </trkpt>
      <trkpt lat="42.779877" lon="0.140239">
        <ele>1933.6</ele>
        <time>2013-10-13T14:23:07Z</time>
      </trkpt>
      <trkpt lat="42.779971" lon="0.140239">
        <ele>1933.9</ele>
        <time>2013-10-13T14:23:14Z</time>
      </trkpt>
      <trkpt lat="42.780064" lon="0.140282">
        <ele>1933.4</ele>
        <time>2013-10-13T14:23:22Z</time>
      </trkpt>
      <trkpt lat="42.780152" lon="0.140362">
        <ele>1933.3</ele>
        <time>2013-10-13T14:23:30Z</time>
      </trkpt>
      <trkpt lat="42.780248" lon="0.140419">
        <ele>1933.3</ele>
        <time>2013-10-13T14:23:39Z</time>
      </trkpt>
      <trkpt lat="42.780331" lon="0.140479">
        <ele>1934.2</ele>
        <time>2013-10-13T14:23:48Z</time>
      </trkpt>
      <trkpt lat="42.780415" lon="0.140550">
        <ele>1933.8</ele>
        <time>2013-10-13T14:23:56Z</time>
      </trkpt>
      <trkpt lat="42.780504" lon="0.140613">
        <ele>1932.4</ele>
        <time>2013-10-13T14:24:05Z</time>
      </trkpt>
      <trkpt lat="42.780583" lon="0.140672">
        <ele>1930.9</ele>
        <time>2013-10-13T14:24:12Z</time>
      </trkpt>
      <trkpt lat="42.780671" lon="0.140715">
        <ele>1929.4</ele>
        <time>2013-10-13T14:24:20Z</time>
      </trkpt>
      <trkpt lat="42.780750" lon="0.140780">
        <ele>1927.4</ele>
        <time>2013-10-13T14:24:29Z</time>
      </trkpt>
      <trkpt lat="42.780838" lon="0.140832">
        <ele>1926.3</ele>
        <time>2013-10-13T14:24:37Z</time>
      </trkpt>
      <trkpt lat="42.780917" lon="0.140890">
        <ele>1925.4</ele>
        <time>2013-10-13T14:24:45Z</time>
      </trkpt>
      <trkpt lat="42.780998" lon="0.140947">
        <ele>1924.8</ele>
        <time>2013-10-13T14:24:53Z</time>
      </trkpt>
      <trkpt lat="42.781087" lon="0.140999">
        <ele>1924.2</ele>
        <time>2013-10-13T14:25:02Z</time>
      </trkpt>
      <trkpt lat="42.781177" lon="0.141043">
        <ele>1923.0</ele>
        <time>2013-10-13T14:25:12Z</time>
      </trkpt>
      <trkpt lat="42.781265" lon="0.141082">
        <ele>1922.0</ele>
        <time>2013-10-13T14:25:21Z</time>
      </trkpt>
      <trkpt lat="42.781358" lon="0.141130">
        <ele>1920.9</ele>
        <time>2013-10-13T14:25:31Z</time>
      </trkpt>
      <trkpt lat="42.781437" lon="0.141191">
        <ele>1920.0</ele>
        <time>2013-10-13T14:25:40Z</time>
      </trkpt>
      <trkpt lat="42.781518" lon="0.141243">
        <ele>1918.6</ele>
        <time>2013-10-13T14:25:49Z</time>
      </trkpt>
      <trkpt lat="42.781597" lon="0.141310">
        <ele>1917.3</ele>
        <time>2013-10-13T14:25:58Z</time>
      </trkpt>
      <trkpt lat="42.781689" lon="0.141383">
        <ele>1915.6</ele>
        <time>2013-10-13T14:26:08Z</time>
      </trkpt>
      <trkpt lat="42.781760" lon="0.141440">
        <ele>1913.9</ele>
        <time>2013-10-13T14:26:18Z</time>
      </trkpt>
      <trkpt lat="42.781850" lon="0.141505">
        <ele>1912.5</ele>
        <time>2013-10-13T14:26:28Z</time>
      </trkpt>
      <trkpt lat="42.781933" lon="0.141562">
        <ele>1911.8</ele>
        <time>2013-10-13T14:26:37Z</time>
      </trkpt>
      <trkpt lat="42.782017" lon="0.141616">
        <ele>1910.6</ele>
        <time>2013-10-13T14:26:46Z</time>
      </trkpt>
      <trkpt lat="42.782103" lon="0.141671">
        <ele>1909.1</ele>
        <time>2013-10-13T14:26:56Z</time>
      </trkpt>
      <trkpt lat="42.782187" lon="0.141738">
        <ele>1908.0</ele>
        <time>2013-10-13T14:27:05Z</time>
      </trkpt>
      <trkpt lat="42.782273" lon="0.141815">
        <ele>1906.7</ele>
        <time>2013-10-13T14:27:14Z</time>
      </trkpt>
      <trkpt lat="42.782354" lon="0.141877">
        <ele>1905.5</ele>
        <time>2013-10-13T14:27:22Z</time>
      </trkpt>
      <trkpt lat="42.782434" lon="0.141944">
        <ele>1904.6</ele>
        <time>2013-10-13T14:27:30Z</time>
      </trkpt>
      <trkpt lat="42.782519" lon="0.142023">
        <ele>1904.0</ele>
        <time>2013-10-13T14:27:38Z</time>
      </trkpt>
      <trkpt lat="42.782613" lon="0.142092">
        <ele>1902.9</ele>
        <time>2013-10-13T14:27:47Z</time>
      </trkpt>
      <trkpt lat="42.782698" lon="0.142152">
        <ele>1902.1</ele>
        <time>2013-10-13T14:27:56Z</time>
      </trkpt>
      <trkpt lat="42.782788" lon="0.142199">
        <ele>1901.2</ele>
        <time>2013-10-13T14:28:04Z</time>
      </trkpt>
      <trkpt lat="42.782870" lon="0.142251">
        <ele>1900.7</ele>
        <time>2013-10-13T14:28:12Z</time>
      </trkpt>
      <trkpt lat="42.782941" lon="0.142323">
        <ele>1900.1</ele>
        <time>2013-10-13T14:28:20Z</time>
      </trkpt>
      <trkpt lat="42.783018" lon="0.142390">
        <ele>1899.1</ele>
        <time>2013-10-13T14:28:28Z</time>
      </trkpt>
      <trkpt lat="42.783094" lon="0.142459">
        <ele>1898.2</ele>
        <time>2013-10-13T14:28:36Z</time>
      </trkpt>
      <trkpt lat="42.783170" lon="0.142540">
        <ele>1896.9</ele>
        <time>2013-10-13T14:28:45Z</time>
      </trkpt>
      <trkpt lat="42.783246" lon="0.142613">
        <ele>1895.8</ele>
        <time>2013-10-13T14:28:54Z</time>
      </trkpt>
      <trkpt lat="42.783316" lon="0.142677">
        <ele>1894.3</ele>
        <time>2013-10-13T14:29:05Z</time>
      </trkpt>
      <trkpt lat="42.783387" lon="0.142759">
        <ele>1893.2</ele>
        <time>2013-10-13T14:29:39Z</time>
      </trkpt>
      <trkpt lat="42.783452" lon="0.142835">
        <ele>1892.3</ele>
        <time>2013-10-13T14:29:47Z</time>
      </trkpt>
      <trkpt lat="42.783513" lon="0.142921">
        <ele>1891.1</ele>
        <time>2013-10-13T14:29:55Z</time>
      </trkpt>
      <trkpt lat="42.783553" lon="0.143034">
        <ele>1889.6</ele>
        <time>2013-10-13T14:30:03Z</time>
      </trkpt>
      <trkpt lat="42.783582" lon="0.143156">
        <ele>1888.1</ele>
        <time>2013-10-13T14:30:11Z</time>
      </trkpt>
      <trkpt lat="42.783615" lon="0.143281">
        <ele>1886.8</ele>
        <time>2013-10-13T14:30:18Z</time>
      </trkpt>
      <trkpt lat="42.783660" lon="0.143395">
        <ele>1885.6</ele>
        <time>2013-10-13T14:30:26Z</time>
      </trkpt>
      <trkpt lat="42.783702" lon="0.143507">
        <ele>1884.1</ele>
        <time>2013-10-13T14:30:34Z</time>
      </trkpt>
      <trkpt lat="42.783751" lon="0.143622">
        <ele>1882.9</ele>
        <time>2013-10-13T14:30:43Z</time>
      </trkpt>
      <trkpt lat="42.783798" lon="0.143710">
        <ele>1882.4</ele>
        <time>2013-10-13T14:30:51Z</time>
      </trkpt>
      <trkpt lat="42.783863" lon="0.143810">
        <ele>1881.6</ele>
        <time>2013-10-13T14:30:59Z</time>
      </trkpt>
      <trkpt lat="42.783925" lon="0.143915">
        <ele>1880.8</ele>
        <time>2013-10-13T14:31:08Z</time>
      </trkpt>
      <trkpt lat="42.783990" lon="0.144015">
        <ele>1880.3</ele>
        <time>2013-10-13T14:31:17Z</time>
      </trkpt>
      <trkpt lat="42.784054" lon="0.144098">
        <ele>1879.4</ele>
        <time>2013-10-13T14:31:26Z</time>
      </trkpt>
      <trkpt lat="42.784109" lon="0.144199">
        <ele>1878.4</ele>
        <time>2013-10-13T14:31:35Z</time>
      </trkpt>
      <trkpt lat="42.784182" lon="0.144298">
        <ele>1877.2</ele>
        <time>2013-10-13T14:31:44Z</time>
      </trkpt>
      <trkpt lat="42.784253" lon="0.144396">
        <ele>1875.7</ele>
        <time>2013-10-13T14:31:52Z</time>
      </trkpt>
      <trkpt lat="42.784311" lon="0.144500">
        <ele>1874.4</ele>
        <time>2013-10-13T14:32:01Z</time>
      </trkpt>
      <trkpt lat="42.784370" lon="0.144608">
        <ele>1872.8</ele>
        <time>2013-10-13T14:32:11Z</time>
      </trkpt>
      <trkpt lat="42.784427" lon="0.144695">
        <ele>1870.8</ele>
        <time>2013-10-13T14:32:19Z</time>
      </trkpt>
      <trkpt lat="42.784495" lon="0.144795">
        <ele>1868.9</ele>
        <time>2013-10-13T14:32:28Z</time>
      </trkpt>
      <trkpt lat="42.784548" lon="0.144885">
        <ele>1867.6</ele>
        <time>2013-10-13T14:32:36Z</time>
      </trkpt>
      <trkpt lat="42.784603" lon="0.144980">
        <ele>1866.0</ele>
        <time>2013-10-13T14:32:44Z</time>
      </trkpt>
      <trkpt lat="42.784674" lon="0.145083">
        <ele>1864.3</ele>
        <time>2013-10-13T14:32:53Z</time>
      </trkpt>
      <trkpt lat="42.784729" lon="0.145176">
        <ele>1862.8</ele>
        <time>2013-10-13T14:33:01Z</time>
      </trkpt>
      <trkpt lat="42.784788" lon="0.145274">
        <ele>1861.4</ele>
        <time>2013-10-13T14:33:10Z</time>
      </trkpt>
      <trkpt lat="42.784845" lon="0.145387">
        <ele>1859.7</ele>
        <time>2013-10-13T14:33:19Z</time>
      </trkpt>
      <trkpt lat="42.784898" lon="0.145490">
        <ele>1858.2</ele>
        <time>2013-10-13T14:33:27Z</time>
      </trkpt>
      <trkpt lat="42.784951" lon="0.145602">
        <ele>1856.8</ele>
        <time>2013-10-13T14:33:34Z</time>
      </trkpt>
      <trkpt lat="42.785005" lon="0.145710">
        <ele>1855.5</ele>
        <time>2013-10-13T14:33:42Z</time>
      </trkpt>
      <trkpt lat="42.785037" lon="0.145836">
        <ele>1854.5</ele>
        <time>2013-10-13T14:33:50Z</time>
      </trkpt>
      <trkpt lat="42.785076" lon="0.145954">
        <ele>1853.4</ele>
        <time>2013-10-13T14:33:57Z</time>
      </trkpt>
      <trkpt lat="42.785101" lon="0.146079">
        <ele>1853.0</ele>
        <time>2013-10-13T14:34:05Z</time>
      </trkpt>
      <trkpt lat="42.785138" lon="0.146182">
        <ele>1852.1</ele>
        <time>2013-10-13T14:34:13Z</time>
      </trkpt>
      <trkpt lat="42.785175" lon="0.146283">
        <ele>1851.1</ele>
        <time>2013-10-13T14:34:20Z</time>
      </trkpt>
      <trkpt lat="42.785206" lon="0.146401">
        <ele>1850.3</ele>
        <time>2013-10-13T14:34:28Z</time>
      </trkpt>
      <trkpt lat="42.785241" lon="0.146513">
        <ele>1849.9</ele>
        <time>2013-10-13T14:34:36Z</time>
      </trkpt>
      <trkpt lat="42.785271" lon="0.146624">
        <ele>1849.6</ele>
        <time>2013-10-13T14:34:44Z</time>
      </trkpt>
      <trkpt lat="42.785302" lon="0.146750">
        <ele>1848.8</ele>
        <time>2013-10-13T14:34:53Z</time>
      </trkpt>
      <trkpt lat="42.785338" lon="0.146885">
        <ele>1848.3</ele>
        <time>2013-10-13T14:35:02Z</time>
      </trkpt>
      <trkpt lat="42.785371" lon="0.147029">
        <ele>1847.8</ele>
        <time>2013-10-13T14:35:10Z</time>
      </trkpt>
      <trkpt lat="42.785401" lon="0.147146">
        <ele>1847.3</ele>
        <time>2013-10-13T14:35:18Z</time>
      </trkpt>
      <trkpt lat="42.785437" lon="0.147254">
        <ele>1846.4</ele>
        <time>2013-10-13T14:35:26Z</time>
      </trkpt>
      <trkpt lat="42.785463" lon="0.147371">
        <ele>1845.5</ele>
        <time>2013-10-13T14:35:35Z</time>
      </trkpt>
      <trkpt lat="42.785488" lon="0.147495">
        <ele>1844.7</ele>
        <time>2013-10-13T14:35:43Z</time>
      </trkpt>
      <trkpt lat="42.785512" lon="0.147632">
        <ele>1843.8</ele>
        <time>2013-10-13T14:35:52Z</time>
      </trkpt>
      <trkpt lat="42.785542" lon="0.147761">
        <ele>1843.1</ele>
        <time>2013-10-13T14:36:00Z</time>
      </trkpt>
      <trkpt lat="42.785580" lon="0.147883">
        <ele>1842.4</ele>
        <time>2013-10-13T14:36:08Z</time>
      </trkpt>
      <trkpt lat="42.785620" lon="0.147995">
        <ele>1841.6</ele>
        <time>2013-10-13T14:36:17Z</time>
      </trkpt>
      <trkpt lat="42.785654" lon="0.148117">
        <ele>1840.4</ele>
        <time>2013-10-13T14:36:25Z</time>
      </trkpt>
      <trkpt lat="42.785681" lon="0.148237">
        <ele>1839.8</ele>
        <time>2013-10-13T14:36:32Z</time>
      </trkpt>
      <trkpt lat="42.785722" lon="0.148365">
        <ele>1839.1</ele>
        <time>2013-10-13T14:36:40Z</time>
      </trkpt>
      <trkpt lat="42.785759" lon="0.148499">
        <ele>1838.1</ele>
        <time>2013-10-13T14:36:48Z</time>
      </trkpt>
      <trkpt lat="42.785809" lon="0.148619">
        <ele>1837.4</ele>
        <time>2013-10-13T14:36:56Z</time>
      </trkpt>
      <trkpt lat="42.785828" lon="0.148745">
        <ele>1836.7</ele>
        <time>2013-10-13T14:37:04Z</time>
      </trkpt>
      <trkpt lat="42.785855" lon="0.148860">
        <ele>1836.1</ele>
        <time>2013-10-13T14:37:12Z</time>
      </trkpt>
      <trkpt lat="42.785883" lon="0.148979">
        <ele>1834.9</ele>
        <time>2013-10-13T14:37:21Z</time>
      </trkpt>
      <trkpt lat="42.785906" lon="0.149099">
        <ele>1834.2</ele>
        <time>2013-10-13T14:37:29Z</time>
      </trkpt>
      <trkpt lat="42.785933" lon="0.149231">
        <ele>1833.9</ele>
        <time>2013-10-13T14:37:38Z</time>
      </trkpt>
      <trkpt lat="42.785966" lon="0.149356">
        <ele>1833.3</ele>
        <time>2013-10-13T14:37:46Z</time>
      </trkpt>
      <trkpt lat="42.785987" lon="0.149468">
        <ele>1832.6</ele>
        <time>2013-10-13T14:37:54Z</time>
      </trkpt>
      <trkpt lat="42.786012" lon="0.149596">
        <ele>1831.7</ele>
        <time>2013-10-13T14:38:03Z</time>
      </trkpt>
      <trkpt lat="42.786034" lon="0.149728">
        <ele>1831.0</ele>
        <time>2013-10-13T14:38:11Z</time>
      </trkpt>
      <trkpt lat="42.786067" lon="0.149840">
        <ele>1830.3</ele>
        <time>2013-10-13T14:38:19Z</time>
      </trkpt>
      <trkpt lat="42.786113" lon="0.149949">
        <ele>1830.0</ele>
        <time>2013-10-13T14:38:28Z</time>
      </trkpt>
      <trkpt lat="42.786137" lon="0.150042">
        <ele>1829.4</ele>
        <time>2013-10-13T14:39:56Z</time>
      </trkpt>
      <trkpt lat="42.786140" lon="0.150203">
        <ele>1828.9</ele>
        <time>2013-10-13T14:40:47Z</time>
      </trkpt>
      <trkpt lat="42.786197" lon="0.150354">
        <ele>1828.6</ele>
        <time>2013-10-13T14:40:57Z</time>
      </trkpt>
      <trkpt lat="42.786231" lon="0.150481">
        <ele>1828.4</ele>
        <time>2013-10-13T14:41:05Z</time>
      </trkpt>
      <trkpt lat="42.786265" lon="0.150605">
        <ele>1828.6</ele>
        <time>2013-10-13T14:41:16Z</time>
      </trkpt>
      <trkpt lat="42.786296" lon="0.150729">
        <ele>1828.0</ele>
        <time>2013-10-13T14:41:25Z</time>
      </trkpt>
      <trkpt lat="42.786339" lon="0.150853">
        <ele>1827.6</ele>
        <time>2013-10-13T14:41:36Z</time>
      </trkpt>
      <trkpt lat="42.786372" lon="0.150994">
        <ele>1827.5</ele>
        <time>2013-10-13T14:41:46Z</time>
      </trkpt>
      <trkpt lat="42.786405" lon="0.151131">
        <ele>1827.2</ele>
        <time>2013-10-13T14:41:54Z</time>
      </trkpt>
      <trkpt lat="42.786435" lon="0.151264">
        <ele>1827.3</ele>
        <time>2013-10-13T14:42:02Z</time>
      </trkpt>
      <trkpt lat="42.786444" lon="0.151404">
        <ele>1827.6</ele>
        <time>2013-10-13T14:42:11Z</time>
      </trkpt>
      <trkpt lat="42.786454" lon="0.151542">
        <ele>1828.1</ele>
        <time>2013-10-13T14:42:20Z</time>
      </trkpt>
      <trkpt lat="42.786460" lon="0.151681">
        <ele>1828.7</ele>
        <time>2013-10-13T14:42:30Z</time>
      </trkpt>
      <trkpt lat="42.786463" lon="0.151821">
        <ele>1829.4</ele>
        <time>2013-10-13T14:42:39Z</time>
      </trkpt>
      <trkpt lat="42.786464" lon="0.151971">
        <ele>1830.4</ele>
        <time>2013-10-13T14:42:50Z</time>
      </trkpt>
      <trkpt lat="42.786447" lon="0.152112">
        <ele>1831.4</ele>
        <time>2013-10-13T14:42:59Z</time>
      </trkpt>
      <trkpt lat="42.786435" lon="0.152243">
        <ele>1832.0</ele>
        <time>2013-10-13T14:43:07Z</time>
      </trkpt>
      <trkpt lat="42.786417" lon="0.152363">
        <ele>1832.5</ele>
        <time>2013-10-13T14:43:15Z</time>
      </trkpt>
      <trkpt lat="42.786413" lon="0.152502">
        <ele>1833.4</ele>
        <time>2013-10-13T14:43:24Z</time>
      </trkpt>
      <trkpt lat="42.786473" lon="0.152722">
        <ele>1807.2</ele>
        <time>2013-10-13T14:43:32Z</time>
      </trkpt>
      <trkpt lat="42.786519" lon="0.152938">
        <ele>1804.4</ele>
        <time>2013-10-13T14:43:41Z</time>
      </trkpt>
      <trkpt lat="42.786577" lon="0.153287">
        <ele>1800.7</ele>
        <time>2013-10-13T14:43:50Z</time>
      </trkpt>
      <trkpt lat="42.786666" lon="0.153573">
        <ele>1797.4</ele>
        <time>2013-10-13T14:43:59Z</time>
      </trkpt>
      <trkpt lat="42.786741" lon="0.154126">
        <ele>1795.5</ele>
        <time>2013-10-13T14:44:25Z</time>
      </trkpt>
    </trkseg>
  </trk>
</gpx>

